<?xml version="1.0" encoding="UTF-8" standalone="no" ?><gpx xmlns="http://www.topografix.com/GPX/1/1" xmlns:gpxx="http://www.garmin.com/xmlschemas/GpxExtensions/v3" xmlns:wptx1="http://www.garmin.com/xmlschemas/WaypointExtension/v1" xmlns:gpxtpx="http://www.garmin.com/xmlschemas/TrackPointExtension/v1" creator="GuideVTT.com" version="1.1" xmlns:xsi="http://www.w3.org/2001/XMLSchema-instance" xsi:schemaLocation="http://www.topografix.com/GPX/1/1 http://www.topografix.com/GPX/1/1/gpx.xsd http://www.garmin.com/xmlschemas/GpxExtensions/v3 http://www8.garmin.com/xmlschemas/GpxExtensionsv3.xsd http://www.garmin.com/xmlschemas/WaypointExtension/v1 http://www8.garmin.com/xmlschemas/WaypointExtensionv1.xsd http://www.garmin.com/xmlschemas/TrackPointExtension/v1 http://www.garmin.com/xmlschemas/TrackPointExtensionv1.xsd">
<metadata><link href="http://www.garmin.com"><text>Garmin International</text></link><time>2013-06-22T15:13:50Z</time></metadata>
<trk><name>00000_20110507.gpx</name><extensions><gpxx:TrackExtension><gpxx:DisplayColor>Cyan</gpxx:DisplayColor></gpxx:TrackExtension></extensions><trkseg>
<trkpt lat="42.268070" lon="3.264315"><ele>225.9</ele><time>2011-05-07T09:15:23Z</time></trkpt>
<trkpt lat="42.268020" lon="3.264112"><ele>225.6</ele><time>2011-05-07T09:15:27Z</time></trkpt>
<trkpt lat="42.267967" lon="3.263838"><ele>225.2</ele><time>2011-05-07T09:15:32Z</time></trkpt>
<trkpt lat="42.267945" lon="3.263518"><ele>224.8</ele><time>2011-05-07T09:15:37Z</time></trkpt>
<trkpt lat="42.267780" lon="3.263365"><ele>224.8</ele><time>2011-05-07T09:15:42Z</time></trkpt>
<trkpt lat="42.267537" lon="3.263465"><ele>224.2</ele><time>2011-05-07T09:15:47Z</time></trkpt>
<trkpt lat="42.267262" lon="3.263568"><ele>223.6</ele><time>2011-05-07T09:15:52Z</time></trkpt>
<trkpt lat="42.266953" lon="3.263582"><ele>222.6</ele><time>2011-05-07T09:15:57Z</time></trkpt>
<trkpt lat="42.266685" lon="3.263798"><ele>221.6</ele><time>2011-05-07T09:16:02Z</time></trkpt>
<trkpt lat="42.266483" lon="3.264100"><ele>221</ele><time>2011-05-07T09:16:07Z</time></trkpt>
<trkpt lat="42.266288" lon="3.264417"><ele>220.7</ele><time>2011-05-07T09:16:12Z</time></trkpt>
<trkpt lat="42.266078" lon="3.264702"><ele>220.9</ele><time>2011-05-07T09:16:17Z</time></trkpt>
<trkpt lat="42.265850" lon="3.264945"><ele>220.9</ele><time>2011-05-07T09:16:22Z</time></trkpt>
<trkpt lat="42.265625" lon="3.265178"><ele>221</ele><time>2011-05-07T09:16:27Z</time></trkpt>
<trkpt lat="42.265388" lon="3.265395"><ele>221</ele><time>2011-05-07T09:16:32Z</time></trkpt>
<trkpt lat="42.265137" lon="3.265592"><ele>220.6</ele><time>2011-05-07T09:16:37Z</time></trkpt>
<trkpt lat="42.264855" lon="3.265720"><ele>220.6</ele><time>2011-05-07T09:16:42Z</time></trkpt>
<trkpt lat="42.264613" lon="3.265625"><ele>221.7</ele><time>2011-05-07T09:16:47Z</time></trkpt>
<trkpt lat="42.264527" lon="3.265392"><ele>223.1</ele><time>2011-05-07T09:16:52Z</time></trkpt>
<trkpt lat="42.264492" lon="3.265115"><ele>223.7</ele><time>2011-05-07T09:16:57Z</time></trkpt>
<trkpt lat="42.264397" lon="3.264845"><ele>223.7</ele><time>2011-05-07T09:17:02Z</time></trkpt>
<trkpt lat="42.264293" lon="3.264570"><ele>223.6</ele><time>2011-05-07T09:17:07Z</time></trkpt>
<trkpt lat="42.264225" lon="3.264282"><ele>223.9</ele><time>2011-05-07T09:17:12Z</time></trkpt>
<trkpt lat="42.264110" lon="3.264007"><ele>223.8</ele><time>2011-05-07T09:17:17Z</time></trkpt>
<trkpt lat="42.263873" lon="3.263908"><ele>223.8</ele><time>2011-05-07T09:17:22Z</time></trkpt>
<trkpt lat="42.263622" lon="3.263872"><ele>224.1</ele><time>2011-05-07T09:17:27Z</time></trkpt>
<trkpt lat="42.263515" lon="3.263608"><ele>224.7</ele><time>2011-05-07T09:17:32Z</time></trkpt>
<trkpt lat="42.263500" lon="3.263332"><ele>225.7</ele><time>2011-05-07T09:17:37Z</time></trkpt>
<trkpt lat="42.263503" lon="3.263082"><ele>226.5</ele><time>2011-05-07T09:17:42Z</time></trkpt>
<trkpt lat="42.263515" lon="3.262843"><ele>227.4</ele><time>2011-05-07T09:17:47Z</time></trkpt>
<trkpt lat="42.263542" lon="3.262598"><ele>227.6</ele><time>2011-05-07T09:17:52Z</time></trkpt>
<trkpt lat="42.263557" lon="3.262348"><ele>228.3</ele><time>2011-05-07T09:17:57Z</time></trkpt>
<trkpt lat="42.263588" lon="3.262108"><ele>228.9</ele><time>2011-05-07T09:18:02Z</time></trkpt>
<trkpt lat="42.263622" lon="3.261860"><ele>229.6</ele><time>2011-05-07T09:18:07Z</time></trkpt>
<trkpt lat="42.263642" lon="3.261615"><ele>230.6</ele><time>2011-05-07T09:18:12Z</time></trkpt>
<trkpt lat="42.263633" lon="3.261367"><ele>231.4</ele><time>2011-05-07T09:18:17Z</time></trkpt>
<trkpt lat="42.263622" lon="3.261112"><ele>232.4</ele><time>2011-05-07T09:18:22Z</time></trkpt>
<trkpt lat="42.263657" lon="3.260850"><ele>233.1</ele><time>2011-05-07T09:18:27Z</time></trkpt>
<trkpt lat="42.263728" lon="3.260577"><ele>233</ele><time>2011-05-07T09:18:32Z</time></trkpt>
<trkpt lat="42.263858" lon="3.260322"><ele>232.1</ele><time>2011-05-07T09:18:37Z</time></trkpt>
<trkpt lat="42.264038" lon="3.260080"><ele>231.2</ele><time>2011-05-07T09:18:42Z</time></trkpt>
<trkpt lat="42.264195" lon="3.259900"><ele>230.5</ele><time>2011-05-07T09:18:47Z</time></trkpt>
<trkpt lat="42.264195" lon="3.259895"><ele>230.3</ele><time>2011-05-07T09:18:52Z</time></trkpt>
<trkpt lat="42.264210" lon="3.259892"><ele>230</ele><time>2011-05-07T09:18:57Z</time></trkpt>
<trkpt lat="42.264233" lon="3.259870"><ele>229.7</ele><time>2011-05-07T09:19:02Z</time></trkpt>
<trkpt lat="42.264287" lon="3.259790"><ele>229.9</ele><time>2011-05-07T09:19:07Z</time></trkpt>
<trkpt lat="42.264447" lon="3.259675"><ele>229.4</ele><time>2011-05-07T09:19:12Z</time></trkpt>
<trkpt lat="42.264645" lon="3.259587"><ele>228.7</ele><time>2011-05-07T09:19:17Z</time></trkpt>
<trkpt lat="42.264840" lon="3.259442"><ele>228.4</ele><time>2011-05-07T09:19:22Z</time></trkpt>
<trkpt lat="42.264983" lon="3.259198"><ele>227.8</ele><time>2011-05-07T09:19:27Z</time></trkpt>
<trkpt lat="42.265110" lon="3.258917"><ele>227.4</ele><time>2011-05-07T09:19:32Z</time></trkpt>
<trkpt lat="42.265225" lon="3.258652"><ele>227.4</ele><time>2011-05-07T09:19:37Z</time></trkpt>
<trkpt lat="42.265327" lon="3.258353"><ele>227.2</ele><time>2011-05-07T09:19:42Z</time></trkpt>
<trkpt lat="42.265323" lon="3.257997"><ele>227.5</ele><time>2011-05-07T09:19:47Z</time></trkpt>
<trkpt lat="42.265327" lon="3.257630"><ele>227.6</ele><time>2011-05-07T09:19:52Z</time></trkpt>
<trkpt lat="42.265353" lon="3.257253"><ele>227.8</ele><time>2011-05-07T09:19:57Z</time></trkpt>
<trkpt lat="42.265397" lon="3.256897"><ele>228.4</ele><time>2011-05-07T09:20:02Z</time></trkpt>
<trkpt lat="42.265492" lon="3.256542"><ele>228.8</ele><time>2011-05-07T09:20:07Z</time></trkpt>
<trkpt lat="42.265590" lon="3.256188"><ele>229</ele><time>2011-05-07T09:20:12Z</time></trkpt>
<trkpt lat="42.265682" lon="3.255830"><ele>229.3</ele><time>2011-05-07T09:20:17Z</time></trkpt>
<trkpt lat="42.265800" lon="3.255510"><ele>229.4</ele><time>2011-05-07T09:20:22Z</time></trkpt>
<trkpt lat="42.266025" lon="3.255323"><ele>228.6</ele><time>2011-05-07T09:20:27Z</time></trkpt>
<trkpt lat="42.266320" lon="3.255217"><ele>227.5</ele><time>2011-05-07T09:20:32Z</time></trkpt>
<trkpt lat="42.266610" lon="3.255103"><ele>226.9</ele><time>2011-05-07T09:20:37Z</time></trkpt>
<trkpt lat="42.266910" lon="3.255092"><ele>226</ele><time>2011-05-07T09:20:42Z</time></trkpt>
<trkpt lat="42.267140" lon="3.254898"><ele>224.7</ele><time>2011-05-07T09:20:47Z</time></trkpt>
<trkpt lat="42.267132" lon="3.254510"><ele>224</ele><time>2011-05-07T09:20:52Z</time></trkpt>
<trkpt lat="42.267285" lon="3.254167"><ele>223.5</ele><time>2011-05-07T09:20:57Z</time></trkpt>
<trkpt lat="42.267543" lon="3.253962"><ele>222.6</ele><time>2011-05-07T09:21:02Z</time></trkpt>
<trkpt lat="42.267853" lon="3.253863"><ele>221.9</ele><time>2011-05-07T09:21:07Z</time></trkpt>
<trkpt lat="42.268093" lon="3.253827"><ele>221.7</ele><time>2011-05-07T09:21:12Z</time></trkpt>
<trkpt lat="42.268200" lon="3.253625"><ele>220.7</ele><time>2011-05-07T09:21:17Z</time></trkpt>
<trkpt lat="42.268040" lon="3.253312"><ele>218.9</ele><time>2011-05-07T09:21:22Z</time></trkpt>
<trkpt lat="42.267818" lon="3.252992"><ele>217.2</ele><time>2011-05-07T09:21:27Z</time></trkpt>
<trkpt lat="42.267827" lon="3.252547"><ele>215</ele><time>2011-05-07T09:21:32Z</time></trkpt>
<trkpt lat="42.267937" lon="3.252060"><ele>212.6</ele><time>2011-05-07T09:21:37Z</time></trkpt>
<trkpt lat="42.267928" lon="3.251555"><ele>209.9</ele><time>2011-05-07T09:21:42Z</time></trkpt>
<trkpt lat="42.267688" lon="3.251187"><ele>208.1</ele><time>2011-05-07T09:21:47Z</time></trkpt>
<trkpt lat="42.267457" lon="3.250775"><ele>205.7</ele><time>2011-05-07T09:21:52Z</time></trkpt>
<trkpt lat="42.267200" lon="3.250382"><ele>203.4</ele><time>2011-05-07T09:21:57Z</time></trkpt>
<trkpt lat="42.267238" lon="3.249878"><ele>200.9</ele><time>2011-05-07T09:22:02Z</time></trkpt>
<trkpt lat="42.267433" lon="3.249413"><ele>198.5</ele><time>2011-05-07T09:22:07Z</time></trkpt>
<trkpt lat="42.267582" lon="3.249077"><ele>196.6</ele><time>2011-05-07T09:22:12Z</time></trkpt>
<trkpt lat="42.267360" lon="3.248990"><ele>195.3</ele><time>2011-05-07T09:22:17Z</time></trkpt>
<trkpt lat="42.267033" lon="3.249085"><ele>193</ele><time>2011-05-07T09:22:22Z</time></trkpt>
<trkpt lat="42.266693" lon="3.249188"><ele>191.1</ele><time>2011-05-07T09:22:27Z</time></trkpt>
<trkpt lat="42.266338" lon="3.249172"><ele>188.4</ele><time>2011-05-07T09:22:32Z</time></trkpt>
<trkpt lat="42.265957" lon="3.249263"><ele>185.8</ele><time>2011-05-07T09:22:37Z</time></trkpt>
<trkpt lat="42.265568" lon="3.249403"><ele>183.7</ele><time>2011-05-07T09:22:42Z</time></trkpt>
<trkpt lat="42.265193" lon="3.249442"><ele>181.1</ele><time>2011-05-07T09:22:47Z</time></trkpt>
<trkpt lat="42.264873" lon="3.249152"><ele>178.3</ele><time>2011-05-07T09:22:52Z</time></trkpt>
<trkpt lat="42.264560" lon="3.248753"><ele>174.5</ele><time>2011-05-07T09:22:57Z</time></trkpt>
<trkpt lat="42.264228" lon="3.248412"><ele>170.7</ele><time>2011-05-07T09:23:02Z</time></trkpt>
<trkpt lat="42.264092" lon="3.248030"><ele>167.6</ele><time>2011-05-07T09:23:07Z</time></trkpt>
<trkpt lat="42.264133" lon="3.247575"><ele>164.8</ele><time>2011-05-07T09:23:12Z</time></trkpt>
<trkpt lat="42.263858" lon="3.247390"><ele>162.5</ele><time>2011-05-07T09:23:17Z</time></trkpt>
<trkpt lat="42.263500" lon="3.247290"><ele>159.3</ele><time>2011-05-07T09:23:22Z</time></trkpt>
<trkpt lat="42.263165" lon="3.247065"><ele>155.7</ele><time>2011-05-07T09:23:27Z</time></trkpt>
<trkpt lat="42.262905" lon="3.246777"><ele>152.5</ele><time>2011-05-07T09:23:32Z</time></trkpt>
<trkpt lat="42.262952" lon="3.246302"><ele>149.5</ele><time>2011-05-07T09:23:37Z</time></trkpt>
<trkpt lat="42.262863" lon="3.245837"><ele>146.3</ele><time>2011-05-07T09:23:41Z</time></trkpt>
<trkpt lat="42.262543" lon="3.245543"><ele>142.7</ele><time>2011-05-07T09:23:46Z</time></trkpt>
<trkpt lat="42.262222" lon="3.245368"><ele>139.4</ele><time>2011-05-07T09:23:51Z</time></trkpt>
<trkpt lat="42.262017" lon="3.244998"><ele>135.4</ele><time>2011-05-07T09:23:56Z</time></trkpt>
<trkpt lat="42.262093" lon="3.244532"><ele>132</ele><time>2011-05-07T09:24:01Z</time></trkpt>
<trkpt lat="42.262352" lon="3.244157"><ele>128.8</ele><time>2011-05-07T09:24:06Z</time></trkpt>
<trkpt lat="42.262615" lon="3.243905"><ele>126.1</ele><time>2011-05-07T09:24:11Z</time></trkpt>
<trkpt lat="42.262562" lon="3.243695"><ele>123.1</ele><time>2011-05-07T09:24:16Z</time></trkpt>
<trkpt lat="42.262295" lon="3.243835"><ele>120.5</ele><time>2011-05-07T09:24:21Z</time></trkpt>
<trkpt lat="42.262005" lon="3.244060"><ele>117.2</ele><time>2011-05-07T09:24:26Z</time></trkpt>
<trkpt lat="42.261688" lon="3.244305"><ele>113.2</ele><time>2011-05-07T09:24:31Z</time></trkpt>
<trkpt lat="42.261493" lon="3.244788"><ele>109.6</ele><time>2011-05-07T09:24:36Z</time></trkpt>
<trkpt lat="42.261327" lon="3.245255"><ele>105.8</ele><time>2011-05-07T09:24:41Z</time></trkpt>
<trkpt lat="42.261208" lon="3.245717"><ele>102.8</ele><time>2011-05-07T09:24:46Z</time></trkpt>
<trkpt lat="42.261387" lon="3.246098"><ele>99.4</ele><time>2011-05-07T09:24:51Z</time></trkpt>
<trkpt lat="42.261668" lon="3.246423"><ele>95.7</ele><time>2011-05-07T09:24:56Z</time></trkpt>
<trkpt lat="42.261650" lon="3.246918"><ele>92.6</ele><time>2011-05-07T09:25:01Z</time></trkpt>
<trkpt lat="42.261653" lon="3.247475"><ele>88.8</ele><time>2011-05-07T09:25:06Z</time></trkpt>
<trkpt lat="42.261795" lon="3.248032"><ele>84.5</ele><time>2011-05-07T09:25:11Z</time></trkpt>
<trkpt lat="42.261913" lon="3.248417"><ele>81.8</ele><time>2011-05-07T09:25:16Z</time></trkpt>
<trkpt lat="42.261688" lon="3.248612"><ele>80</ele><time>2011-05-07T09:25:21Z</time></trkpt>
<trkpt lat="42.261372" lon="3.248673"><ele>78</ele><time>2011-05-07T09:25:26Z</time></trkpt>
<trkpt lat="42.261005" lon="3.248787"><ele>75.2</ele><time>2011-05-07T09:25:31Z</time></trkpt>
<trkpt lat="42.260640" lon="3.249077"><ele>71.1</ele><time>2011-05-07T09:25:36Z</time></trkpt>
<trkpt lat="42.260247" lon="3.249245"><ele>68.1</ele><time>2011-05-07T09:25:41Z</time></trkpt>
<trkpt lat="42.260067" lon="3.249332"><ele>66</ele><time>2011-05-07T09:25:46Z</time></trkpt>
<trkpt lat="42.260205" lon="3.249097"><ele>63.9</ele><time>2011-05-07T09:25:51Z</time></trkpt>
<trkpt lat="42.260517" lon="3.248882"><ele>60.9</ele><time>2011-05-07T09:25:56Z</time></trkpt>
<trkpt lat="42.260827" lon="3.248565"><ele>58.5</ele><time>2011-05-07T09:26:01Z</time></trkpt>
<trkpt lat="42.261135" lon="3.248298"><ele>56</ele><time>2011-05-07T09:26:06Z</time></trkpt>
<trkpt lat="42.261235" lon="3.248065"><ele>54.8</ele><time>2011-05-07T09:26:11Z</time></trkpt>
<trkpt lat="42.261120" lon="3.247812"><ele>52.9</ele><time>2011-05-07T09:26:16Z</time></trkpt>
<trkpt lat="42.260940" lon="3.247405"><ele>50.5</ele><time>2011-05-07T09:26:21Z</time></trkpt>
<trkpt lat="42.260762" lon="3.246932"><ele>47.6</ele><time>2011-05-07T09:26:26Z</time></trkpt>
<trkpt lat="42.260413" lon="3.246737"><ele>44.1</ele><time>2011-05-07T09:26:31Z</time></trkpt>
<trkpt lat="42.260265" lon="3.246673"><ele>42.7</ele><time>2011-05-07T09:26:36Z</time></trkpt>
<trkpt lat="42.260258" lon="3.246662"><ele>42.2</ele><time>2011-05-07T09:26:41Z</time></trkpt>
<trkpt lat="42.260197" lon="3.246670"><ele>41.7</ele><time>2011-05-07T09:26:46Z</time></trkpt>
<trkpt lat="42.259987" lon="3.246547"><ele>39.2</ele><time>2011-05-07T09:26:51Z</time></trkpt>
<trkpt lat="42.259800" lon="3.246122"><ele>36.2</ele><time>2011-05-07T09:26:56Z</time></trkpt>
<trkpt lat="42.259758" lon="3.245682"><ele>36.4</ele><time>2011-05-07T09:27:01Z</time></trkpt>
<trkpt lat="42.259930" lon="3.245437"><ele>38.1</ele><time>2011-05-07T09:27:06Z</time></trkpt>
<trkpt lat="42.260093" lon="3.245252"><ele>39.6</ele><time>2011-05-07T09:27:11Z</time></trkpt>
<trkpt lat="42.260208" lon="3.245085"><ele>41.2</ele><time>2011-05-07T09:27:16Z</time></trkpt>
<trkpt lat="42.260300" lon="3.244917"><ele>42.8</ele><time>2011-05-07T09:27:21Z</time></trkpt>
<trkpt lat="42.260307" lon="3.244713"><ele>44.1</ele><time>2011-05-07T09:27:26Z</time></trkpt>
<trkpt lat="42.260162" lon="3.244672"><ele>44.9</ele><time>2011-05-07T09:27:31Z</time></trkpt>
<trkpt lat="42.260052" lon="3.244815"><ele>45.5</ele><time>2011-05-07T09:27:36Z</time></trkpt>
<trkpt lat="42.259960" lon="3.244995"><ele>46.2</ele><time>2011-05-07T09:27:41Z</time></trkpt>
<trkpt lat="42.259850" lon="3.245168"><ele>46.5</ele><time>2011-05-07T09:27:46Z</time></trkpt>
<trkpt lat="42.259727" lon="3.245318"><ele>47.1</ele><time>2011-05-07T09:27:51Z</time></trkpt>
<trkpt lat="42.259602" lon="3.245468"><ele>47.5</ele><time>2011-05-07T09:27:56Z</time></trkpt>
<trkpt lat="42.259460" lon="3.245585"><ele>48</ele><time>2011-05-07T09:28:01Z</time></trkpt>
<trkpt lat="42.259293" lon="3.245572"><ele>48.4</ele><time>2011-05-07T09:28:06Z</time></trkpt>
<trkpt lat="42.259125" lon="3.245503"><ele>48.7</ele><time>2011-05-07T09:28:11Z</time></trkpt>
<trkpt lat="42.258957" lon="3.245438"><ele>49.5</ele><time>2011-05-07T09:28:16Z</time></trkpt>
<trkpt lat="42.258853" lon="3.245540"><ele>50.1</ele><time>2011-05-07T09:28:21Z</time></trkpt>
<trkpt lat="42.258873" lon="3.245733"><ele>50.9</ele><time>2011-05-07T09:28:26Z</time></trkpt>
<trkpt lat="42.258953" lon="3.245887"><ele>51.8</ele><time>2011-05-07T09:28:31Z</time></trkpt>
<trkpt lat="42.259033" lon="3.246023"><ele>53</ele><time>2011-05-07T09:28:36Z</time></trkpt>
<trkpt lat="42.259075" lon="3.246177"><ele>54.3</ele><time>2011-05-07T09:28:41Z</time></trkpt>
<trkpt lat="42.259102" lon="3.246352"><ele>55.6</ele><time>2011-05-07T09:28:46Z</time></trkpt>
<trkpt lat="42.259122" lon="3.246553"><ele>56.2</ele><time>2011-05-07T09:28:51Z</time></trkpt>
<trkpt lat="42.259143" lon="3.246737"><ele>57.6</ele><time>2011-05-07T09:28:56Z</time></trkpt>
<trkpt lat="42.259158" lon="3.246913"><ele>58.7</ele><time>2011-05-07T09:29:01Z</time></trkpt>
<trkpt lat="42.259178" lon="3.247097"><ele>59.9</ele><time>2011-05-07T09:29:06Z</time></trkpt>
<trkpt lat="42.259185" lon="3.247280"><ele>61.3</ele><time>2011-05-07T09:29:11Z</time></trkpt>
<trkpt lat="42.259143" lon="3.247453"><ele>62.3</ele><time>2011-05-07T09:29:16Z</time></trkpt>
<trkpt lat="42.259048" lon="3.247593"><ele>63.2</ele><time>2011-05-07T09:29:21Z</time></trkpt>
<trkpt lat="42.258907" lon="3.247660"><ele>63.9</ele><time>2011-05-07T09:29:26Z</time></trkpt>
<trkpt lat="42.258773" lon="3.247685"><ele>64.9</ele><time>2011-05-07T09:29:31Z</time></trkpt>
<trkpt lat="42.258648" lon="3.247692"><ele>65.7</ele><time>2011-05-07T09:29:36Z</time></trkpt>
<trkpt lat="42.258527" lon="3.247703"><ele>66.6</ele><time>2011-05-07T09:29:41Z</time></trkpt>
<trkpt lat="42.258412" lon="3.247713"><ele>67.5</ele><time>2011-05-07T09:29:46Z</time></trkpt>
<trkpt lat="42.258300" lon="3.247742"><ele>68.2</ele><time>2011-05-07T09:29:51Z</time></trkpt>
<trkpt lat="42.258172" lon="3.247798"><ele>68.7</ele><time>2011-05-07T09:29:56Z</time></trkpt>
<trkpt lat="42.258068" lon="3.247872"><ele>69.8</ele><time>2011-05-07T09:30:01Z</time></trkpt>
<trkpt lat="42.257965" lon="3.247955"><ele>71</ele><time>2011-05-07T09:30:06Z</time></trkpt>
<trkpt lat="42.257873" lon="3.248072"><ele>71.6</ele><time>2011-05-07T09:30:11Z</time></trkpt>
<trkpt lat="42.257782" lon="3.248218"><ele>72</ele><time>2011-05-07T09:30:16Z</time></trkpt>
<trkpt lat="42.257678" lon="3.248362"><ele>72.2</ele><time>2011-05-07T09:30:21Z</time></trkpt>
<trkpt lat="42.257550" lon="3.248497"><ele>71.8</ele><time>2011-05-07T09:30:26Z</time></trkpt>
<trkpt lat="42.257427" lon="3.248645"><ele>72.2</ele><time>2011-05-07T09:30:31Z</time></trkpt>
<trkpt lat="42.257320" lon="3.248778"><ele>73</ele><time>2011-05-07T09:30:36Z</time></trkpt>
<trkpt lat="42.257233" lon="3.248905"><ele>74.1</ele><time>2011-05-07T09:30:41Z</time></trkpt>
<trkpt lat="42.257137" lon="3.249037"><ele>75.1</ele><time>2011-05-07T09:30:46Z</time></trkpt>
<trkpt lat="42.257035" lon="3.249165"><ele>76.1</ele><time>2011-05-07T09:30:51Z</time></trkpt>
<trkpt lat="42.256917" lon="3.249263"><ele>76.9</ele><time>2011-05-07T09:30:56Z</time></trkpt>
<trkpt lat="42.256772" lon="3.249285"><ele>77.6</ele><time>2011-05-07T09:31:01Z</time></trkpt>
<trkpt lat="42.256630" lon="3.249217"><ele>78.1</ele><time>2011-05-07T09:31:06Z</time></trkpt>
<trkpt lat="42.256512" lon="3.249113"><ele>79.5</ele><time>2011-05-07T09:31:11Z</time></trkpt>
<trkpt lat="42.256458" lon="3.248973"><ele>80.4</ele><time>2011-05-07T09:31:16Z</time></trkpt>
<trkpt lat="42.256417" lon="3.248832"><ele>81.3</ele><time>2011-05-07T09:31:21Z</time></trkpt>
<trkpt lat="42.256370" lon="3.248690"><ele>82.4</ele><time>2011-05-07T09:31:26Z</time></trkpt>
<trkpt lat="42.256302" lon="3.248553"><ele>83</ele><time>2011-05-07T09:31:31Z</time></trkpt>
<trkpt lat="42.256210" lon="3.248457"><ele>83.7</ele><time>2011-05-07T09:31:36Z</time></trkpt>
<trkpt lat="42.256080" lon="3.248463"><ele>84.5</ele><time>2011-05-07T09:31:41Z</time></trkpt>
<trkpt lat="42.255985" lon="3.248557"><ele>85.5</ele><time>2011-05-07T09:31:46Z</time></trkpt>
<trkpt lat="42.255870" lon="3.248622"><ele>86.5</ele><time>2011-05-07T09:31:51Z</time></trkpt>
<trkpt lat="42.255748" lon="3.248663"><ele>87</ele><time>2011-05-07T09:31:56Z</time></trkpt>
<trkpt lat="42.255623" lon="3.248738"><ele>87.8</ele><time>2011-05-07T09:32:01Z</time></trkpt>
<trkpt lat="42.255517" lon="3.248832"><ele>88.9</ele><time>2011-05-07T09:32:06Z</time></trkpt>
<trkpt lat="42.255417" lon="3.248938"><ele>89.9</ele><time>2011-05-07T09:32:11Z</time></trkpt>
<trkpt lat="42.255310" lon="3.249042"><ele>90.8</ele><time>2011-05-07T09:32:16Z</time></trkpt>
<trkpt lat="42.255203" lon="3.249137"><ele>91.9</ele><time>2011-05-07T09:32:21Z</time></trkpt>
<trkpt lat="42.255093" lon="3.249252"><ele>92.8</ele><time>2011-05-07T09:32:26Z</time></trkpt>
<trkpt lat="42.254970" lon="3.249298"><ele>93.7</ele><time>2011-05-07T09:32:31Z</time></trkpt>
<trkpt lat="42.254837" lon="3.249328"><ele>94.6</ele><time>2011-05-07T09:32:36Z</time></trkpt>
<trkpt lat="42.254703" lon="3.249402"><ele>95.7</ele><time>2011-05-07T09:32:41Z</time></trkpt>
<trkpt lat="42.254573" lon="3.249473"><ele>96.7</ele><time>2011-05-07T09:32:46Z</time></trkpt>
<trkpt lat="42.254422" lon="3.249498"><ele>97.9</ele><time>2011-05-07T09:32:51Z</time></trkpt>
<trkpt lat="42.254265" lon="3.249495"><ele>98.5</ele><time>2011-05-07T09:32:56Z</time></trkpt>
<trkpt lat="42.254128" lon="3.249420"><ele>99.8</ele><time>2011-05-07T09:33:01Z</time></trkpt>
<trkpt lat="42.254005" lon="3.249275"><ele>100.8</ele><time>2011-05-07T09:33:06Z</time></trkpt>
<trkpt lat="42.253913" lon="3.249085"><ele>101.5</ele><time>2011-05-07T09:33:11Z</time></trkpt>
<trkpt lat="42.253792" lon="3.248893"><ele>101</ele><time>2011-05-07T09:33:16Z</time></trkpt>
<trkpt lat="42.253647" lon="3.248948"><ele>101.4</ele><time>2011-05-07T09:33:21Z</time></trkpt>
<trkpt lat="42.253608" lon="3.249127"><ele>103</ele><time>2011-05-07T09:33:26Z</time></trkpt>
<trkpt lat="42.253483" lon="3.249177"><ele>103.9</ele><time>2011-05-07T09:33:31Z</time></trkpt>
<trkpt lat="42.253342" lon="3.249153"><ele>105.1</ele><time>2011-05-07T09:33:36Z</time></trkpt>
<trkpt lat="42.253188" lon="3.249195"><ele>105.7</ele><time>2011-05-07T09:33:41Z</time></trkpt>
<trkpt lat="42.253055" lon="3.249305"><ele>106.3</ele><time>2011-05-07T09:33:46Z</time></trkpt>
<trkpt lat="42.252987" lon="3.249443"><ele>106.7</ele><time>2011-05-07T09:33:51Z</time></trkpt>
<trkpt lat="42.253025" lon="3.249500"><ele>107.1</ele><time>2011-05-07T09:33:56Z</time></trkpt>
<trkpt lat="42.253043" lon="3.249493"><ele>107.4</ele><time>2011-05-07T09:34:01Z</time></trkpt>
<trkpt lat="42.253052" lon="3.249512"><ele>107.8</ele><time>2011-05-07T09:34:06Z</time></trkpt>
<trkpt lat="42.253052" lon="3.249512"><ele>107.9</ele><time>2011-05-07T09:34:11Z</time></trkpt>
<trkpt lat="42.253055" lon="3.249512"><ele>107.9</ele><time>2011-05-07T09:34:16Z</time></trkpt>
<trkpt lat="42.253055" lon="3.249508"><ele>107.8</ele><time>2011-05-07T09:34:21Z</time></trkpt>
<trkpt lat="42.253055" lon="3.249508"><ele>107.9</ele><time>2011-05-07T09:34:26Z</time></trkpt>
<trkpt lat="42.253055" lon="3.249507"><ele>107.9</ele><time>2011-05-07T09:34:31Z</time></trkpt>
<trkpt lat="42.253055" lon="3.249508"><ele>108</ele><time>2011-05-07T09:34:36Z</time></trkpt>
<trkpt lat="42.253060" lon="3.249508"><ele>108</ele><time>2011-05-07T09:34:41Z</time></trkpt>
<trkpt lat="42.253060" lon="3.249508"><ele>108</ele><time>2011-05-07T09:34:46Z</time></trkpt>
<trkpt lat="42.253060" lon="3.249508"><ele>108.1</ele><time>2011-05-07T09:34:51Z</time></trkpt>
<trkpt lat="42.253060" lon="3.249508"><ele>108</ele><time>2011-05-07T09:34:56Z</time></trkpt>
<trkpt lat="42.253052" lon="3.249493"><ele>107.7</ele><time>2011-05-07T09:35:01Z</time></trkpt>
<trkpt lat="42.253052" lon="3.249493"><ele>107.6</ele><time>2011-05-07T09:35:06Z</time></trkpt>
<trkpt lat="42.253052" lon="3.249495"><ele>107.6</ele><time>2011-05-07T09:35:11Z</time></trkpt>
<trkpt lat="42.253052" lon="3.249492"><ele>107.3</ele><time>2011-05-07T09:35:16Z</time></trkpt>
<trkpt lat="42.253052" lon="3.249488"><ele>106.9</ele><time>2011-05-07T09:35:21Z</time></trkpt>
<trkpt lat="42.253052" lon="3.249490"><ele>106.9</ele><time>2011-05-07T09:35:26Z</time></trkpt>
<trkpt lat="42.253052" lon="3.249482"><ele>106.8</ele><time>2011-05-07T09:35:31Z</time></trkpt>
<trkpt lat="42.253025" lon="3.249428"><ele>106.7</ele><time>2011-05-07T09:35:36Z</time></trkpt>
<trkpt lat="42.253067" lon="3.249302"><ele>106.1</ele><time>2011-05-07T09:35:41Z</time></trkpt>
<trkpt lat="42.253227" lon="3.249175"><ele>105.3</ele><time>2011-05-07T09:35:46Z</time></trkpt>
<trkpt lat="42.253425" lon="3.249153"><ele>104.3</ele><time>2011-05-07T09:35:51Z</time></trkpt>
<trkpt lat="42.253640" lon="3.249158"><ele>103.2</ele><time>2011-05-07T09:35:56Z</time></trkpt>
<trkpt lat="42.253677" lon="3.248923"><ele>101.5</ele><time>2011-05-07T09:36:01Z</time></trkpt>
<trkpt lat="42.253780" lon="3.248818"><ele>100.9</ele><time>2011-05-07T09:36:06Z</time></trkpt>
<trkpt lat="42.253842" lon="3.248853"><ele>102.2</ele><time>2011-05-07T09:36:11Z</time></trkpt>
<trkpt lat="42.253902" lon="3.248893"><ele>103.3</ele><time>2011-05-07T09:36:16Z</time></trkpt>
<trkpt lat="42.253972" lon="3.248855"><ele>104.2</ele><time>2011-05-07T09:36:21Z</time></trkpt>
<trkpt lat="42.254020" lon="3.248770"><ele>104.9</ele><time>2011-05-07T09:36:26Z</time></trkpt>
<trkpt lat="42.254037" lon="3.248665"><ele>105.9</ele><time>2011-05-07T09:36:31Z</time></trkpt>
<trkpt lat="42.254028" lon="3.248562"><ele>106.9</ele><time>2011-05-07T09:36:36Z</time></trkpt>
<trkpt lat="42.254017" lon="3.248460"><ele>108</ele><time>2011-05-07T09:36:41Z</time></trkpt>
<trkpt lat="42.254005" lon="3.248360"><ele>109.1</ele><time>2011-05-07T09:36:46Z</time></trkpt>
<trkpt lat="42.254010" lon="3.248260"><ele>110.1</ele><time>2011-05-07T09:36:51Z</time></trkpt>
<trkpt lat="42.254013" lon="3.248160"><ele>111</ele><time>2011-05-07T09:36:56Z</time></trkpt>
<trkpt lat="42.254020" lon="3.248047"><ele>111.5</ele><time>2011-05-07T09:37:01Z</time></trkpt>
<trkpt lat="42.254032" lon="3.247928"><ele>111.9</ele><time>2011-05-07T09:37:06Z</time></trkpt>
<trkpt lat="42.254063" lon="3.247823"><ele>112.3</ele><time>2011-05-07T09:37:11Z</time></trkpt>
<trkpt lat="42.254117" lon="3.247700"><ele>112.7</ele><time>2011-05-07T09:37:16Z</time></trkpt>
<trkpt lat="42.254173" lon="3.247572"><ele>113.2</ele><time>2011-05-07T09:37:21Z</time></trkpt>
<trkpt lat="42.254227" lon="3.247440"><ele>113.6</ele><time>2011-05-07T09:37:26Z</time></trkpt>
<trkpt lat="42.254277" lon="3.247302"><ele>114.2</ele><time>2011-05-07T09:37:31Z</time></trkpt>
<trkpt lat="42.254318" lon="3.247158"><ele>114.5</ele><time>2011-05-07T09:37:36Z</time></trkpt>
<trkpt lat="42.254337" lon="3.246992"><ele>115.1</ele><time>2011-05-07T09:37:41Z</time></trkpt>
<trkpt lat="42.254322" lon="3.246843"><ele>115.8</ele><time>2011-05-07T09:37:46Z</time></trkpt>
<trkpt lat="42.254310" lon="3.246700"><ele>116.7</ele><time>2011-05-07T09:37:51Z</time></trkpt>
<trkpt lat="42.254315" lon="3.246553"><ele>117.5</ele><time>2011-05-07T09:37:56Z</time></trkpt>
<trkpt lat="42.254345" lon="3.246397"><ele>118.1</ele><time>2011-05-07T09:38:01Z</time></trkpt>
<trkpt lat="42.254390" lon="3.246243"><ele>118.4</ele><time>2011-05-07T09:38:06Z</time></trkpt>
<trkpt lat="42.254448" lon="3.246095"><ele>118.5</ele><time>2011-05-07T09:38:11Z</time></trkpt>
<trkpt lat="42.254505" lon="3.245930"><ele>118.6</ele><time>2011-05-07T09:38:16Z</time></trkpt>
<trkpt lat="42.254552" lon="3.245780"><ele>119.1</ele><time>2011-05-07T09:38:21Z</time></trkpt>
<trkpt lat="42.254600" lon="3.245652"><ele>119.9</ele><time>2011-05-07T09:38:26Z</time></trkpt>
<trkpt lat="42.254653" lon="3.245517"><ele>120.5</ele><time>2011-05-07T09:38:31Z</time></trkpt>
<trkpt lat="42.254718" lon="3.245380"><ele>121</ele><time>2011-05-07T09:38:36Z</time></trkpt>
<trkpt lat="42.254780" lon="3.245250"><ele>121.5</ele><time>2011-05-07T09:38:41Z</time></trkpt>
<trkpt lat="42.254848" lon="3.245130"><ele>122.3</ele><time>2011-05-07T09:38:46Z</time></trkpt>
<trkpt lat="42.254922" lon="3.245020"><ele>123.1</ele><time>2011-05-07T09:38:51Z</time></trkpt>
<trkpt lat="42.255005" lon="3.244918"><ele>123.8</ele><time>2011-05-07T09:38:56Z</time></trkpt>
<trkpt lat="42.255093" lon="3.244832"><ele>124.4</ele><time>2011-05-07T09:39:01Z</time></trkpt>
<trkpt lat="42.255173" lon="3.244748"><ele>125.5</ele><time>2011-05-07T09:39:06Z</time></trkpt>
<trkpt lat="42.255265" lon="3.244652"><ele>126.1</ele><time>2011-05-07T09:39:11Z</time></trkpt>
<trkpt lat="42.255345" lon="3.244572"><ele>127.2</ele><time>2011-05-07T09:39:16Z</time></trkpt>
<trkpt lat="42.255425" lon="3.244505"><ele>128.2</ele><time>2011-05-07T09:39:21Z</time></trkpt>
<trkpt lat="42.255500" lon="3.244440"><ele>129.3</ele><time>2011-05-07T09:39:26Z</time></trkpt>
<trkpt lat="42.255573" lon="3.244378"><ele>130.6</ele><time>2011-05-07T09:39:31Z</time></trkpt>
<trkpt lat="42.255630" lon="3.244317"><ele>131.8</ele><time>2011-05-07T09:39:36Z</time></trkpt>
<trkpt lat="42.255680" lon="3.244245"><ele>133.1</ele><time>2011-05-07T09:39:41Z</time></trkpt>
<trkpt lat="42.255703" lon="3.244148"><ele>133.7</ele><time>2011-05-07T09:39:46Z</time></trkpt>
<trkpt lat="42.255692" lon="3.244025"><ele>133.9</ele><time>2011-05-07T09:39:51Z</time></trkpt>
<trkpt lat="42.255662" lon="3.243922"><ele>134.4</ele><time>2011-05-07T09:39:56Z</time></trkpt>
<trkpt lat="42.255635" lon="3.243822"><ele>135.2</ele><time>2011-05-07T09:40:01Z</time></trkpt>
<trkpt lat="42.255623" lon="3.243727"><ele>136.4</ele><time>2011-05-07T09:40:06Z</time></trkpt>
<trkpt lat="42.255627" lon="3.243640"><ele>137.7</ele><time>2011-05-07T09:40:11Z</time></trkpt>
<trkpt lat="42.255638" lon="3.243558"><ele>139.1</ele><time>2011-05-07T09:40:16Z</time></trkpt>
<trkpt lat="42.255657" lon="3.243478"><ele>140.5</ele><time>2011-05-07T09:40:21Z</time></trkpt>
<trkpt lat="42.255680" lon="3.243403"><ele>141.8</ele><time>2011-05-07T09:40:26Z</time></trkpt>
<trkpt lat="42.255703" lon="3.243323"><ele>143.2</ele><time>2011-05-07T09:40:31Z</time></trkpt>
<trkpt lat="42.255727" lon="3.243247"><ele>144.6</ele><time>2011-05-07T09:40:36Z</time></trkpt>
<trkpt lat="42.255757" lon="3.243172"><ele>145.9</ele><time>2011-05-07T09:40:41Z</time></trkpt>
<trkpt lat="42.255783" lon="3.243097"><ele>147</ele><time>2011-05-07T09:40:46Z</time></trkpt>
<trkpt lat="42.255807" lon="3.243017"><ele>147.9</ele><time>2011-05-07T09:40:51Z</time></trkpt>
<trkpt lat="42.255825" lon="3.242938"><ele>148.7</ele><time>2011-05-07T09:40:56Z</time></trkpt>
<trkpt lat="42.255843" lon="3.242855"><ele>149.6</ele><time>2011-05-07T09:41:01Z</time></trkpt>
<trkpt lat="42.255843" lon="3.242768"><ele>150.5</ele><time>2011-05-07T09:41:06Z</time></trkpt>
<trkpt lat="42.255833" lon="3.242682"><ele>151.6</ele><time>2011-05-07T09:41:11Z</time></trkpt>
<trkpt lat="42.255810" lon="3.242600"><ele>152.7</ele><time>2011-05-07T09:41:16Z</time></trkpt>
<trkpt lat="42.255787" lon="3.242518"><ele>153.6</ele><time>2011-05-07T09:41:21Z</time></trkpt>
<trkpt lat="42.255757" lon="3.242435"><ele>154.5</ele><time>2011-05-07T09:41:26Z</time></trkpt>
<trkpt lat="42.255727" lon="3.242353"><ele>155.4</ele><time>2011-05-07T09:41:31Z</time></trkpt>
<trkpt lat="42.255692" lon="3.242263"><ele>155.8</ele><time>2011-05-07T09:41:36Z</time></trkpt>
<trkpt lat="42.255650" lon="3.242168"><ele>156.4</ele><time>2011-05-07T09:41:41Z</time></trkpt>
<trkpt lat="42.255612" lon="3.242078"><ele>157.1</ele><time>2011-05-07T09:41:46Z</time></trkpt>
<trkpt lat="42.255570" lon="3.241990"><ele>157.8</ele><time>2011-05-07T09:41:51Z</time></trkpt>
<trkpt lat="42.255535" lon="3.241895"><ele>158.7</ele><time>2011-05-07T09:41:56Z</time></trkpt>
<trkpt lat="42.255500" lon="3.241797"><ele>159.5</ele><time>2011-05-07T09:42:01Z</time></trkpt>
<trkpt lat="42.255470" lon="3.241702"><ele>160.4</ele><time>2011-05-07T09:42:06Z</time></trkpt>
<trkpt lat="42.255447" lon="3.241603"><ele>161.3</ele><time>2011-05-07T09:42:11Z</time></trkpt>
<trkpt lat="42.255420" lon="3.241505"><ele>162</ele><time>2011-05-07T09:42:16Z</time></trkpt>
<trkpt lat="42.255398" lon="3.241392"><ele>162.5</ele><time>2011-05-07T09:42:21Z</time></trkpt>
<trkpt lat="42.255372" lon="3.241263"><ele>162.6</ele><time>2011-05-07T09:42:26Z</time></trkpt>
<trkpt lat="42.255367" lon="3.241113"><ele>162.6</ele><time>2011-05-07T09:42:31Z</time></trkpt>
<trkpt lat="42.255375" lon="3.240937"><ele>162.4</ele><time>2011-05-07T09:42:36Z</time></trkpt>
<trkpt lat="42.255378" lon="3.240760"><ele>162.3</ele><time>2011-05-07T09:42:41Z</time></trkpt>
<trkpt lat="42.255363" lon="3.240588"><ele>162.5</ele><time>2011-05-07T09:42:46Z</time></trkpt>
<trkpt lat="42.255357" lon="3.240420"><ele>162.9</ele><time>2011-05-07T09:42:51Z</time></trkpt>
<trkpt lat="42.255337" lon="3.240262"><ele>163.5</ele><time>2011-05-07T09:42:56Z</time></trkpt>
<trkpt lat="42.255345" lon="3.240115"><ele>164.3</ele><time>2011-05-07T09:43:01Z</time></trkpt>
<trkpt lat="42.255378" lon="3.240000"><ele>165.7</ele><time>2011-05-07T09:43:06Z</time></trkpt>
<trkpt lat="42.255425" lon="3.239917"><ele>167.3</ele><time>2011-05-07T09:43:11Z</time></trkpt>
<trkpt lat="42.255467" lon="3.239843"><ele>169.1</ele><time>2011-05-07T09:43:16Z</time></trkpt>
<trkpt lat="42.255517" lon="3.239777"><ele>170.8</ele><time>2011-05-07T09:43:21Z</time></trkpt>
<trkpt lat="42.255562" lon="3.239702"><ele>172.2</ele><time>2011-05-07T09:43:26Z</time></trkpt>
<trkpt lat="42.255615" lon="3.239628"><ele>173.3</ele><time>2011-05-07T09:43:31Z</time></trkpt>
<trkpt lat="42.255662" lon="3.239545"><ele>174.2</ele><time>2011-05-07T09:43:36Z</time></trkpt>
<trkpt lat="42.255715" lon="3.239460"><ele>174.9</ele><time>2011-05-07T09:43:41Z</time></trkpt>
<trkpt lat="42.255763" lon="3.239378"><ele>175.4</ele><time>2011-05-07T09:43:46Z</time></trkpt>
<trkpt lat="42.255817" lon="3.239285"><ele>175.8</ele><time>2011-05-07T09:43:51Z</time></trkpt>
<trkpt lat="42.255870" lon="3.239180"><ele>176.1</ele><time>2011-05-07T09:43:56Z</time></trkpt>
<trkpt lat="42.255932" lon="3.239068"><ele>176.4</ele><time>2011-05-07T09:44:01Z</time></trkpt>
<trkpt lat="42.255988" lon="3.238952"><ele>176.7</ele><time>2011-05-07T09:44:06Z</time></trkpt>
<trkpt lat="42.256050" lon="3.238830"><ele>177.1</ele><time>2011-05-07T09:44:11Z</time></trkpt>
<trkpt lat="42.256115" lon="3.238702"><ele>177.4</ele><time>2011-05-07T09:44:16Z</time></trkpt>
<trkpt lat="42.256168" lon="3.238575"><ele>177.8</ele><time>2011-05-07T09:44:21Z</time></trkpt>
<trkpt lat="42.256225" lon="3.238448"><ele>178.3</ele><time>2011-05-07T09:44:26Z</time></trkpt>
<trkpt lat="42.256278" lon="3.238310"><ele>178.6</ele><time>2011-05-07T09:44:31Z</time></trkpt>
<trkpt lat="42.256343" lon="3.238158"><ele>178.5</ele><time>2011-05-07T09:44:36Z</time></trkpt>
<trkpt lat="42.256417" lon="3.238008"><ele>177.9</ele><time>2011-05-07T09:44:41Z</time></trkpt>
<trkpt lat="42.256508" lon="3.237842"><ele>177.4</ele><time>2011-05-07T09:44:46Z</time></trkpt>
<trkpt lat="42.256580" lon="3.237695"><ele>177.8</ele><time>2011-05-07T09:44:51Z</time></trkpt>
<trkpt lat="42.256627" lon="3.237558"><ele>178.6</ele><time>2011-05-07T09:44:56Z</time></trkpt>
<trkpt lat="42.256665" lon="3.237427"><ele>179.5</ele><time>2011-05-07T09:45:01Z</time></trkpt>
<trkpt lat="42.256683" lon="3.237295"><ele>180.4</ele><time>2011-05-07T09:45:06Z</time></trkpt>
<trkpt lat="42.256695" lon="3.237177"><ele>181.3</ele><time>2011-05-07T09:45:11Z</time></trkpt>
<trkpt lat="42.256702" lon="3.237067"><ele>182.2</ele><time>2011-05-07T09:45:16Z</time></trkpt>
<trkpt lat="42.256707" lon="3.236965"><ele>183.4</ele><time>2011-05-07T09:45:21Z</time></trkpt>
<trkpt lat="42.256718" lon="3.236872"><ele>184.6</ele><time>2011-05-07T09:45:26Z</time></trkpt>
<trkpt lat="42.256725" lon="3.236785"><ele>185.9</ele><time>2011-05-07T09:45:31Z</time></trkpt>
<trkpt lat="42.256733" lon="3.236693"><ele>187.1</ele><time>2011-05-07T09:45:36Z</time></trkpt>
<trkpt lat="42.256752" lon="3.236603"><ele>188.3</ele><time>2011-05-07T09:45:41Z</time></trkpt>
<trkpt lat="42.256775" lon="3.236518"><ele>189.4</ele><time>2011-05-07T09:45:46Z</time></trkpt>
<trkpt lat="42.256805" lon="3.236432"><ele>190.4</ele><time>2011-05-07T09:45:51Z</time></trkpt>
<trkpt lat="42.256840" lon="3.236350"><ele>191.4</ele><time>2011-05-07T09:45:56Z</time></trkpt>
<trkpt lat="42.256878" lon="3.236265"><ele>192.3</ele><time>2011-05-07T09:46:01Z</time></trkpt>
<trkpt lat="42.256920" lon="3.236178"><ele>193</ele><time>2011-05-07T09:46:06Z</time></trkpt>
<trkpt lat="42.256943" lon="3.236082"><ele>193.6</ele><time>2011-05-07T09:46:11Z</time></trkpt>
<trkpt lat="42.256970" lon="3.235973"><ele>194.1</ele><time>2011-05-07T09:46:16Z</time></trkpt>
<trkpt lat="42.256997" lon="3.235862"><ele>194.7</ele><time>2011-05-07T09:46:21Z</time></trkpt>
<trkpt lat="42.257008" lon="3.235757"><ele>195.4</ele><time>2011-05-07T09:46:26Z</time></trkpt>
<trkpt lat="42.257023" lon="3.235653"><ele>196.3</ele><time>2011-05-07T09:46:31Z</time></trkpt>
<trkpt lat="42.257030" lon="3.235553"><ele>197.1</ele><time>2011-05-07T09:46:36Z</time></trkpt>
<trkpt lat="42.257038" lon="3.235453"><ele>198</ele><time>2011-05-07T09:46:41Z</time></trkpt>
<trkpt lat="42.257050" lon="3.235357"><ele>198.8</ele><time>2011-05-07T09:46:46Z</time></trkpt>
<trkpt lat="42.257068" lon="3.235260"><ele>199.8</ele><time>2011-05-07T09:46:51Z</time></trkpt>
<trkpt lat="42.257083" lon="3.235167"><ele>200.8</ele><time>2011-05-07T09:46:56Z</time></trkpt>
<trkpt lat="42.257103" lon="3.235080"><ele>201.9</ele><time>2011-05-07T09:47:01Z</time></trkpt>
<trkpt lat="42.257122" lon="3.234992"><ele>203</ele><time>2011-05-07T09:47:06Z</time></trkpt>
<trkpt lat="42.257137" lon="3.234903"><ele>204.1</ele><time>2011-05-07T09:47:11Z</time></trkpt>
<trkpt lat="42.257148" lon="3.234815"><ele>205.2</ele><time>2011-05-07T09:47:16Z</time></trkpt>
<trkpt lat="42.257160" lon="3.234722"><ele>206.2</ele><time>2011-05-07T09:47:21Z</time></trkpt>
<trkpt lat="42.257168" lon="3.234628"><ele>207.3</ele><time>2011-05-07T09:47:26Z</time></trkpt>
<trkpt lat="42.257175" lon="3.234535"><ele>208.2</ele><time>2011-05-07T09:47:31Z</time></trkpt>
<trkpt lat="42.257190" lon="3.234425"><ele>208.3</ele><time>2011-05-07T09:47:36Z</time></trkpt>
<trkpt lat="42.257202" lon="3.234327"><ele>208.7</ele><time>2011-05-07T09:47:41Z</time></trkpt>
<trkpt lat="42.257217" lon="3.234223"><ele>209.2</ele><time>2011-05-07T09:47:46Z</time></trkpt>
<trkpt lat="42.257228" lon="3.234123"><ele>209.9</ele><time>2011-05-07T09:47:51Z</time></trkpt>
<trkpt lat="42.257243" lon="3.234025"><ele>210.7</ele><time>2011-05-07T09:47:56Z</time></trkpt>
<trkpt lat="42.257255" lon="3.233930"><ele>211.8</ele><time>2011-05-07T09:48:01Z</time></trkpt>
<trkpt lat="42.257260" lon="3.233845"><ele>213.1</ele><time>2011-05-07T09:48:06Z</time></trkpt>
<trkpt lat="42.257267" lon="3.233760"><ele>214.5</ele><time>2011-05-07T09:48:11Z</time></trkpt>
<trkpt lat="42.257270" lon="3.233680"><ele>215.9</ele><time>2011-05-07T09:48:16Z</time></trkpt>
<trkpt lat="42.257270" lon="3.233603"><ele>217.3</ele><time>2011-05-07T09:48:21Z</time></trkpt>
<trkpt lat="42.257263" lon="3.233525"><ele>218.5</ele><time>2011-05-07T09:48:26Z</time></trkpt>
<trkpt lat="42.257252" lon="3.233447"><ele>219.7</ele><time>2011-05-07T09:48:31Z</time></trkpt>
<trkpt lat="42.257233" lon="3.233367"><ele>220.9</ele><time>2011-05-07T09:48:36Z</time></trkpt>
<trkpt lat="42.257217" lon="3.233293"><ele>222.1</ele><time>2011-05-07T09:48:41Z</time></trkpt>
<trkpt lat="42.257190" lon="3.233222"><ele>223.3</ele><time>2011-05-07T09:48:46Z</time></trkpt>
<trkpt lat="42.257180" lon="3.233150"><ele>224.4</ele><time>2011-05-07T09:48:51Z</time></trkpt>
<trkpt lat="42.257172" lon="3.233072"><ele>225.5</ele><time>2011-05-07T09:48:56Z</time></trkpt>
<trkpt lat="42.257175" lon="3.232992"><ele>226.6</ele><time>2011-05-07T09:49:01Z</time></trkpt>
<trkpt lat="42.257187" lon="3.232913"><ele>227.5</ele><time>2011-05-07T09:49:06Z</time></trkpt>
<trkpt lat="42.257202" lon="3.232832"><ele>228.6</ele><time>2011-05-07T09:49:11Z</time></trkpt>
<trkpt lat="42.257225" lon="3.232752"><ele>229.7</ele><time>2011-05-07T09:49:16Z</time></trkpt>
<trkpt lat="42.257252" lon="3.232680"><ele>230.9</ele><time>2011-05-07T09:49:21Z</time></trkpt>
<trkpt lat="42.257282" lon="3.232612"><ele>232.2</ele><time>2011-05-07T09:49:26Z</time></trkpt>
<trkpt lat="42.257313" lon="3.232548"><ele>233.6</ele><time>2011-05-07T09:49:31Z</time></trkpt>
<trkpt lat="42.257347" lon="3.232482"><ele>235.1</ele><time>2011-05-07T09:49:36Z</time></trkpt>
<trkpt lat="42.257370" lon="3.232412"><ele>236.6</ele><time>2011-05-07T09:49:41Z</time></trkpt>
<trkpt lat="42.257397" lon="3.232343"><ele>238.1</ele><time>2011-05-07T09:49:46Z</time></trkpt>
<trkpt lat="42.257415" lon="3.232273"><ele>239.5</ele><time>2011-05-07T09:49:51Z</time></trkpt>
<trkpt lat="42.257423" lon="3.232197"><ele>240.9</ele><time>2011-05-07T09:49:56Z</time></trkpt>
<trkpt lat="42.257442" lon="3.232118"><ele>242.3</ele><time>2011-05-07T09:50:01Z</time></trkpt>
<trkpt lat="42.257458" lon="3.232048"><ele>243.5</ele><time>2011-05-07T09:50:06Z</time></trkpt>
<trkpt lat="42.257477" lon="3.231972"><ele>244.8</ele><time>2011-05-07T09:50:11Z</time></trkpt>
<trkpt lat="42.257503" lon="3.231900"><ele>246</ele><time>2011-05-07T09:50:16Z</time></trkpt>
<trkpt lat="42.257530" lon="3.231825"><ele>247.1</ele><time>2011-05-07T09:50:21Z</time></trkpt>
<trkpt lat="42.257560" lon="3.231748"><ele>248.3</ele><time>2011-05-07T09:50:26Z</time></trkpt>
<trkpt lat="42.257595" lon="3.231673"><ele>249.3</ele><time>2011-05-07T09:50:31Z</time></trkpt>
<trkpt lat="42.257642" lon="3.231598"><ele>250</ele><time>2011-05-07T09:50:36Z</time></trkpt>
<trkpt lat="42.257683" lon="3.231517"><ele>250.6</ele><time>2011-05-07T09:50:41Z</time></trkpt>
<trkpt lat="42.257743" lon="3.231460"><ele>250.9</ele><time>2011-05-07T09:50:46Z</time></trkpt>
<trkpt lat="42.257843" lon="3.231395"><ele>250.8</ele><time>2011-05-07T09:50:51Z</time></trkpt>
<trkpt lat="42.257953" lon="3.231372"><ele>251.1</ele><time>2011-05-07T09:50:56Z</time></trkpt>
<trkpt lat="42.258057" lon="3.231375"><ele>251.5</ele><time>2011-05-07T09:51:01Z</time></trkpt>
<trkpt lat="42.258155" lon="3.231390"><ele>252.1</ele><time>2011-05-07T09:51:06Z</time></trkpt>
<trkpt lat="42.258243" lon="3.231405"><ele>253</ele><time>2011-05-07T09:51:11Z</time></trkpt>
<trkpt lat="42.258327" lon="3.231422"><ele>254.1</ele><time>2011-05-07T09:51:16Z</time></trkpt>
<trkpt lat="42.258400" lon="3.231435"><ele>255.2</ele><time>2011-05-07T09:51:21Z</time></trkpt>
<trkpt lat="42.258468" lon="3.231448"><ele>256.4</ele><time>2011-05-07T09:51:26Z</time></trkpt>
<trkpt lat="42.258537" lon="3.231465"><ele>257.5</ele><time>2011-05-07T09:51:31Z</time></trkpt>
<trkpt lat="42.258610" lon="3.231478"><ele>258.5</ele><time>2011-05-07T09:51:36Z</time></trkpt>
<trkpt lat="42.258682" lon="3.231493"><ele>259.5</ele><time>2011-05-07T09:51:41Z</time></trkpt>
<trkpt lat="42.258762" lon="3.231517"><ele>260.2</ele><time>2011-05-07T09:51:46Z</time></trkpt>
<trkpt lat="42.258850" lon="3.231547"><ele>260.7</ele><time>2011-05-07T09:51:51Z</time></trkpt>
<trkpt lat="42.258933" lon="3.231560"><ele>261.3</ele><time>2011-05-07T09:51:56Z</time></trkpt>
<trkpt lat="42.259030" lon="3.231558"><ele>262</ele><time>2011-05-07T09:52:01Z</time></trkpt>
<trkpt lat="42.259128" lon="3.231525"><ele>262.4</ele><time>2011-05-07T09:52:06Z</time></trkpt>
<trkpt lat="42.259228" lon="3.231477"><ele>262.6</ele><time>2011-05-07T09:52:11Z</time></trkpt>
<trkpt lat="42.259327" lon="3.231423"><ele>263.1</ele><time>2011-05-07T09:52:16Z</time></trkpt>
<trkpt lat="42.259427" lon="3.231375"><ele>264</ele><time>2011-05-07T09:52:21Z</time></trkpt>
<trkpt lat="42.259510" lon="3.231337"><ele>265</ele><time>2011-05-07T09:52:26Z</time></trkpt>
<trkpt lat="42.259587" lon="3.231302"><ele>266</ele><time>2011-05-07T09:52:31Z</time></trkpt>
<trkpt lat="42.259658" lon="3.231268"><ele>267.1</ele><time>2011-05-07T09:52:36Z</time></trkpt>
<trkpt lat="42.259727" lon="3.231237"><ele>268.3</ele><time>2011-05-07T09:52:41Z</time></trkpt>
<trkpt lat="42.259797" lon="3.231210"><ele>269.5</ele><time>2011-05-07T09:52:46Z</time></trkpt>
<trkpt lat="42.259857" lon="3.231178"><ele>270.8</ele><time>2011-05-07T09:52:51Z</time></trkpt>
<trkpt lat="42.259918" lon="3.231142"><ele>272.1</ele><time>2011-05-07T09:52:56Z</time></trkpt>
<trkpt lat="42.259980" lon="3.231097"><ele>273.2</ele><time>2011-05-07T09:53:01Z</time></trkpt>
<trkpt lat="42.260040" lon="3.231047"><ele>274.2</ele><time>2011-05-07T09:53:06Z</time></trkpt>
<trkpt lat="42.260105" lon="3.230988"><ele>274.5</ele><time>2011-05-07T09:53:11Z</time></trkpt>
<trkpt lat="42.260173" lon="3.230927"><ele>275.1</ele><time>2011-05-07T09:53:16Z</time></trkpt>
<trkpt lat="42.260238" lon="3.230872"><ele>276.1</ele><time>2011-05-07T09:53:21Z</time></trkpt>
<trkpt lat="42.260312" lon="3.230823"><ele>276.9</ele><time>2011-05-07T09:53:26Z</time></trkpt>
<trkpt lat="42.260387" lon="3.230770"><ele>277.6</ele><time>2011-05-07T09:53:31Z</time></trkpt>
<trkpt lat="42.260463" lon="3.230718"><ele>278.3</ele><time>2011-05-07T09:53:36Z</time></trkpt>
<trkpt lat="42.260543" lon="3.230667"><ele>279.1</ele><time>2011-05-07T09:53:41Z</time></trkpt>
<trkpt lat="42.260628" lon="3.230613"><ele>279.8</ele><time>2011-05-07T09:53:46Z</time></trkpt>
<trkpt lat="42.260712" lon="3.230555"><ele>280.3</ele><time>2011-05-07T09:53:51Z</time></trkpt>
<trkpt lat="42.260800" lon="3.230487"><ele>280.9</ele><time>2011-05-07T09:53:56Z</time></trkpt>
<trkpt lat="42.260883" lon="3.230392"><ele>281.2</ele><time>2011-05-07T09:54:01Z</time></trkpt>
<trkpt lat="42.260993" lon="3.230268"><ele>280.8</ele><time>2011-05-07T09:54:06Z</time></trkpt>
<trkpt lat="42.261127" lon="3.230163"><ele>280.5</ele><time>2011-05-07T09:54:11Z</time></trkpt>
<trkpt lat="42.261250" lon="3.230090"><ele>280.9</ele><time>2011-05-07T09:54:16Z</time></trkpt>
<trkpt lat="42.261372" lon="3.230013"><ele>281.6</ele><time>2011-05-07T09:54:21Z</time></trkpt>
<trkpt lat="42.261475" lon="3.229953"><ele>283.1</ele><time>2011-05-07T09:54:26Z</time></trkpt>
<trkpt lat="42.261558" lon="3.229905"><ele>284.5</ele><time>2011-05-07T09:54:31Z</time></trkpt>
<trkpt lat="42.261642" lon="3.229863"><ele>285.7</ele><time>2011-05-07T09:54:36Z</time></trkpt>
<trkpt lat="42.261723" lon="3.229820"><ele>286.8</ele><time>2011-05-07T09:54:41Z</time></trkpt>
<trkpt lat="42.261818" lon="3.229782"><ele>287.7</ele><time>2011-05-07T09:54:46Z</time></trkpt>
<trkpt lat="42.261917" lon="3.229740"><ele>288</ele><time>2011-05-07T09:54:51Z</time></trkpt>
<trkpt lat="42.262032" lon="3.229705"><ele>288.1</ele><time>2011-05-07T09:54:56Z</time></trkpt>
<trkpt lat="42.262168" lon="3.229667"><ele>287.7</ele><time>2011-05-07T09:55:01Z</time></trkpt>
<trkpt lat="42.262310" lon="3.229637"><ele>287.7</ele><time>2011-05-07T09:55:06Z</time></trkpt>
<trkpt lat="42.262432" lon="3.229618"><ele>288.3</ele><time>2011-05-07T09:55:11Z</time></trkpt>
<trkpt lat="42.262543" lon="3.229605"><ele>289.3</ele><time>2011-05-07T09:55:16Z</time></trkpt>
<trkpt lat="42.262638" lon="3.229598"><ele>290.6</ele><time>2011-05-07T09:55:21Z</time></trkpt>
<trkpt lat="42.262715" lon="3.229593"><ele>292.2</ele><time>2011-05-07T09:55:26Z</time></trkpt>
<trkpt lat="42.262787" lon="3.229593"><ele>293.7</ele><time>2011-05-07T09:55:31Z</time></trkpt>
<trkpt lat="42.262860" lon="3.229592"><ele>295.1</ele><time>2011-05-07T09:55:36Z</time></trkpt>
<trkpt lat="42.262932" lon="3.229603"><ele>296.2</ele><time>2011-05-07T09:55:41Z</time></trkpt>
<trkpt lat="42.263015" lon="3.229617"><ele>296.9</ele><time>2011-05-07T09:55:46Z</time></trkpt>
<trkpt lat="42.263097" lon="3.229637"><ele>297.7</ele><time>2011-05-07T09:55:51Z</time></trkpt>
<trkpt lat="42.263180" lon="3.229650"><ele>298.4</ele><time>2011-05-07T09:55:56Z</time></trkpt>
<trkpt lat="42.263260" lon="3.229663"><ele>299.4</ele><time>2011-05-07T09:56:01Z</time></trkpt>
<trkpt lat="42.263337" lon="3.229662"><ele>300.3</ele><time>2011-05-07T09:56:06Z</time></trkpt>
<trkpt lat="42.263417" lon="3.229663"><ele>300.7</ele><time>2011-05-07T09:56:11Z</time></trkpt>
<trkpt lat="42.263497" lon="3.229660"><ele>301.3</ele><time>2011-05-07T09:56:16Z</time></trkpt>
<trkpt lat="42.263580" lon="3.229665"><ele>302</ele><time>2011-05-07T09:56:21Z</time></trkpt>
<trkpt lat="42.263657" lon="3.229675"><ele>302.7</ele><time>2011-05-07T09:56:26Z</time></trkpt>
<trkpt lat="42.263733" lon="3.229690"><ele>303.8</ele><time>2011-05-07T09:56:31Z</time></trkpt>
<trkpt lat="42.263805" lon="3.229703"><ele>304.9</ele><time>2011-05-07T09:56:36Z</time></trkpt>
<trkpt lat="42.263873" lon="3.229727"><ele>305.9</ele><time>2011-05-07T09:56:41Z</time></trkpt>
<trkpt lat="42.263947" lon="3.229752"><ele>306.9</ele><time>2011-05-07T09:56:46Z</time></trkpt>
<trkpt lat="42.264027" lon="3.229783"><ele>307.7</ele><time>2011-05-07T09:56:51Z</time></trkpt>
<trkpt lat="42.264107" lon="3.229827"><ele>308.2</ele><time>2011-05-07T09:56:56Z</time></trkpt>
<trkpt lat="42.264213" lon="3.229888"><ele>308.1</ele><time>2011-05-07T09:57:01Z</time></trkpt>
<trkpt lat="42.264358" lon="3.229963"><ele>307.7</ele><time>2011-05-07T09:57:06Z</time></trkpt>
<trkpt lat="42.264518" lon="3.230037"><ele>307.7</ele><time>2011-05-07T09:57:11Z</time></trkpt>
<trkpt lat="42.264678" lon="3.230103"><ele>308</ele><time>2011-05-07T09:57:16Z</time></trkpt>
<trkpt lat="42.264828" lon="3.230162"><ele>308.8</ele><time>2011-05-07T09:57:21Z</time></trkpt>
<trkpt lat="42.264950" lon="3.230212"><ele>310.1</ele><time>2011-05-07T09:57:26Z</time></trkpt>
<trkpt lat="42.265057" lon="3.230262"><ele>311.2</ele><time>2011-05-07T09:57:31Z</time></trkpt>
<trkpt lat="42.265163" lon="3.230332"><ele>311.9</ele><time>2011-05-07T09:57:36Z</time></trkpt>
<trkpt lat="42.265267" lon="3.230405"><ele>312.4</ele><time>2011-05-07T09:57:41Z</time></trkpt>
<trkpt lat="42.265370" lon="3.230487"><ele>313</ele><time>2011-05-07T09:57:46Z</time></trkpt>
<trkpt lat="42.265462" lon="3.230567"><ele>314</ele><time>2011-05-07T09:57:51Z</time></trkpt>
<trkpt lat="42.265537" lon="3.230640"><ele>314.8</ele><time>2011-05-07T09:57:56Z</time></trkpt>
<trkpt lat="42.265602" lon="3.230707"><ele>315.8</ele><time>2011-05-07T09:58:01Z</time></trkpt>
<trkpt lat="42.265667" lon="3.230780"><ele>316.7</ele><time>2011-05-07T09:58:06Z</time></trkpt>
<trkpt lat="42.265725" lon="3.230867"><ele>317.6</ele><time>2011-05-07T09:58:11Z</time></trkpt>
<trkpt lat="42.265782" lon="3.230953"><ele>318.3</ele><time>2011-05-07T09:58:16Z</time></trkpt>
<trkpt lat="42.265838" lon="3.231030"><ele>319.2</ele><time>2011-05-07T09:58:21Z</time></trkpt>
<trkpt lat="42.265900" lon="3.231083"><ele>320.3</ele><time>2011-05-07T09:58:26Z</time></trkpt>
<trkpt lat="42.265965" lon="3.231107"><ele>321.6</ele><time>2011-05-07T09:58:31Z</time></trkpt>
<trkpt lat="42.266037" lon="3.231118"><ele>322.9</ele><time>2011-05-07T09:58:36Z</time></trkpt>
<trkpt lat="42.266105" lon="3.231100"><ele>324.1</ele><time>2011-05-07T09:58:41Z</time></trkpt>
<trkpt lat="42.266170" lon="3.231077"><ele>325.3</ele><time>2011-05-07T09:58:46Z</time></trkpt>
<trkpt lat="42.266235" lon="3.231055"><ele>326.4</ele><time>2011-05-07T09:58:51Z</time></trkpt>
<trkpt lat="42.266300" lon="3.231028"><ele>327.3</ele><time>2011-05-07T09:58:56Z</time></trkpt>
<trkpt lat="42.266365" lon="3.231003"><ele>328.1</ele><time>2011-05-07T09:59:01Z</time></trkpt>
<trkpt lat="42.266433" lon="3.230980"><ele>328.8</ele><time>2011-05-07T09:59:06Z</time></trkpt>
<trkpt lat="42.266498" lon="3.230955"><ele>329.5</ele><time>2011-05-07T09:59:11Z</time></trkpt>
<trkpt lat="42.266567" lon="3.230932"><ele>330.2</ele><time>2011-05-07T09:59:16Z</time></trkpt>
<trkpt lat="42.266637" lon="3.230905"><ele>331</ele><time>2011-05-07T09:59:21Z</time></trkpt>
<trkpt lat="42.266705" lon="3.230877"><ele>331.7</ele><time>2011-05-07T09:59:26Z</time></trkpt>
<trkpt lat="42.266773" lon="3.230850"><ele>332.4</ele><time>2011-05-07T09:59:31Z</time></trkpt>
<trkpt lat="42.266842" lon="3.230822"><ele>333.1</ele><time>2011-05-07T09:59:36Z</time></trkpt>
<trkpt lat="42.266915" lon="3.230802"><ele>333.7</ele><time>2011-05-07T09:59:41Z</time></trkpt>
<trkpt lat="42.266990" lon="3.230775"><ele>334.2</ele><time>2011-05-07T09:59:46Z</time></trkpt>
<trkpt lat="42.267067" lon="3.230753"><ele>334.7</ele><time>2011-05-07T09:59:51Z</time></trkpt>
<trkpt lat="42.267140" lon="3.230732"><ele>335.2</ele><time>2011-05-07T09:59:56Z</time></trkpt>
<trkpt lat="42.267215" lon="3.230707"><ele>335.7</ele><time>2011-05-07T10:00:01Z</time></trkpt>
<trkpt lat="42.267292" lon="3.230705"><ele>336.1</ele><time>2011-05-07T10:00:06Z</time></trkpt>
<trkpt lat="42.267368" lon="3.230715"><ele>336.7</ele><time>2011-05-07T10:00:11Z</time></trkpt>
<trkpt lat="42.267445" lon="3.230717"><ele>337.3</ele><time>2011-05-07T10:00:16Z</time></trkpt>
<trkpt lat="42.267522" lon="3.230718"><ele>338</ele><time>2011-05-07T10:00:21Z</time></trkpt>
<trkpt lat="42.267593" lon="3.230710"><ele>338.9</ele><time>2011-05-07T10:00:26Z</time></trkpt>
<trkpt lat="42.267667" lon="3.230693"><ele>339.9</ele><time>2011-05-07T10:00:31Z</time></trkpt>
<trkpt lat="42.267738" lon="3.230673"><ele>340.9</ele><time>2011-05-07T10:00:36Z</time></trkpt>
<trkpt lat="42.267807" lon="3.230652"><ele>341.9</ele><time>2011-05-07T10:00:41Z</time></trkpt>
<trkpt lat="42.267875" lon="3.230623"><ele>342.9</ele><time>2011-05-07T10:00:46Z</time></trkpt>
<trkpt lat="42.267945" lon="3.230592"><ele>343.9</ele><time>2011-05-07T10:00:51Z</time></trkpt>
<trkpt lat="42.268013" lon="3.230557"><ele>344.7</ele><time>2011-05-07T10:00:56Z</time></trkpt>
<trkpt lat="42.268085" lon="3.230518"><ele>345</ele><time>2011-05-07T10:01:01Z</time></trkpt>
<trkpt lat="42.268153" lon="3.230457"><ele>345.2</ele><time>2011-05-07T10:01:06Z</time></trkpt>
<trkpt lat="42.268230" lon="3.230422"><ele>345.7</ele><time>2011-05-07T10:01:11Z</time></trkpt>
<trkpt lat="42.268307" lon="3.230393"><ele>346.3</ele><time>2011-05-07T10:01:16Z</time></trkpt>
<trkpt lat="42.268375" lon="3.230357"><ele>346.9</ele><time>2011-05-07T10:01:21Z</time></trkpt>
<trkpt lat="42.268448" lon="3.230310"><ele>347.7</ele><time>2011-05-07T10:01:26Z</time></trkpt>
<trkpt lat="42.268517" lon="3.230270"><ele>348.6</ele><time>2011-05-07T10:01:31Z</time></trkpt>
<trkpt lat="42.268585" lon="3.230235"><ele>349.5</ele><time>2011-05-07T10:01:36Z</time></trkpt>
<trkpt lat="42.268653" lon="3.230200"><ele>350.4</ele><time>2011-05-07T10:01:41Z</time></trkpt>
<trkpt lat="42.268727" lon="3.230165"><ele>351.2</ele><time>2011-05-07T10:01:46Z</time></trkpt>
<trkpt lat="42.268795" lon="3.230135"><ele>352</ele><time>2011-05-07T10:01:51Z</time></trkpt>
<trkpt lat="42.268863" lon="3.230112"><ele>352.9</ele><time>2011-05-07T10:01:56Z</time></trkpt>
<trkpt lat="42.268937" lon="3.230095"><ele>353.7</ele><time>2011-05-07T10:02:01Z</time></trkpt>
<trkpt lat="42.269005" lon="3.230067"><ele>354.5</ele><time>2011-05-07T10:02:06Z</time></trkpt>
<trkpt lat="42.269077" lon="3.230045"><ele>355.6</ele><time>2011-05-07T10:02:11Z</time></trkpt>
<trkpt lat="42.269147" lon="3.230028"><ele>356.6</ele><time>2011-05-07T10:02:16Z</time></trkpt>
<trkpt lat="42.269218" lon="3.230008"><ele>357.5</ele><time>2011-05-07T10:02:21Z</time></trkpt>
<trkpt lat="42.269283" lon="3.229980"><ele>358.6</ele><time>2011-05-07T10:02:26Z</time></trkpt>
<trkpt lat="42.269345" lon="3.229952"><ele>359.7</ele><time>2011-05-07T10:02:31Z</time></trkpt>
<trkpt lat="42.269410" lon="3.229912"><ele>361.1</ele><time>2011-05-07T10:02:36Z</time></trkpt>
<trkpt lat="42.269467" lon="3.229878"><ele>362.6</ele><time>2011-05-07T10:02:41Z</time></trkpt>
<trkpt lat="42.269535" lon="3.229852"><ele>363.8</ele><time>2011-05-07T10:02:46Z</time></trkpt>
<trkpt lat="42.269600" lon="3.229817"><ele>364.8</ele><time>2011-05-07T10:02:51Z</time></trkpt>
<trkpt lat="42.269662" lon="3.229788"><ele>366</ele><time>2011-05-07T10:02:56Z</time></trkpt>
<trkpt lat="42.269718" lon="3.229755"><ele>367.3</ele><time>2011-05-07T10:03:01Z</time></trkpt>
<trkpt lat="42.269775" lon="3.229723"><ele>368.5</ele><time>2011-05-07T10:03:06Z</time></trkpt>
<trkpt lat="42.269840" lon="3.229693"><ele>369.7</ele><time>2011-05-07T10:03:11Z</time></trkpt>
<trkpt lat="42.269902" lon="3.229670"><ele>370.8</ele><time>2011-05-07T10:03:16Z</time></trkpt>
<trkpt lat="42.269970" lon="3.229657"><ele>371.6</ele><time>2011-05-07T10:03:21Z</time></trkpt>
<trkpt lat="42.270042" lon="3.229645"><ele>372.4</ele><time>2011-05-07T10:03:26Z</time></trkpt>
<trkpt lat="42.270118" lon="3.229633"><ele>372.7</ele><time>2011-05-07T10:03:31Z</time></trkpt>
<trkpt lat="42.270198" lon="3.229630"><ele>372.6</ele><time>2011-05-07T10:03:36Z</time></trkpt>
<trkpt lat="42.270195" lon="3.229628"><ele>372.6</ele><time>2011-05-07T10:03:41Z</time></trkpt>
<trkpt lat="42.270195" lon="3.229628"><ele>372.8</ele><time>2011-05-07T10:03:46Z</time></trkpt>
<trkpt lat="42.270192" lon="3.229628"><ele>373</ele><time>2011-05-07T10:03:51Z</time></trkpt>
<trkpt lat="42.270192" lon="3.229628"><ele>373.1</ele><time>2011-05-07T10:03:56Z</time></trkpt>
<trkpt lat="42.270213" lon="3.229620"><ele>373.1</ele><time>2011-05-07T10:04:01Z</time></trkpt>
<trkpt lat="42.270325" lon="3.229600"><ele>372.7</ele><time>2011-05-07T10:04:06Z</time></trkpt>
<trkpt lat="42.270428" lon="3.229590"><ele>372.8</ele><time>2011-05-07T10:04:11Z</time></trkpt>
<trkpt lat="42.270557" lon="3.229583"><ele>372.8</ele><time>2011-05-07T10:04:16Z</time></trkpt>
<trkpt lat="42.270657" lon="3.229582"><ele>372.7</ele><time>2011-05-07T10:04:21Z</time></trkpt>
<trkpt lat="42.270657" lon="3.229582"><ele>372.6</ele><time>2011-05-07T10:04:26Z</time></trkpt>
<trkpt lat="42.270657" lon="3.229578"><ele>372.5</ele><time>2011-05-07T10:04:31Z</time></trkpt>
<trkpt lat="42.270657" lon="3.229578"><ele>372.6</ele><time>2011-05-07T10:04:36Z</time></trkpt>
<trkpt lat="42.270657" lon="3.229578"><ele>372.6</ele><time>2011-05-07T10:04:41Z</time></trkpt>
<trkpt lat="42.270657" lon="3.229578"><ele>372.6</ele><time>2011-05-07T10:04:46Z</time></trkpt>
<trkpt lat="42.270657" lon="3.229578"><ele>372.6</ele><time>2011-05-07T10:04:51Z</time></trkpt>
<trkpt lat="42.270698" lon="3.229575"><ele>372.6</ele><time>2011-05-07T10:04:56Z</time></trkpt>
<trkpt lat="42.270817" lon="3.229558"><ele>372.7</ele><time>2011-05-07T10:05:01Z</time></trkpt>
<trkpt lat="42.270932" lon="3.229517"><ele>373.5</ele><time>2011-05-07T10:05:06Z</time></trkpt>
<trkpt lat="42.271045" lon="3.229470"><ele>375</ele><time>2011-05-07T10:05:11Z</time></trkpt>
<trkpt lat="42.271152" lon="3.229415"><ele>376.4</ele><time>2011-05-07T10:05:16Z</time></trkpt>
<trkpt lat="42.271255" lon="3.229368"><ele>377.6</ele><time>2011-05-07T10:05:21Z</time></trkpt>
<trkpt lat="42.271370" lon="3.229373"><ele>377.7</ele><time>2011-05-07T10:05:26Z</time></trkpt>
<trkpt lat="42.271550" lon="3.229465"><ele>376.6</ele><time>2011-05-07T10:05:31Z</time></trkpt>
<trkpt lat="42.271770" lon="3.229615"><ele>375.9</ele><time>2011-05-07T10:05:36Z</time></trkpt>
<trkpt lat="42.271903" lon="3.229753"><ele>376.1</ele><time>2011-05-07T10:05:41Z</time></trkpt>
<trkpt lat="42.271992" lon="3.229868"><ele>376.4</ele><time>2011-05-07T10:05:46Z</time></trkpt>
<trkpt lat="42.272060" lon="3.229955"><ele>377.4</ele><time>2011-05-07T10:05:51Z</time></trkpt>
<trkpt lat="42.272125" lon="3.230008"><ele>378.7</ele><time>2011-05-07T10:05:56Z</time></trkpt>
<trkpt lat="42.272190" lon="3.230035"><ele>380.3</ele><time>2011-05-07T10:06:01Z</time></trkpt>
<trkpt lat="42.272255" lon="3.230035"><ele>382</ele><time>2011-05-07T10:06:06Z</time></trkpt>
<trkpt lat="42.272320" lon="3.230040"><ele>383.8</ele><time>2011-05-07T10:06:11Z</time></trkpt>
<trkpt lat="42.272380" lon="3.230047"><ele>385</ele><time>2011-05-07T10:06:16Z</time></trkpt>
<trkpt lat="42.272445" lon="3.230053"><ele>386.1</ele><time>2011-05-07T10:06:21Z</time></trkpt>
<trkpt lat="42.272507" lon="3.230055"><ele>387.5</ele><time>2011-05-07T10:06:26Z</time></trkpt>
<trkpt lat="42.272572" lon="3.230043"><ele>388.7</ele><time>2011-05-07T10:06:31Z</time></trkpt>
<trkpt lat="42.272637" lon="3.230033"><ele>389.7</ele><time>2011-05-07T10:06:36Z</time></trkpt>
<trkpt lat="42.272705" lon="3.230030"><ele>390.6</ele><time>2011-05-07T10:06:41Z</time></trkpt>
<trkpt lat="42.272770" lon="3.230023"><ele>391.8</ele><time>2011-05-07T10:06:46Z</time></trkpt>
<trkpt lat="42.272835" lon="3.230015"><ele>393.2</ele><time>2011-05-07T10:06:51Z</time></trkpt>
<trkpt lat="42.272892" lon="3.230007"><ele>394.6</ele><time>2011-05-07T10:06:56Z</time></trkpt>
<trkpt lat="42.272950" lon="3.230008"><ele>396</ele><time>2011-05-07T10:07:01Z</time></trkpt>
<trkpt lat="42.272998" lon="3.230017"><ele>396.5</ele><time>2011-05-07T10:07:06Z</time></trkpt>
<trkpt lat="42.272998" lon="3.230012"><ele>396.6</ele><time>2011-05-07T10:07:11Z</time></trkpt>
<trkpt lat="42.272998" lon="3.230012"><ele>396.7</ele><time>2011-05-07T10:07:16Z</time></trkpt>
<trkpt lat="42.272998" lon="3.230012"><ele>396.8</ele><time>2011-05-07T10:07:21Z</time></trkpt>
<trkpt lat="42.272998" lon="3.230013"><ele>396.9</ele><time>2011-05-07T10:07:26Z</time></trkpt>
<trkpt lat="42.273003" lon="3.230018"><ele>397.1</ele><time>2011-05-07T10:07:31Z</time></trkpt>
<trkpt lat="42.273067" lon="3.230020"><ele>397.8</ele><time>2011-05-07T10:07:36Z</time></trkpt>
<trkpt lat="42.273128" lon="3.230017"><ele>399</ele><time>2011-05-07T10:07:41Z</time></trkpt>
<trkpt lat="42.273190" lon="3.230007"><ele>400.4</ele><time>2011-05-07T10:07:46Z</time></trkpt>
<trkpt lat="42.273247" lon="3.229992"><ele>401.8</ele><time>2011-05-07T10:07:51Z</time></trkpt>
<trkpt lat="42.273303" lon="3.229978"><ele>403</ele><time>2011-05-07T10:07:56Z</time></trkpt>
<trkpt lat="42.273362" lon="3.229965"><ele>403.6</ele><time>2011-05-07T10:08:01Z</time></trkpt>
<trkpt lat="42.273422" lon="3.229953"><ele>404.6</ele><time>2011-05-07T10:08:06Z</time></trkpt>
<trkpt lat="42.273480" lon="3.229945"><ele>406.1</ele><time>2011-05-07T10:08:11Z</time></trkpt>
<trkpt lat="42.273528" lon="3.229930"><ele>407.2</ele><time>2011-05-07T10:08:16Z</time></trkpt>
<trkpt lat="42.273533" lon="3.229927"><ele>407.2</ele><time>2011-05-07T10:08:21Z</time></trkpt>
<trkpt lat="42.273533" lon="3.229925"><ele>407.3</ele><time>2011-05-07T10:08:26Z</time></trkpt>
<trkpt lat="42.273528" lon="3.229925"><ele>407.3</ele><time>2011-05-07T10:08:31Z</time></trkpt>
<trkpt lat="42.273528" lon="3.229925"><ele>407.5</ele><time>2011-05-07T10:08:36Z</time></trkpt>
<trkpt lat="42.273528" lon="3.229923"><ele>407.5</ele><time>2011-05-07T10:08:41Z</time></trkpt>
<trkpt lat="42.273552" lon="3.229927"><ele>407.9</ele><time>2011-05-07T10:08:46Z</time></trkpt>
<trkpt lat="42.273617" lon="3.229915"><ele>409.4</ele><time>2011-05-07T10:08:51Z</time></trkpt>
<trkpt lat="42.273678" lon="3.229905"><ele>410.9</ele><time>2011-05-07T10:08:56Z</time></trkpt>
<trkpt lat="42.273738" lon="3.229893"><ele>412.3</ele><time>2011-05-07T10:09:01Z</time></trkpt>
<trkpt lat="42.273800" lon="3.229877"><ele>413.2</ele><time>2011-05-07T10:09:06Z</time></trkpt>
<trkpt lat="42.273865" lon="3.229867"><ele>414.4</ele><time>2011-05-07T10:09:11Z</time></trkpt>
<trkpt lat="42.273925" lon="3.229833"><ele>415.4</ele><time>2011-05-07T10:09:16Z</time></trkpt>
<trkpt lat="42.273983" lon="3.229793"><ele>416.3</ele><time>2011-05-07T10:09:21Z</time></trkpt>
<trkpt lat="42.274040" lon="3.229743"><ele>417.2</ele><time>2011-05-07T10:09:26Z</time></trkpt>
<trkpt lat="42.274087" lon="3.229683"><ele>417.9</ele><time>2011-05-07T10:09:31Z</time></trkpt>
<trkpt lat="42.274140" lon="3.229620"><ele>418.6</ele><time>2011-05-07T10:09:36Z</time></trkpt>
<trkpt lat="42.274185" lon="3.229552"><ele>419.4</ele><time>2011-05-07T10:09:41Z</time></trkpt>
<trkpt lat="42.274238" lon="3.229480"><ele>420.4</ele><time>2011-05-07T10:09:46Z</time></trkpt>
<trkpt lat="42.274285" lon="3.229397"><ele>421.1</ele><time>2011-05-07T10:09:51Z</time></trkpt>
<trkpt lat="42.274330" lon="3.229298"><ele>421.8</ele><time>2011-05-07T10:09:56Z</time></trkpt>
<trkpt lat="42.274368" lon="3.229183"><ele>422.3</ele><time>2011-05-07T10:10:01Z</time></trkpt>
<trkpt lat="42.274398" lon="3.229065"><ele>422.6</ele><time>2011-05-07T10:10:06Z</time></trkpt>
<trkpt lat="42.274422" lon="3.228948"><ele>422.8</ele><time>2011-05-07T10:10:11Z</time></trkpt>
<trkpt lat="42.274452" lon="3.228822"><ele>422.5</ele><time>2011-05-07T10:10:16Z</time></trkpt>
<trkpt lat="42.274498" lon="3.228615"><ele>421.5</ele><time>2011-05-07T10:10:21Z</time></trkpt>
<trkpt lat="42.274537" lon="3.228338"><ele>419.9</ele><time>2011-05-07T10:10:26Z</time></trkpt>
<trkpt lat="42.274567" lon="3.228045"><ele>418.5</ele><time>2011-05-07T10:10:31Z</time></trkpt>
<trkpt lat="42.274578" lon="3.227722"><ele>416.6</ele><time>2011-05-07T10:10:36Z</time></trkpt>
<trkpt lat="42.274558" lon="3.227605"><ele>415.5</ele><time>2011-05-07T10:10:41Z</time></trkpt>
<trkpt lat="42.274548" lon="3.227507"><ele>414.6</ele><time>2011-05-07T10:10:46Z</time></trkpt>
<trkpt lat="42.274517" lon="3.227330"><ele>413.5</ele><time>2011-05-07T10:10:51Z</time></trkpt>
<trkpt lat="42.274513" lon="3.227312"><ele>413.3</ele><time>2011-05-07T10:10:56Z</time></trkpt>
<trkpt lat="42.274517" lon="3.227303"><ele>413.2</ele><time>2011-05-07T10:11:01Z</time></trkpt>
<trkpt lat="42.274647" lon="3.227367"><ele>411.5</ele><time>2011-05-07T10:11:06Z</time></trkpt>
<trkpt lat="42.274818" lon="3.227655"><ele>409.3</ele><time>2011-05-07T10:11:11Z</time></trkpt>
<trkpt lat="42.275028" lon="3.227973"><ele>406.4</ele><time>2011-05-07T10:11:16Z</time></trkpt>
<trkpt lat="42.275310" lon="3.228338"><ele>402.2</ele><time>2011-05-07T10:11:21Z</time></trkpt>
<trkpt lat="42.275505" lon="3.228543"><ele>400.5</ele><time>2011-05-07T10:11:26Z</time></trkpt>
<trkpt lat="42.275753" lon="3.228680"><ele>399.1</ele><time>2011-05-07T10:11:31Z</time></trkpt>
<trkpt lat="42.276035" lon="3.228757"><ele>398.1</ele><time>2011-05-07T10:11:36Z</time></trkpt>
<trkpt lat="42.276348" lon="3.228817"><ele>395.9</ele><time>2011-05-07T10:11:41Z</time></trkpt>
<trkpt lat="42.276722" lon="3.228853"><ele>392.3</ele><time>2011-05-07T10:11:46Z</time></trkpt>
<trkpt lat="42.277020" lon="3.228683"><ele>390</ele><time>2011-05-07T10:11:51Z</time></trkpt>
<trkpt lat="42.277165" lon="3.228290"><ele>387.9</ele><time>2011-05-07T10:11:56Z</time></trkpt>
<trkpt lat="42.277363" lon="3.227910"><ele>384.9</ele><time>2011-05-07T10:12:01Z</time></trkpt>
<trkpt lat="42.277657" lon="3.227593"><ele>380.9</ele><time>2011-05-07T10:12:06Z</time></trkpt>
<trkpt lat="42.277970" lon="3.227272"><ele>377.2</ele><time>2011-05-07T10:12:11Z</time></trkpt>
<trkpt lat="42.278225" lon="3.226965"><ele>374.7</ele><time>2011-05-07T10:12:16Z</time></trkpt>
<trkpt lat="42.278500" lon="3.226578"><ele>372.4</ele><time>2011-05-07T10:12:21Z</time></trkpt>
<trkpt lat="42.278775" lon="3.226120"><ele>369.9</ele><time>2011-05-07T10:12:26Z</time></trkpt>
<trkpt lat="42.279087" lon="3.225627"><ele>367</ele><time>2011-05-07T10:12:31Z</time></trkpt>
<trkpt lat="42.279392" lon="3.225087"><ele>363.4</ele><time>2011-05-07T10:12:36Z</time></trkpt>
<trkpt lat="42.279560" lon="3.224483"><ele>359.7</ele><time>2011-05-07T10:12:41Z</time></trkpt>
<trkpt lat="42.279915" lon="3.224010"><ele>356.4</ele><time>2011-05-07T10:12:46Z</time></trkpt>
<trkpt lat="42.280300" lon="3.223548"><ele>354.1</ele><time>2011-05-07T10:12:51Z</time></trkpt>
<trkpt lat="42.280658" lon="3.223115"><ele>353.1</ele><time>2011-05-07T10:12:56Z</time></trkpt>
<trkpt lat="42.280963" lon="3.222712"><ele>352</ele><time>2011-05-07T10:13:01Z</time></trkpt>
<trkpt lat="42.281242" lon="3.222288"><ele>350.7</ele><time>2011-05-07T10:13:06Z</time></trkpt>
<trkpt lat="42.281493" lon="3.221855"><ele>349</ele><time>2011-05-07T10:13:11Z</time></trkpt>
<trkpt lat="42.281712" lon="3.221343"><ele>346.1</ele><time>2011-05-07T10:13:16Z</time></trkpt>
<trkpt lat="42.281955" lon="3.220782"><ele>343.7</ele><time>2011-05-07T10:13:21Z</time></trkpt>
<trkpt lat="42.282262" lon="3.220323"><ele>342.9</ele><time>2011-05-07T10:13:26Z</time></trkpt>
<trkpt lat="42.282653" lon="3.220105"><ele>341.9</ele><time>2011-05-07T10:13:31Z</time></trkpt>
<trkpt lat="42.283035" lon="3.219788"><ele>340.5</ele><time>2011-05-07T10:13:36Z</time></trkpt>
<trkpt lat="42.283378" lon="3.219507"><ele>341</ele><time>2011-05-07T10:13:41Z</time></trkpt>
<trkpt lat="42.283645" lon="3.219292"><ele>342.1</ele><time>2011-05-07T10:13:46Z</time></trkpt>
<trkpt lat="42.283867" lon="3.219200"><ele>343</ele><time>2011-05-07T10:13:51Z</time></trkpt>
<trkpt lat="42.284085" lon="3.219147"><ele>344</ele><time>2011-05-07T10:13:56Z</time></trkpt>
<trkpt lat="42.284317" lon="3.219083"><ele>344.4</ele><time>2011-05-07T10:14:01Z</time></trkpt>
<trkpt lat="42.284573" lon="3.219002"><ele>344.2</ele><time>2011-05-07T10:14:06Z</time></trkpt>
<trkpt lat="42.284843" lon="3.218903"><ele>343.9</ele><time>2011-05-07T10:14:11Z</time></trkpt>
<trkpt lat="42.285130" lon="3.218747"><ele>343.2</ele><time>2011-05-07T10:14:16Z</time></trkpt>
<trkpt lat="42.285450" lon="3.218547"><ele>342</ele><time>2011-05-07T10:14:21Z</time></trkpt>
<trkpt lat="42.285758" lon="3.218213"><ele>339.5</ele><time>2011-05-07T10:14:26Z</time></trkpt>
<trkpt lat="42.286140" lon="3.217848"><ele>334.9</ele><time>2011-05-07T10:14:31Z</time></trkpt>
<trkpt lat="42.286663" lon="3.217858"><ele>333.1</ele><time>2011-05-07T10:14:36Z</time></trkpt>
<trkpt lat="42.287155" lon="3.217872"><ele>331.8</ele><time>2011-05-07T10:14:41Z</time></trkpt>
<trkpt lat="42.287608" lon="3.217987"><ele>330.6</ele><time>2011-05-07T10:14:46Z</time></trkpt>
<trkpt lat="42.288048" lon="3.218102"><ele>328.6</ele><time>2011-05-07T10:14:51Z</time></trkpt>
<trkpt lat="42.288487" lon="3.218290"><ele>326.2</ele><time>2011-05-07T10:14:56Z</time></trkpt>
<trkpt lat="42.288883" lon="3.218462"><ele>323.7</ele><time>2011-05-07T10:15:01Z</time></trkpt>
<trkpt lat="42.289177" lon="3.218227"><ele>320.8</ele><time>2011-05-07T10:15:06Z</time></trkpt>
<trkpt lat="42.289117" lon="3.217877"><ele>318.4</ele><time>2011-05-07T10:15:11Z</time></trkpt>
<trkpt lat="42.288768" lon="3.217667"><ele>316.2</ele><time>2011-05-07T10:15:16Z</time></trkpt>
<trkpt lat="42.288425" lon="3.217442"><ele>314.8</ele><time>2011-05-07T10:15:21Z</time></trkpt>
<trkpt lat="42.288087" lon="3.217213"><ele>313</ele><time>2011-05-07T10:15:26Z</time></trkpt>
<trkpt lat="42.287777" lon="3.216855"><ele>309.5</ele><time>2011-05-07T10:15:31Z</time></trkpt>
<trkpt lat="42.287788" lon="3.216293"><ele>307.2</ele><time>2011-05-07T10:15:36Z</time></trkpt>
<trkpt lat="42.288097" lon="3.215787"><ele>302.4</ele><time>2011-05-07T10:15:41Z</time></trkpt>
<trkpt lat="42.288452" lon="3.215250"><ele>296.9</ele><time>2011-05-07T10:15:46Z</time></trkpt>
<trkpt lat="42.288768" lon="3.214867"><ele>292.3</ele><time>2011-05-07T10:15:51Z</time></trkpt>
<trkpt lat="42.288892" lon="3.214552"><ele>289.6</ele><time>2011-05-07T10:15:56Z</time></trkpt>
<trkpt lat="42.288918" lon="3.214510"><ele>288.8</ele><time>2011-05-07T10:16:01Z</time></trkpt>
<trkpt lat="42.288918" lon="3.214512"><ele>288.9</ele><time>2011-05-07T10:16:06Z</time></trkpt>
<trkpt lat="42.288918" lon="3.214515"><ele>288.9</ele><time>2011-05-07T10:16:11Z</time></trkpt>
<trkpt lat="42.288918" lon="3.214518"><ele>288.8</ele><time>2011-05-07T10:16:16Z</time></trkpt>
<trkpt lat="42.288978" lon="3.214470"><ele>288.8</ele><time>2011-05-07T10:16:21Z</time></trkpt>
<trkpt lat="42.288948" lon="3.214183"><ele>288.2</ele><time>2011-05-07T10:16:26Z</time></trkpt>
<trkpt lat="42.288860" lon="3.213805"><ele>286.9</ele><time>2011-05-07T10:16:31Z</time></trkpt>
<trkpt lat="42.288780" lon="3.213362"><ele>285.5</ele><time>2011-05-07T10:16:36Z</time></trkpt>
<trkpt lat="42.288697" lon="3.212888"><ele>284.1</ele><time>2011-05-07T10:16:41Z</time></trkpt>
<trkpt lat="42.288665" lon="3.212410"><ele>283.6</ele><time>2011-05-07T10:16:46Z</time></trkpt>
<trkpt lat="42.288658" lon="3.211967"><ele>283.7</ele><time>2011-05-07T10:16:51Z</time></trkpt>
<trkpt lat="42.288513" lon="3.211555"><ele>283.1</ele><time>2011-05-07T10:16:56Z</time></trkpt>
<trkpt lat="42.288380" lon="3.211122"><ele>282.1</ele><time>2011-05-07T10:17:01Z</time></trkpt>
<trkpt lat="42.288520" lon="3.210702"><ele>281.6</ele><time>2011-05-07T10:17:06Z</time></trkpt>
<trkpt lat="42.288822" lon="3.210410"><ele>281.5</ele><time>2011-05-07T10:17:11Z</time></trkpt>
<trkpt lat="42.289123" lon="3.210128"><ele>281.5</ele><time>2011-05-07T10:17:16Z</time></trkpt>
<trkpt lat="42.289360" lon="3.209750"><ele>281.5</ele><time>2011-05-07T10:17:21Z</time></trkpt>
<trkpt lat="42.289493" lon="3.209275"><ele>281.4</ele><time>2011-05-07T10:17:26Z</time></trkpt>
<trkpt lat="42.289620" lon="3.208803"><ele>281.1</ele><time>2011-05-07T10:17:31Z</time></trkpt>
<trkpt lat="42.289872" lon="3.208448"><ele>281.2</ele><time>2011-05-07T10:17:36Z</time></trkpt>
<trkpt lat="42.290032" lon="3.208002"><ele>280.2</ele><time>2011-05-07T10:17:41Z</time></trkpt>
<trkpt lat="42.290322" lon="3.207770"><ele>279.4</ele><time>2011-05-07T10:17:46Z</time></trkpt>
<trkpt lat="42.290677" lon="3.207973"><ele>279.5</ele><time>2011-05-07T10:17:51Z</time></trkpt>
<trkpt lat="42.291027" lon="3.208170"><ele>279.6</ele><time>2011-05-07T10:17:56Z</time></trkpt>
<trkpt lat="42.291408" lon="3.208128"><ele>278.9</ele><time>2011-05-07T10:18:01Z</time></trkpt>
<trkpt lat="42.291787" lon="3.207892"><ele>277.7</ele><time>2011-05-07T10:18:06Z</time></trkpt>
<trkpt lat="42.292205" lon="3.207712"><ele>276.3</ele><time>2011-05-07T10:18:11Z</time></trkpt>
<trkpt lat="42.292645" lon="3.207585"><ele>275</ele><time>2011-05-07T10:18:16Z</time></trkpt>
<trkpt lat="42.293090" lon="3.207538"><ele>273.8</ele><time>2011-05-07T10:18:21Z</time></trkpt>
<trkpt lat="42.293537" lon="3.207518"><ele>272.6</ele><time>2011-05-07T10:18:26Z</time></trkpt>
<trkpt lat="42.293922" lon="3.207232"><ele>271.2</ele><time>2011-05-07T10:18:31Z</time></trkpt>
<trkpt lat="42.294250" lon="3.206798"><ele>269.6</ele><time>2011-05-07T10:18:36Z</time></trkpt>
<trkpt lat="42.294540" lon="3.206370"><ele>268.3</ele><time>2011-05-07T10:18:41Z</time></trkpt>
<trkpt lat="42.294807" lon="3.205945"><ele>267.1</ele><time>2011-05-07T10:18:46Z</time></trkpt>
<trkpt lat="42.294998" lon="3.205583"><ele>265.8</ele><time>2011-05-07T10:18:51Z</time></trkpt>
<trkpt lat="42.295143" lon="3.205475"><ele>265.9</ele><time>2011-05-07T10:18:56Z</time></trkpt>
<trkpt lat="42.295253" lon="3.205462"><ele>267.2</ele><time>2011-05-07T10:19:01Z</time></trkpt>
<trkpt lat="42.295360" lon="3.205487"><ele>268.4</ele><time>2011-05-07T10:19:06Z</time></trkpt>
<trkpt lat="42.295463" lon="3.205507"><ele>268.9</ele><time>2011-05-07T10:19:11Z</time></trkpt>
<trkpt lat="42.295472" lon="3.205517"><ele>269</ele><time>2011-05-07T10:19:16Z</time></trkpt>
<trkpt lat="42.295467" lon="3.205515"><ele>268.9</ele><time>2011-05-07T10:19:21Z</time></trkpt>
<trkpt lat="42.295467" lon="3.205518"><ele>268.9</ele><time>2011-05-07T10:19:26Z</time></trkpt>
<trkpt lat="42.295472" lon="3.205520"><ele>268.7</ele><time>2011-05-07T10:19:31Z</time></trkpt>
<trkpt lat="42.295463" lon="3.205520"><ele>267.9</ele><time>2011-05-07T10:19:36Z</time></trkpt>
<trkpt lat="42.295463" lon="3.205522"><ele>267.8</ele><time>2011-05-07T10:19:41Z</time></trkpt>
<trkpt lat="42.295463" lon="3.205523"><ele>267.7</ele><time>2011-05-07T10:19:46Z</time></trkpt>
<trkpt lat="42.295463" lon="3.205512"><ele>268.8</ele><time>2011-05-07T10:19:51Z</time></trkpt>
<trkpt lat="42.295460" lon="3.205513"><ele>268.9</ele><time>2011-05-07T10:19:56Z</time></trkpt>
<trkpt lat="42.295457" lon="3.205513"><ele>268.9</ele><time>2011-05-07T10:20:01Z</time></trkpt>
<trkpt lat="42.295452" lon="3.205513"><ele>268.7</ele><time>2011-05-07T10:20:06Z</time></trkpt>
<trkpt lat="42.295452" lon="3.205513"><ele>268.6</ele><time>2011-05-07T10:20:11Z</time></trkpt>
<trkpt lat="42.295457" lon="3.205518"><ele>269</ele><time>2011-05-07T10:20:16Z</time></trkpt>
<trkpt lat="42.295487" lon="3.205548"><ele>269.2</ele><time>2011-05-07T10:20:21Z</time></trkpt>
<trkpt lat="42.295528" lon="3.205545"><ele>269.6</ele><time>2011-05-07T10:20:26Z</time></trkpt>
<trkpt lat="42.295552" lon="3.205577"><ele>270</ele><time>2011-05-07T10:20:31Z</time></trkpt>
<trkpt lat="42.295643" lon="3.205593"><ele>270.3</ele><time>2011-05-07T10:20:36Z</time></trkpt>
<trkpt lat="42.295757" lon="3.205612"><ele>270.7</ele><time>2011-05-07T10:20:41Z</time></trkpt>
<trkpt lat="42.295863" lon="3.205600"><ele>271.3</ele><time>2011-05-07T10:20:46Z</time></trkpt>
<trkpt lat="42.295990" lon="3.205578"><ele>272.2</ele><time>2011-05-07T10:20:51Z</time></trkpt>
<trkpt lat="42.296112" lon="3.205527"><ele>273</ele><time>2011-05-07T10:20:56Z</time></trkpt>
<trkpt lat="42.296223" lon="3.205395"><ele>273.8</ele><time>2011-05-07T10:21:01Z</time></trkpt>
<trkpt lat="42.296280" lon="3.205238"><ele>274.8</ele><time>2011-05-07T10:21:06Z</time></trkpt>
<trkpt lat="42.296315" lon="3.205075"><ele>275.3</ele><time>2011-05-07T10:21:11Z</time></trkpt>
<trkpt lat="42.296333" lon="3.204905"><ele>275.9</ele><time>2011-05-07T10:21:16Z</time></trkpt>
<trkpt lat="42.296348" lon="3.204750"><ele>276.5</ele><time>2011-05-07T10:21:21Z</time></trkpt>
<trkpt lat="42.296368" lon="3.204598"><ele>277.1</ele><time>2011-05-07T10:21:26Z</time></trkpt>
<trkpt lat="42.296378" lon="3.204443"><ele>277.8</ele><time>2011-05-07T10:21:31Z</time></trkpt>
<trkpt lat="42.296390" lon="3.204290"><ele>278.6</ele><time>2011-05-07T10:21:36Z</time></trkpt>
<trkpt lat="42.296398" lon="3.204143"><ele>279.8</ele><time>2011-05-07T10:21:41Z</time></trkpt>
<trkpt lat="42.296410" lon="3.203977"><ele>280.2</ele><time>2011-05-07T10:21:46Z</time></trkpt>
<trkpt lat="42.296443" lon="3.203817"><ele>281</ele><time>2011-05-07T10:21:51Z</time></trkpt>
<trkpt lat="42.296502" lon="3.203677"><ele>281.7</ele><time>2011-05-07T10:21:56Z</time></trkpt>
<trkpt lat="42.296562" lon="3.203543"><ele>282.4</ele><time>2011-05-07T10:22:01Z</time></trkpt>
<trkpt lat="42.296623" lon="3.203412"><ele>283.4</ele><time>2011-05-07T10:22:06Z</time></trkpt>
<trkpt lat="42.296688" lon="3.203282"><ele>284.3</ele><time>2011-05-07T10:22:11Z</time></trkpt>
<trkpt lat="42.296768" lon="3.203152"><ele>285.2</ele><time>2011-05-07T10:22:16Z</time></trkpt>
<trkpt lat="42.296863" lon="3.203070"><ele>286.1</ele><time>2011-05-07T10:22:21Z</time></trkpt>
<trkpt lat="42.296967" lon="3.203017"><ele>287</ele><time>2011-05-07T10:22:26Z</time></trkpt>
<trkpt lat="42.297077" lon="3.202972"><ele>288.2</ele><time>2011-05-07T10:22:31Z</time></trkpt>
<trkpt lat="42.297200" lon="3.202920"><ele>288.7</ele><time>2011-05-07T10:22:36Z</time></trkpt>
<trkpt lat="42.297307" lon="3.202855"><ele>289.6</ele><time>2011-05-07T10:22:41Z</time></trkpt>
<trkpt lat="42.297413" lon="3.202787"><ele>290.5</ele><time>2011-05-07T10:22:46Z</time></trkpt>
<trkpt lat="42.297520" lon="3.202715"><ele>291.4</ele><time>2011-05-07T10:22:51Z</time></trkpt>
<trkpt lat="42.297618" lon="3.202642"><ele>292.3</ele><time>2011-05-07T10:22:56Z</time></trkpt>
<trkpt lat="42.297722" lon="3.202562"><ele>293.3</ele><time>2011-05-07T10:23:01Z</time></trkpt>
<trkpt lat="42.297828" lon="3.202450"><ele>293.7</ele><time>2011-05-07T10:23:06Z</time></trkpt>
<trkpt lat="42.297913" lon="3.202337"><ele>294.6</ele><time>2011-05-07T10:23:11Z</time></trkpt>
<trkpt lat="42.297988" lon="3.202215"><ele>295.5</ele><time>2011-05-07T10:23:16Z</time></trkpt>
<trkpt lat="42.298050" lon="3.202077"><ele>296.3</ele><time>2011-05-07T10:23:21Z</time></trkpt>
<trkpt lat="42.298092" lon="3.201928"><ele>297.2</ele><time>2011-05-07T10:23:26Z</time></trkpt>
<trkpt lat="42.298133" lon="3.201777"><ele>298.1</ele><time>2011-05-07T10:23:31Z</time></trkpt>
<trkpt lat="42.298160" lon="3.201622"><ele>299.1</ele><time>2011-05-07T10:23:36Z</time></trkpt>
<trkpt lat="42.298175" lon="3.201442"><ele>299.5</ele><time>2011-05-07T10:23:41Z</time></trkpt>
<trkpt lat="42.298198" lon="3.201267"><ele>300.2</ele><time>2011-05-07T10:23:46Z</time></trkpt>
<trkpt lat="42.298207" lon="3.201097"><ele>301.1</ele><time>2011-05-07T10:23:51Z</time></trkpt>
<trkpt lat="42.298218" lon="3.200933"><ele>302.1</ele><time>2011-05-07T10:23:56Z</time></trkpt>
<trkpt lat="42.298210" lon="3.200768"><ele>303.3</ele><time>2011-05-07T10:24:01Z</time></trkpt>
<trkpt lat="42.298172" lon="3.200593"><ele>303.7</ele><time>2011-05-07T10:24:06Z</time></trkpt>
<trkpt lat="42.298107" lon="3.200443"><ele>304.4</ele><time>2011-05-07T10:24:11Z</time></trkpt>
<trkpt lat="42.298020" lon="3.200327"><ele>305.3</ele><time>2011-05-07T10:24:16Z</time></trkpt>
<trkpt lat="42.297932" lon="3.200223"><ele>306.5</ele><time>2011-05-07T10:24:21Z</time></trkpt>
<trkpt lat="42.297867" lon="3.200093"><ele>307.4</ele><time>2011-05-07T10:24:26Z</time></trkpt>
<trkpt lat="42.297802" lon="3.199937"><ele>307.4</ele><time>2011-05-07T10:24:31Z</time></trkpt>
<trkpt lat="42.297745" lon="3.199775"><ele>307.8</ele><time>2011-05-07T10:24:36Z</time></trkpt>
<trkpt lat="42.297683" lon="3.199617"><ele>308.2</ele><time>2011-05-07T10:24:41Z</time></trkpt>
<trkpt lat="42.297633" lon="3.199460"><ele>308.9</ele><time>2011-05-07T10:24:46Z</time></trkpt>
<trkpt lat="42.297585" lon="3.199300"><ele>309.7</ele><time>2011-05-07T10:24:51Z</time></trkpt>
<trkpt lat="42.297577" lon="3.199128"><ele>310.4</ele><time>2011-05-07T10:24:56Z</time></trkpt>
<trkpt lat="42.297623" lon="3.198965"><ele>311.4</ele><time>2011-05-07T10:25:01Z</time></trkpt>
<trkpt lat="42.297698" lon="3.198827"><ele>312.4</ele><time>2011-05-07T10:25:06Z</time></trkpt>
<trkpt lat="42.297778" lon="3.198683"><ele>313.4</ele><time>2011-05-07T10:25:11Z</time></trkpt>
<trkpt lat="42.297860" lon="3.198533"><ele>314</ele><time>2011-05-07T10:25:16Z</time></trkpt>
<trkpt lat="42.297943" lon="3.198382"><ele>314.7</ele><time>2011-05-07T10:25:21Z</time></trkpt>
<trkpt lat="42.298038" lon="3.198258"><ele>315.5</ele><time>2011-05-07T10:25:26Z</time></trkpt>
<trkpt lat="42.298127" lon="3.198117"><ele>316.1</ele><time>2011-05-07T10:25:31Z</time></trkpt>
<trkpt lat="42.298180" lon="3.197957"><ele>316.9</ele><time>2011-05-07T10:25:36Z</time></trkpt>
<trkpt lat="42.298210" lon="3.197790"><ele>317.8</ele><time>2011-05-07T10:25:41Z</time></trkpt>
<trkpt lat="42.298225" lon="3.197597"><ele>318.8</ele><time>2011-05-07T10:25:46Z</time></trkpt>
<trkpt lat="42.298207" lon="3.197425"><ele>319.8</ele><time>2011-05-07T10:25:51Z</time></trkpt>
<trkpt lat="42.298203" lon="3.197248"><ele>321</ele><time>2011-05-07T10:25:56Z</time></trkpt>
<trkpt lat="42.298210" lon="3.197070"><ele>322.4</ele><time>2011-05-07T10:26:01Z</time></trkpt>
<trkpt lat="42.298248" lon="3.196882"><ele>322.8</ele><time>2011-05-07T10:26:06Z</time></trkpt>
<trkpt lat="42.298328" lon="3.196723"><ele>323.7</ele><time>2011-05-07T10:26:11Z</time></trkpt>
<trkpt lat="42.298443" lon="3.196627"><ele>324.5</ele><time>2011-05-07T10:26:16Z</time></trkpt>
<trkpt lat="42.298588" lon="3.196603"><ele>325.3</ele><time>2011-05-07T10:26:21Z</time></trkpt>
<trkpt lat="42.298717" lon="3.196622"><ele>326.2</ele><time>2011-05-07T10:26:26Z</time></trkpt>
<trkpt lat="42.298852" lon="3.196650"><ele>327.3</ele><time>2011-05-07T10:26:31Z</time></trkpt>
<trkpt lat="42.298970" lon="3.196657"><ele>328.4</ele><time>2011-05-07T10:26:36Z</time></trkpt>
<trkpt lat="42.299092" lon="3.196642"><ele>329.5</ele><time>2011-05-07T10:26:41Z</time></trkpt>
<trkpt lat="42.299222" lon="3.196633"><ele>330.5</ele><time>2011-05-07T10:26:46Z</time></trkpt>
<trkpt lat="42.299350" lon="3.196673"><ele>331</ele><time>2011-05-07T10:26:51Z</time></trkpt>
<trkpt lat="42.299477" lon="3.196752"><ele>331.8</ele><time>2011-05-07T10:26:56Z</time></trkpt>
<trkpt lat="42.299607" lon="3.196840"><ele>332.3</ele><time>2011-05-07T10:27:01Z</time></trkpt>
<trkpt lat="42.299763" lon="3.196913"><ele>332.8</ele><time>2011-05-07T10:27:06Z</time></trkpt>
<trkpt lat="42.299915" lon="3.196998"><ele>333.7</ele><time>2011-05-07T10:27:11Z</time></trkpt>
<trkpt lat="42.300080" lon="3.197103"><ele>334.3</ele><time>2011-05-07T10:27:16Z</time></trkpt>
<trkpt lat="42.300252" lon="3.197210"><ele>334.7</ele><time>2011-05-07T10:27:21Z</time></trkpt>
<trkpt lat="42.300423" lon="3.197288"><ele>335</ele><time>2011-05-07T10:27:26Z</time></trkpt>
<trkpt lat="42.300617" lon="3.197365"><ele>335.4</ele><time>2011-05-07T10:27:31Z</time></trkpt>
<trkpt lat="42.300812" lon="3.197473"><ele>335.7</ele><time>2011-05-07T10:27:36Z</time></trkpt>
<trkpt lat="42.301025" lon="3.197578"><ele>336.1</ele><time>2011-05-07T10:27:41Z</time></trkpt>
<trkpt lat="42.301270" lon="3.197583"><ele>336.4</ele><time>2011-05-07T10:27:46Z</time></trkpt>
<trkpt lat="42.301507" lon="3.197463"><ele>336.7</ele><time>2011-05-07T10:27:51Z</time></trkpt>
<trkpt lat="42.301758" lon="3.197365"><ele>337.1</ele><time>2011-05-07T10:27:56Z</time></trkpt>
<trkpt lat="42.302002" lon="3.197287"><ele>337.1</ele><time>2011-05-07T10:28:01Z</time></trkpt>
<trkpt lat="42.302208" lon="3.197092"><ele>335.9</ele><time>2011-05-07T10:28:06Z</time></trkpt>
<trkpt lat="42.302312" lon="3.196730"><ele>335.2</ele><time>2011-05-07T10:28:11Z</time></trkpt>
<trkpt lat="42.302262" lon="3.196363"><ele>334.3</ele><time>2011-05-07T10:28:16Z</time></trkpt>
<trkpt lat="42.302102" lon="3.196030"><ele>332.6</ele><time>2011-05-07T10:28:21Z</time></trkpt>
<trkpt lat="42.301907" lon="3.195663"><ele>330.3</ele><time>2011-05-07T10:28:26Z</time></trkpt>
<trkpt lat="42.301853" lon="3.195303"><ele>329.4</ele><time>2011-05-07T10:28:31Z</time></trkpt>
<trkpt lat="42.302082" lon="3.195175"><ele>329.2</ele><time>2011-05-07T10:28:36Z</time></trkpt>
<trkpt lat="42.302318" lon="3.194997"><ele>328.3</ele><time>2011-05-07T10:28:41Z</time></trkpt>
<trkpt lat="42.302525" lon="3.194743"><ele>327.6</ele><time>2011-05-07T10:28:46Z</time></trkpt>
<trkpt lat="42.302750" lon="3.194728"><ele>326.8</ele><time>2011-05-07T10:28:51Z</time></trkpt>
<trkpt lat="42.302990" lon="3.194967"><ele>324.8</ele><time>2011-05-07T10:28:56Z</time></trkpt>
<trkpt lat="42.303307" lon="3.195150"><ele>322.7</ele><time>2011-05-07T10:29:01Z</time></trkpt>
<trkpt lat="42.303615" lon="3.195398"><ele>320.6</ele><time>2011-05-07T10:29:06Z</time></trkpt>
<trkpt lat="42.303963" lon="3.195607"><ele>317.7</ele><time>2011-05-07T10:29:11Z</time></trkpt>
<trkpt lat="42.304363" lon="3.195595"><ele>315.7</ele><time>2011-05-07T10:29:16Z</time></trkpt>
<trkpt lat="42.304748" lon="3.195562"><ele>314.2</ele><time>2011-05-07T10:29:21Z</time></trkpt>
<trkpt lat="42.305122" lon="3.195600"><ele>312.6</ele><time>2011-05-07T10:29:26Z</time></trkpt>
<trkpt lat="42.305482" lon="3.195700"><ele>311</ele><time>2011-05-07T10:29:31Z</time></trkpt>
<trkpt lat="42.305843" lon="3.195758"><ele>308.8</ele><time>2011-05-07T10:29:36Z</time></trkpt>
<trkpt lat="42.306202" lon="3.195922"><ele>306.2</ele><time>2011-05-07T10:29:41Z</time></trkpt>
<trkpt lat="42.306613" lon="3.196083"><ele>303</ele><time>2011-05-07T10:29:46Z</time></trkpt>
<trkpt lat="42.307045" lon="3.196192"><ele>300.2</ele><time>2011-05-07T10:29:51Z</time></trkpt>
<trkpt lat="42.307430" lon="3.196393"><ele>297.3</ele><time>2011-05-07T10:29:56Z</time></trkpt>
<trkpt lat="42.307777" lon="3.196653"><ele>295</ele><time>2011-05-07T10:30:01Z</time></trkpt>
<trkpt lat="42.308060" lon="3.196708"><ele>293.8</ele><time>2011-05-07T10:30:06Z</time></trkpt>
<trkpt lat="42.308078" lon="3.196368"><ele>292.5</ele><time>2011-05-07T10:30:11Z</time></trkpt>
<trkpt lat="42.307927" lon="3.196022"><ele>290.7</ele><time>2011-05-07T10:30:16Z</time></trkpt>
<trkpt lat="42.307820" lon="3.195628"><ele>289</ele><time>2011-05-07T10:30:21Z</time></trkpt>
<trkpt lat="42.307732" lon="3.195175"><ele>286</ele><time>2011-05-07T10:30:26Z</time></trkpt>
<trkpt lat="42.307605" lon="3.194740"><ele>284</ele><time>2011-05-07T10:30:31Z</time></trkpt>
<trkpt lat="42.307332" lon="3.194520"><ele>282.3</ele><time>2011-05-07T10:30:36Z</time></trkpt>
<trkpt lat="42.307037" lon="3.194397"><ele>281.2</ele><time>2011-05-07T10:30:41Z</time></trkpt>
<trkpt lat="42.306752" lon="3.194315"><ele>280.4</ele><time>2011-05-07T10:30:46Z</time></trkpt>
<trkpt lat="42.306485" lon="3.194193"><ele>279.2</ele><time>2011-05-07T10:30:51Z</time></trkpt>
<trkpt lat="42.306442" lon="3.193780"><ele>277.4</ele><time>2011-05-07T10:30:56Z</time></trkpt>
<trkpt lat="42.306393" lon="3.193325"><ele>275.6</ele><time>2011-05-07T10:31:01Z</time></trkpt>
<trkpt lat="42.306287" lon="3.192938"><ele>273.8</ele><time>2011-05-07T10:31:06Z</time></trkpt>
<trkpt lat="42.306027" lon="3.192695"><ele>272.4</ele><time>2011-05-07T10:31:11Z</time></trkpt>
<trkpt lat="42.305867" lon="3.192458"><ele>271.6</ele><time>2011-05-07T10:31:16Z</time></trkpt>
<trkpt lat="42.306053" lon="3.192387"><ele>271</ele><time>2011-05-07T10:31:21Z</time></trkpt>
<trkpt lat="42.306400" lon="3.192510"><ele>267.5</ele><time>2011-05-07T10:31:26Z</time></trkpt>
<trkpt lat="42.306808" lon="3.192707"><ele>264</ele><time>2011-05-07T10:31:31Z</time></trkpt>
<trkpt lat="42.307202" lon="3.192922"><ele>261</ele><time>2011-05-07T10:31:36Z</time></trkpt>
<trkpt lat="42.307637" lon="3.192943"><ele>257</ele><time>2011-05-07T10:31:41Z</time></trkpt>
<trkpt lat="42.308093" lon="3.193028"><ele>252.9</ele><time>2011-05-07T10:31:46Z</time></trkpt>
<trkpt lat="42.308510" lon="3.193288"><ele>249.9</ele><time>2011-05-07T10:31:51Z</time></trkpt>
<trkpt lat="42.308925" lon="3.193463"><ele>246.2</ele><time>2011-05-07T10:31:56Z</time></trkpt>
<trkpt lat="42.309322" lon="3.193762"><ele>242.7</ele><time>2011-05-07T10:32:01Z</time></trkpt>
<trkpt lat="42.309597" lon="3.194198"><ele>239.5</ele><time>2011-05-07T10:32:06Z</time></trkpt>
<trkpt lat="42.309907" lon="3.194460"><ele>236.2</ele><time>2011-05-07T10:32:11Z</time></trkpt>
<trkpt lat="42.310265" lon="3.194652"><ele>233.9</ele><time>2011-05-07T10:32:16Z</time></trkpt>
<trkpt lat="42.310577" lon="3.194598"><ele>231.6</ele><time>2011-05-07T10:32:21Z</time></trkpt>
<trkpt lat="42.310920" lon="3.194458"><ele>228.9</ele><time>2011-05-07T10:32:26Z</time></trkpt>
<trkpt lat="42.311295" lon="3.194403"><ele>226</ele><time>2011-05-07T10:32:31Z</time></trkpt>
<trkpt lat="42.311627" lon="3.194497"><ele>223.5</ele><time>2011-05-07T10:32:36Z</time></trkpt>
<trkpt lat="42.311958" lon="3.194682"><ele>221.9</ele><time>2011-05-07T10:32:41Z</time></trkpt>
<trkpt lat="42.312283" lon="3.194862"><ele>219.9</ele><time>2011-05-07T10:32:46Z</time></trkpt>
<trkpt lat="42.312687" lon="3.194780"><ele>216.8</ele><time>2011-05-07T10:32:51Z</time></trkpt>
<trkpt lat="42.313098" lon="3.194565"><ele>214.4</ele><time>2011-05-07T10:32:56Z</time></trkpt>
<trkpt lat="42.313423" lon="3.194408"><ele>212</ele><time>2011-05-07T10:33:01Z</time></trkpt>
<trkpt lat="42.313557" lon="3.194365"><ele>210.8</ele><time>2011-05-07T10:33:06Z</time></trkpt>
<trkpt lat="42.313592" lon="3.194280"><ele>211.7</ele><time>2011-05-07T10:33:11Z</time></trkpt>
<trkpt lat="42.313587" lon="3.194273"><ele>212</ele><time>2011-05-07T10:33:16Z</time></trkpt>
<trkpt lat="42.313592" lon="3.194217"><ele>211.2</ele><time>2011-05-07T10:33:21Z</time></trkpt>
<trkpt lat="42.313613" lon="3.194098"><ele>210</ele><time>2011-05-07T10:33:26Z</time></trkpt>
<trkpt lat="42.313663" lon="3.193970"><ele>208.6</ele><time>2011-05-07T10:33:31Z</time></trkpt>
<trkpt lat="42.313675" lon="3.193957"><ele>208.3</ele><time>2011-05-07T10:33:36Z</time></trkpt>
<trkpt lat="42.313675" lon="3.193957"><ele>208.2</ele><time>2011-05-07T10:33:41Z</time></trkpt>
<trkpt lat="42.313675" lon="3.193955"><ele>208</ele><time>2011-05-07T10:33:46Z</time></trkpt>
<trkpt lat="42.313675" lon="3.193935"><ele>207.9</ele><time>2011-05-07T10:33:51Z</time></trkpt>
<trkpt lat="42.313690" lon="3.193915"><ele>207.7</ele><time>2011-05-07T10:33:56Z</time></trkpt>
<trkpt lat="42.313690" lon="3.193913"><ele>207.6</ele><time>2011-05-07T10:34:01Z</time></trkpt>
<trkpt lat="42.313717" lon="3.193877"><ele>206.3</ele><time>2011-05-07T10:34:06Z</time></trkpt>
<trkpt lat="42.313755" lon="3.193832"><ele>204.7</ele><time>2011-05-07T10:34:11Z</time></trkpt>
<trkpt lat="42.313785" lon="3.193808"><ele>204</ele><time>2011-05-07T10:34:16Z</time></trkpt>
<trkpt lat="42.313790" lon="3.193780"><ele>204.2</ele><time>2011-05-07T10:34:21Z</time></trkpt>
<trkpt lat="42.313778" lon="3.193775"><ele>204.3</ele><time>2011-05-07T10:34:26Z</time></trkpt>
<trkpt lat="42.313782" lon="3.193777"><ele>204.2</ele><time>2011-05-07T10:34:31Z</time></trkpt>
<trkpt lat="42.313778" lon="3.193777"><ele>204.3</ele><time>2011-05-07T10:34:36Z</time></trkpt>
<trkpt lat="42.313773" lon="3.193778"><ele>204.4</ele><time>2011-05-07T10:34:41Z</time></trkpt>
<trkpt lat="42.313770" lon="3.193778"><ele>204.4</ele><time>2011-05-07T10:34:46Z</time></trkpt>
<trkpt lat="42.313770" lon="3.193802"><ele>205</ele><time>2011-05-07T10:34:51Z</time></trkpt>
<trkpt lat="42.313737" lon="3.193842"><ele>206.1</ele><time>2011-05-07T10:34:56Z</time></trkpt>
<trkpt lat="42.313705" lon="3.193877"><ele>207.3</ele><time>2011-05-07T10:35:01Z</time></trkpt>
<trkpt lat="42.313675" lon="3.193918"><ele>208.4</ele><time>2011-05-07T10:35:06Z</time></trkpt>
<trkpt lat="42.313648" lon="3.193968"><ele>209.2</ele><time>2011-05-07T10:35:11Z</time></trkpt>
<trkpt lat="42.313618" lon="3.194028"><ele>210</ele><time>2011-05-07T10:35:16Z</time></trkpt>
<trkpt lat="42.313602" lon="3.194050"><ele>210.3</ele><time>2011-05-07T10:35:21Z</time></trkpt>
<trkpt lat="42.313602" lon="3.194052"><ele>210.5</ele><time>2011-05-07T10:35:26Z</time></trkpt>
<trkpt lat="42.313592" lon="3.194077"><ele>211</ele><time>2011-05-07T10:35:31Z</time></trkpt>
<trkpt lat="42.313568" lon="3.194143"><ele>211.6</ele><time>2011-05-07T10:35:36Z</time></trkpt>
<trkpt lat="42.313557" lon="3.194212"><ele>212.4</ele><time>2011-05-07T10:35:41Z</time></trkpt>
<trkpt lat="42.313553" lon="3.194265"><ele>213.4</ele><time>2011-05-07T10:35:46Z</time></trkpt>
<trkpt lat="42.313572" lon="3.194342"><ele>212.6</ele><time>2011-05-07T10:35:51Z</time></trkpt>
<trkpt lat="42.313758" lon="3.194397"><ele>211.3</ele><time>2011-05-07T10:35:56Z</time></trkpt>
<trkpt lat="42.314042" lon="3.194475"><ele>209.6</ele><time>2011-05-07T10:36:01Z</time></trkpt>
<trkpt lat="42.314370" lon="3.194607"><ele>207.6</ele><time>2011-05-07T10:36:06Z</time></trkpt>
<trkpt lat="42.314713" lon="3.194673"><ele>206.1</ele><time>2011-05-07T10:36:11Z</time></trkpt>
<trkpt lat="42.315052" lon="3.194548"><ele>204.8</ele><time>2011-05-07T10:36:16Z</time></trkpt>
<trkpt lat="42.315415" lon="3.194465"><ele>202.8</ele><time>2011-05-07T10:36:21Z</time></trkpt>
<trkpt lat="42.315780" lon="3.194522"><ele>200.5</ele><time>2011-05-07T10:36:26Z</time></trkpt>
<trkpt lat="42.316155" lon="3.194682"><ele>198.5</ele><time>2011-05-07T10:36:31Z</time></trkpt>
<trkpt lat="42.316493" lon="3.194827"><ele>197.3</ele><time>2011-05-07T10:36:36Z</time></trkpt>
<trkpt lat="42.316753" lon="3.195103"><ele>195.1</ele><time>2011-05-07T10:36:41Z</time></trkpt>
<trkpt lat="42.316952" lon="3.195490"><ele>192.4</ele><time>2011-05-07T10:36:46Z</time></trkpt>
<trkpt lat="42.316842" lon="3.195890"><ele>190.6</ele><time>2011-05-07T10:36:51Z</time></trkpt>
<trkpt lat="42.316608" lon="3.196257"><ele>188.9</ele><time>2011-05-07T10:36:56Z</time></trkpt>
<trkpt lat="42.316402" lon="3.196662"><ele>186.9</ele><time>2011-05-07T10:37:01Z</time></trkpt>
<trkpt lat="42.316330" lon="3.197142"><ele>184.2</ele><time>2011-05-07T10:37:06Z</time></trkpt>
<trkpt lat="42.316428" lon="3.197635"><ele>181.3</ele><time>2011-05-07T10:37:11Z</time></trkpt>
<trkpt lat="42.316525" lon="3.198150"><ele>178.9</ele><time>2011-05-07T10:37:16Z</time></trkpt>
<trkpt lat="42.316650" lon="3.198677"><ele>176</ele><time>2011-05-07T10:37:21Z</time></trkpt>
<trkpt lat="42.316913" lon="3.198977"><ele>173.6</ele><time>2011-05-07T10:37:26Z</time></trkpt>
<trkpt lat="42.317135" lon="3.198790"><ele>172.5</ele><time>2011-05-07T10:37:31Z</time></trkpt>
<trkpt lat="42.317307" lon="3.198437"><ele>170.9</ele><time>2011-05-07T10:37:36Z</time></trkpt>
<trkpt lat="42.317570" lon="3.198120"><ele>168.6</ele><time>2011-05-07T10:37:41Z</time></trkpt>
<trkpt lat="42.317952" lon="3.197980"><ele>165.8</ele><time>2011-05-07T10:37:46Z</time></trkpt>
<trkpt lat="42.318290" lon="3.197995"><ele>163.1</ele><time>2011-05-07T10:37:51Z</time></trkpt>
<trkpt lat="42.318398" lon="3.198383"><ele>160.6</ele><time>2011-05-07T10:37:56Z</time></trkpt>
<trkpt lat="42.318570" lon="3.198803"><ele>158.9</ele><time>2011-05-07T10:38:01Z</time></trkpt>
<trkpt lat="42.318817" lon="3.199165"><ele>156.6</ele><time>2011-05-07T10:38:06Z</time></trkpt>
<trkpt lat="42.319138" lon="3.199165"><ele>154</ele><time>2011-05-07T10:38:11Z</time></trkpt>
<trkpt lat="42.319482" lon="3.199010"><ele>152.1</ele><time>2011-05-07T10:38:16Z</time></trkpt>
<trkpt lat="42.319817" lon="3.199147"><ele>150</ele><time>2011-05-07T10:38:21Z</time></trkpt>
<trkpt lat="42.320142" lon="3.199057"><ele>147.8</ele><time>2011-05-07T10:38:26Z</time></trkpt>
<trkpt lat="42.320503" lon="3.198982"><ele>145</ele><time>2011-05-07T10:38:31Z</time></trkpt>
<trkpt lat="42.320835" lon="3.198830"><ele>142.4</ele><time>2011-05-07T10:38:36Z</time></trkpt>
<trkpt lat="42.321060" lon="3.198423"><ele>140.2</ele><time>2011-05-07T10:38:41Z</time></trkpt>
<trkpt lat="42.321300" lon="3.197992"><ele>137.6</ele><time>2011-05-07T10:38:46Z</time></trkpt>
<trkpt lat="42.321433" lon="3.197495"><ele>135.4</ele><time>2011-05-07T10:38:51Z</time></trkpt>
<trkpt lat="42.321385" lon="3.196985"><ele>134</ele><time>2011-05-07T10:38:56Z</time></trkpt>
<trkpt lat="42.321293" lon="3.196523"><ele>133.4</ele><time>2011-05-07T10:39:01Z</time></trkpt>
<trkpt lat="42.321305" lon="3.196183"><ele>132.5</ele><time>2011-05-07T10:39:06Z</time></trkpt>
<trkpt lat="42.321568" lon="3.196235"><ele>130.3</ele><time>2011-05-07T10:39:11Z</time></trkpt>
<trkpt lat="42.321930" lon="3.196177"><ele>128</ele><time>2011-05-07T10:39:16Z</time></trkpt>
<trkpt lat="42.322300" lon="3.196128"><ele>125.4</ele><time>2011-05-07T10:39:21Z</time></trkpt>
<trkpt lat="42.322738" lon="3.196158"><ele>120.6</ele><time>2011-05-07T10:39:26Z</time></trkpt>
<trkpt lat="42.323212" lon="3.196258"><ele>117.3</ele><time>2011-05-07T10:39:31Z</time></trkpt>
<trkpt lat="42.323650" lon="3.196503"><ele>114.5</ele><time>2011-05-07T10:39:36Z</time></trkpt>
<trkpt lat="42.323955" lon="3.196942"><ele>112.3</ele><time>2011-05-07T10:39:41Z</time></trkpt>
<trkpt lat="42.324188" lon="3.197423"><ele>110.2</ele><time>2011-05-07T10:39:46Z</time></trkpt>
<trkpt lat="42.324325" lon="3.197907"><ele>108.5</ele><time>2011-05-07T10:39:51Z</time></trkpt>
<trkpt lat="42.324452" lon="3.198422"><ele>105</ele><time>2011-05-07T10:39:56Z</time></trkpt>
<trkpt lat="42.324688" lon="3.198877"><ele>102.1</ele><time>2011-05-07T10:40:01Z</time></trkpt>
<trkpt lat="42.325070" lon="3.199073"><ele>98.8</ele><time>2011-05-07T10:40:06Z</time></trkpt>
<trkpt lat="42.325508" lon="3.198997"><ele>95.8</ele><time>2011-05-07T10:40:11Z</time></trkpt>
<trkpt lat="42.325932" lon="3.198877"><ele>93.2</ele><time>2011-05-07T10:40:16Z</time></trkpt>
<trkpt lat="42.326340" lon="3.198892"><ele>90.3</ele><time>2011-05-07T10:40:21Z</time></trkpt>
<trkpt lat="42.326523" lon="3.198547"><ele>88.2</ele><time>2011-05-07T10:40:26Z</time></trkpt>
<trkpt lat="42.326370" lon="3.198170"><ele>86.2</ele><time>2011-05-07T10:40:31Z</time></trkpt>
<trkpt lat="42.326127" lon="3.197810"><ele>83.7</ele><time>2011-05-07T10:40:36Z</time></trkpt>
<trkpt lat="42.325947" lon="3.197343"><ele>80.2</ele><time>2011-05-07T10:40:41Z</time></trkpt>
<trkpt lat="42.325710" lon="3.196970"><ele>77.6</ele><time>2011-05-07T10:40:46Z</time></trkpt>
<trkpt lat="42.325363" lon="3.196828"><ele>74.9</ele><time>2011-05-07T10:40:51Z</time></trkpt>
<trkpt lat="42.325218" lon="3.196532"><ele>73.2</ele><time>2011-05-07T10:40:56Z</time></trkpt>
<trkpt lat="42.325008" lon="3.196177"><ele>71.1</ele><time>2011-05-07T10:41:01Z</time></trkpt>
<trkpt lat="42.324898" lon="3.195765"><ele>69.6</ele><time>2011-05-07T10:41:06Z</time></trkpt>
<trkpt lat="42.324932" lon="3.195412"><ele>70.1</ele><time>2011-05-07T10:41:11Z</time></trkpt>
<trkpt lat="42.324875" lon="3.195270"><ele>70</ele><time>2011-05-07T10:41:16Z</time></trkpt>
<trkpt lat="42.324680" lon="3.195077"><ele>69.2</ele><time>2011-05-07T10:41:21Z</time></trkpt>
<trkpt lat="42.324467" lon="3.194770"><ele>67.9</ele><time>2011-05-07T10:41:26Z</time></trkpt>
<trkpt lat="42.324395" lon="3.194315"><ele>66.2</ele><time>2011-05-07T10:41:31Z</time></trkpt>
<trkpt lat="42.324165" lon="3.194023"><ele>64.3</ele><time>2011-05-07T10:41:36Z</time></trkpt>
<trkpt lat="42.323842" lon="3.193857"><ele>62</ele><time>2011-05-07T10:41:41Z</time></trkpt>
<trkpt lat="42.323780" lon="3.193662"><ele>61.6</ele><time>2011-05-07T10:41:46Z</time></trkpt>
<trkpt lat="42.323978" lon="3.193507"><ele>60.2</ele><time>2011-05-07T10:41:51Z</time></trkpt>
<trkpt lat="42.324318" lon="3.193422"><ele>57.7</ele><time>2011-05-07T10:41:56Z</time></trkpt>
<trkpt lat="42.324707" lon="3.193277"><ele>54.9</ele><time>2011-05-07T10:42:01Z</time></trkpt>
<trkpt lat="42.325047" lon="3.193060"><ele>52.1</ele><time>2011-05-07T10:42:06Z</time></trkpt>
<trkpt lat="42.325138" lon="3.192680"><ele>50.3</ele><time>2011-05-07T10:42:11Z</time></trkpt>
<trkpt lat="42.325108" lon="3.192303"><ele>49.1</ele><time>2011-05-07T10:42:16Z</time></trkpt>
<trkpt lat="42.325017" lon="3.191913"><ele>47.5</ele><time>2011-05-07T10:42:21Z</time></trkpt>
<trkpt lat="42.324905" lon="3.191545"><ele>46</ele><time>2011-05-07T10:42:26Z</time></trkpt>
<trkpt lat="42.324997" lon="3.191448"><ele>45.4</ele><time>2011-05-07T10:42:31Z</time></trkpt>
<trkpt lat="42.325020" lon="3.191470"><ele>45.2</ele><time>2011-05-07T10:42:36Z</time></trkpt>
<trkpt lat="42.325077" lon="3.191668"><ele>44.8</ele><time>2011-05-07T10:42:41Z</time></trkpt>
<trkpt lat="42.325172" lon="3.191995"><ele>43.7</ele><time>2011-05-07T10:42:46Z</time></trkpt>
<trkpt lat="42.325298" lon="3.192407"><ele>42.1</ele><time>2011-05-07T10:42:51Z</time></trkpt>
<trkpt lat="42.325497" lon="3.192828"><ele>39.9</ele><time>2011-05-07T10:42:56Z</time></trkpt>
<trkpt lat="42.325757" lon="3.193278"><ele>37.4</ele><time>2011-05-07T10:43:01Z</time></trkpt>
<trkpt lat="42.326088" lon="3.193697"><ele>35</ele><time>2011-05-07T10:43:06Z</time></trkpt>
<trkpt lat="42.326427" lon="3.194113"><ele>32.6</ele><time>2011-05-07T10:43:11Z</time></trkpt>
<trkpt lat="42.326748" lon="3.194578"><ele>29.8</ele><time>2011-05-07T10:43:16Z</time></trkpt>
<trkpt lat="42.327083" lon="3.195070"><ele>26.9</ele><time>2011-05-07T10:43:21Z</time></trkpt>
<trkpt lat="42.327423" lon="3.195578"><ele>24.5</ele><time>2011-05-07T10:43:26Z</time></trkpt>
<trkpt lat="42.327743" lon="3.196053"><ele>22.6</ele><time>2011-05-07T10:43:31Z</time></trkpt>
<trkpt lat="42.328053" lon="3.196500"><ele>21.6</ele><time>2011-05-07T10:43:36Z</time></trkpt>
<trkpt lat="42.328358" lon="3.196948"><ele>20.1</ele><time>2011-05-07T10:43:41Z</time></trkpt>
<trkpt lat="42.328613" lon="3.197413"><ele>18.8</ele><time>2011-05-07T10:43:46Z</time></trkpt>
<trkpt lat="42.328827" lon="3.197872"><ele>17.6</ele><time>2011-05-07T10:43:51Z</time></trkpt>
<trkpt lat="42.329037" lon="3.198317"><ele>16.7</ele><time>2011-05-07T10:43:56Z</time></trkpt>
<trkpt lat="42.329232" lon="3.198740"><ele>15.8</ele><time>2011-05-07T10:44:01Z</time></trkpt>
<trkpt lat="42.329415" lon="3.199133"><ele>15.1</ele><time>2011-05-07T10:44:06Z</time></trkpt>
<trkpt lat="42.329590" lon="3.199528"><ele>14.2</ele><time>2011-05-07T10:44:11Z</time></trkpt>
<trkpt lat="42.329833" lon="3.199862"><ele>13.2</ele><time>2011-05-07T10:44:16Z</time></trkpt>
<trkpt lat="42.330177" lon="3.200020"><ele>12.5</ele><time>2011-05-07T10:44:21Z</time></trkpt>
<trkpt lat="42.330528" lon="3.199920"><ele>12.1</ele><time>2011-05-07T10:44:26Z</time></trkpt>
<trkpt lat="42.330845" lon="3.199683"><ele>12</ele><time>2011-05-07T10:44:31Z</time></trkpt>
<trkpt lat="42.331135" lon="3.199392"><ele>12</ele><time>2011-05-07T10:44:36Z</time></trkpt>
<trkpt lat="42.331405" lon="3.199043"><ele>12.1</ele><time>2011-05-07T10:44:41Z</time></trkpt>
<trkpt lat="42.331650" lon="3.198692"><ele>12.5</ele><time>2011-05-07T10:44:46Z</time></trkpt>
<trkpt lat="42.331863" lon="3.198340"><ele>12.9</ele><time>2011-05-07T10:44:51Z</time></trkpt>
<trkpt lat="42.332065" lon="3.197960"><ele>13.1</ele><time>2011-05-07T10:44:56Z</time></trkpt>
<trkpt lat="42.332302" lon="3.197603"><ele>12.9</ele><time>2011-05-07T10:45:01Z</time></trkpt>
<trkpt lat="42.332665" lon="3.197432"><ele>12</ele><time>2011-05-07T10:45:06Z</time></trkpt>
<trkpt lat="42.333068" lon="3.197318"><ele>10.9</ele><time>2011-05-07T10:45:11Z</time></trkpt>
<trkpt lat="42.333470" lon="3.197220"><ele>9.8</ele><time>2011-05-07T10:45:16Z</time></trkpt>
<trkpt lat="42.333852" lon="3.197160"><ele>9.2</ele><time>2011-05-07T10:45:21Z</time></trkpt>
<trkpt lat="42.334130" lon="3.197230"><ele>9</ele><time>2011-05-07T10:45:26Z</time></trkpt>
<trkpt lat="42.334225" lon="3.197400"><ele>8.8</ele><time>2011-05-07T10:45:31Z</time></trkpt>
<trkpt lat="42.334122" lon="3.197685"><ele>8.8</ele><time>2011-05-07T10:45:36Z</time></trkpt>
<trkpt lat="42.334152" lon="3.198060"><ele>7.7</ele><time>2011-05-07T10:45:41Z</time></trkpt>
<trkpt lat="42.334270" lon="3.198477"><ele>6.7</ele><time>2011-05-07T10:45:46Z</time></trkpt>
<trkpt lat="42.334393" lon="3.198885"><ele>6.3</ele><time>2011-05-07T10:45:51Z</time></trkpt>
<trkpt lat="42.334510" lon="3.199288"><ele>6.5</ele><time>2011-05-07T10:45:56Z</time></trkpt>
<trkpt lat="42.334618" lon="3.199657"><ele>7.4</ele><time>2011-05-07T10:46:01Z</time></trkpt>
<trkpt lat="42.334710" lon="3.199987"><ele>8.2</ele><time>2011-05-07T10:46:06Z</time></trkpt>
<trkpt lat="42.334782" lon="3.200267"><ele>8.9</ele><time>2011-05-07T10:46:11Z</time></trkpt>
<trkpt lat="42.334850" lon="3.200522"><ele>9.3</ele><time>2011-05-07T10:46:16Z</time></trkpt>
<trkpt lat="42.334938" lon="3.200808"><ele>8.8</ele><time>2011-05-07T10:46:21Z</time></trkpt>
<trkpt lat="42.335042" lon="3.201152"><ele>8.1</ele><time>2011-05-07T10:46:26Z</time></trkpt>
<trkpt lat="42.335140" lon="3.201510"><ele>6.8</ele><time>2011-05-07T10:46:31Z</time></trkpt>
<trkpt lat="42.335243" lon="3.201853"><ele>6.4</ele><time>2011-05-07T10:46:36Z</time></trkpt>
<trkpt lat="42.335358" lon="3.202182"><ele>7.5</ele><time>2011-05-07T10:46:41Z</time></trkpt>
<trkpt lat="42.335442" lon="3.202503"><ele>6.2</ele><time>2011-05-07T10:46:46Z</time></trkpt>
<trkpt lat="42.335567" lon="3.202787"><ele>6.6</ele><time>2011-05-07T10:46:51Z</time></trkpt>
<trkpt lat="42.335755" lon="3.202990"><ele>7</ele><time>2011-05-07T10:46:56Z</time></trkpt>
<trkpt lat="42.335965" lon="3.203160"><ele>7.3</ele><time>2011-05-07T10:47:01Z</time></trkpt>
<trkpt lat="42.336167" lon="3.203315"><ele>8.3</ele><time>2011-05-07T10:47:06Z</time></trkpt>
<trkpt lat="42.336357" lon="3.203488"><ele>7.9</ele><time>2011-05-07T10:47:11Z</time></trkpt>
<trkpt lat="42.336560" lon="3.203647"><ele>7.5</ele><time>2011-05-07T10:47:16Z</time></trkpt>
<trkpt lat="42.336812" lon="3.203668"><ele>7</ele><time>2011-05-07T10:47:21Z</time></trkpt>
<trkpt lat="42.337070" lon="3.203645"><ele>6.6</ele><time>2011-05-07T10:47:26Z</time></trkpt>
<trkpt lat="42.337342" lon="3.203608"><ele>6.2</ele><time>2011-05-07T10:47:31Z</time></trkpt>
<trkpt lat="42.337605" lon="3.203578"><ele>5.9</ele><time>2011-05-07T10:47:36Z</time></trkpt>
<trkpt lat="42.337815" lon="3.203560"><ele>6.1</ele><time>2011-05-07T10:47:41Z</time></trkpt>
<trkpt lat="42.337913" lon="3.203717"><ele>6.3</ele><time>2011-05-07T10:47:46Z</time></trkpt>
<trkpt lat="42.338078" lon="3.203767"><ele>7.2</ele><time>2011-05-07T10:47:51Z</time></trkpt>
<trkpt lat="42.338257" lon="3.203783"><ele>9.8</ele><time>2011-05-07T10:47:56Z</time></trkpt>
<trkpt lat="42.338467" lon="3.203817"><ele>10.8</ele><time>2011-05-07T10:48:01Z</time></trkpt>
<trkpt lat="42.338635" lon="3.203878"><ele>11</ele><time>2011-05-07T10:48:06Z</time></trkpt>
<trkpt lat="42.338795" lon="3.204028"><ele>10.6</ele><time>2011-05-07T10:48:11Z</time></trkpt>
<trkpt lat="42.338970" lon="3.204192"><ele>9</ele><time>2011-05-07T10:48:16Z</time></trkpt>
<trkpt lat="42.339172" lon="3.204263"><ele>9</ele><time>2011-05-07T10:48:21Z</time></trkpt>
<trkpt lat="42.339387" lon="3.204260"><ele>9.2</ele><time>2011-05-07T10:48:26Z</time></trkpt>
<trkpt lat="42.339600" lon="3.204205"><ele>9.5</ele><time>2011-05-07T10:48:31Z</time></trkpt>
<trkpt lat="42.339787" lon="3.204067"><ele>9.3</ele><time>2011-05-07T10:48:36Z</time></trkpt>
<trkpt lat="42.339977" lon="3.203905"><ele>9.2</ele><time>2011-05-07T10:48:41Z</time></trkpt>
<trkpt lat="42.340180" lon="3.203732"><ele>9.1</ele><time>2011-05-07T10:48:46Z</time></trkpt>
<trkpt lat="42.340390" lon="3.203555"><ele>9.3</ele><time>2011-05-07T10:48:51Z</time></trkpt>
<trkpt lat="42.340615" lon="3.203477"><ele>10.1</ele><time>2011-05-07T10:48:56Z</time></trkpt>
<trkpt lat="42.340847" lon="3.203482"><ele>9.9</ele><time>2011-05-07T10:49:01Z</time></trkpt>
<trkpt lat="42.341107" lon="3.203490"><ele>9.1</ele><time>2011-05-07T10:49:06Z</time></trkpt>
<trkpt lat="42.341328" lon="3.203385"><ele>9.7</ele><time>2011-05-07T10:49:11Z</time></trkpt>
<trkpt lat="42.341510" lon="3.203272"><ele>10.8</ele><time>2011-05-07T10:49:16Z</time></trkpt>
<trkpt lat="42.341728" lon="3.203182"><ele>10.7</ele><time>2011-05-07T10:49:21Z</time></trkpt>
<trkpt lat="42.341945" lon="3.203010"><ele>11.3</ele><time>2011-05-07T10:49:26Z</time></trkpt>
<trkpt lat="42.342155" lon="3.202850"><ele>11.9</ele><time>2011-05-07T10:49:31Z</time></trkpt>
<trkpt lat="42.342347" lon="3.202757"><ele>12.2</ele><time>2011-05-07T10:49:36Z</time></trkpt>
<trkpt lat="42.342533" lon="3.202752"><ele>12.1</ele><time>2011-05-07T10:49:41Z</time></trkpt>
<trkpt lat="42.342693" lon="3.202712"><ele>12.7</ele><time>2011-05-07T10:49:46Z</time></trkpt>
<trkpt lat="42.342847" lon="3.202643"><ele>13.7</ele><time>2011-05-07T10:49:51Z</time></trkpt>
<trkpt lat="42.342987" lon="3.202590"><ele>14.8</ele><time>2011-05-07T10:49:56Z</time></trkpt>
<trkpt lat="42.343090" lon="3.202608"><ele>16.5</ele><time>2011-05-07T10:50:01Z</time></trkpt>
<trkpt lat="42.343082" lon="3.202755"><ele>17.7</ele><time>2011-05-07T10:50:06Z</time></trkpt>
<trkpt lat="42.343055" lon="3.202907"><ele>18.4</ele><time>2011-05-07T10:50:11Z</time></trkpt>
<trkpt lat="42.343007" lon="3.203038"><ele>19.5</ele><time>2011-05-07T10:50:16Z</time></trkpt>
<trkpt lat="42.342960" lon="3.203172"><ele>20.8</ele><time>2011-05-07T10:50:21Z</time></trkpt>
<trkpt lat="42.342910" lon="3.203302"><ele>22.3</ele><time>2011-05-07T10:50:26Z</time></trkpt>
<trkpt lat="42.342850" lon="3.203428"><ele>23.3</ele><time>2011-05-07T10:50:31Z</time></trkpt>
<trkpt lat="42.342793" lon="3.203548"><ele>24.5</ele><time>2011-05-07T10:50:36Z</time></trkpt>
<trkpt lat="42.342735" lon="3.203657"><ele>26.2</ele><time>2011-05-07T10:50:41Z</time></trkpt>
<trkpt lat="42.342667" lon="3.203740"><ele>30.3</ele><time>2011-05-07T10:50:46Z</time></trkpt>
<trkpt lat="42.342593" lon="3.203818"><ele>33.6</ele><time>2011-05-07T10:50:51Z</time></trkpt>
<trkpt lat="42.342507" lon="3.203933"><ele>32.7</ele><time>2011-05-07T10:50:56Z</time></trkpt>
<trkpt lat="42.342507" lon="3.204077"><ele>32.6</ele><time>2011-05-07T10:51:01Z</time></trkpt>
<trkpt lat="42.342602" lon="3.204092"><ele>32.2</ele><time>2011-05-07T10:51:06Z</time></trkpt>
<trkpt lat="42.342693" lon="3.204055"><ele>32.7</ele><time>2011-05-07T10:51:11Z</time></trkpt>
<trkpt lat="42.342770" lon="3.204028"><ele>33.4</ele><time>2011-05-07T10:51:16Z</time></trkpt>
<trkpt lat="42.342838" lon="3.203992"><ele>34.2</ele><time>2011-05-07T10:51:21Z</time></trkpt>
<trkpt lat="42.342915" lon="3.203945"><ele>35.2</ele><time>2011-05-07T10:51:26Z</time></trkpt>
<trkpt lat="42.342987" lon="3.203915"><ele>36</ele><time>2011-05-07T10:51:31Z</time></trkpt>
<trkpt lat="42.343052" lon="3.203867"><ele>36.7</ele><time>2011-05-07T10:51:36Z</time></trkpt>
<trkpt lat="42.343117" lon="3.203818"><ele>37.6</ele><time>2011-05-07T10:51:41Z</time></trkpt>
<trkpt lat="42.343182" lon="3.203768"><ele>38.2</ele><time>2011-05-07T10:51:46Z</time></trkpt>
<trkpt lat="42.343243" lon="3.203703"><ele>39</ele><time>2011-05-07T10:51:51Z</time></trkpt>
<trkpt lat="42.343292" lon="3.203633"><ele>39.8</ele><time>2011-05-07T10:51:56Z</time></trkpt>
<trkpt lat="42.343362" lon="3.203593"><ele>40.3</ele><time>2011-05-07T10:52:01Z</time></trkpt>
<trkpt lat="42.343422" lon="3.203540"><ele>41</ele><time>2011-05-07T10:52:06Z</time></trkpt>
<trkpt lat="42.343478" lon="3.203480"><ele>42</ele><time>2011-05-07T10:52:11Z</time></trkpt>
<trkpt lat="42.343543" lon="3.203428"><ele>42.9</ele><time>2011-05-07T10:52:16Z</time></trkpt>
<trkpt lat="42.343602" lon="3.203370"><ele>43.6</ele><time>2011-05-07T10:52:21Z</time></trkpt>
<trkpt lat="42.343650" lon="3.203298"><ele>44.8</ele><time>2011-05-07T10:52:26Z</time></trkpt>
<trkpt lat="42.343693" lon="3.203223"><ele>46.1</ele><time>2011-05-07T10:52:31Z</time></trkpt>
<trkpt lat="42.343742" lon="3.203150"><ele>47.4</ele><time>2011-05-07T10:52:36Z</time></trkpt>
<trkpt lat="42.343807" lon="3.203125"><ele>48.9</ele><time>2011-05-07T10:52:41Z</time></trkpt>
<trkpt lat="42.343872" lon="3.203177"><ele>49.8</ele><time>2011-05-07T10:52:46Z</time></trkpt>
<trkpt lat="42.343895" lon="3.203283"><ele>50.4</ele><time>2011-05-07T10:52:51Z</time></trkpt>
<trkpt lat="42.343910" lon="3.203387"><ele>51.4</ele><time>2011-05-07T10:52:56Z</time></trkpt>
<trkpt lat="42.343922" lon="3.203492"><ele>52.4</ele><time>2011-05-07T10:53:01Z</time></trkpt>
<trkpt lat="42.343910" lon="3.203593"><ele>53.3</ele><time>2011-05-07T10:53:06Z</time></trkpt>
<trkpt lat="42.343918" lon="3.203688"><ele>54.2</ele><time>2011-05-07T10:53:11Z</time></trkpt>
<trkpt lat="42.343960" lon="3.203775"><ele>54.8</ele><time>2011-05-07T10:53:16Z</time></trkpt>
<trkpt lat="42.344037" lon="3.203802"><ele>55.7</ele><time>2011-05-07T10:53:21Z</time></trkpt>
<trkpt lat="42.344108" lon="3.203788"><ele>56.5</ele><time>2011-05-07T10:53:26Z</time></trkpt>
<trkpt lat="42.344185" lon="3.203777"><ele>57.3</ele><time>2011-05-07T10:53:31Z</time></trkpt>
<trkpt lat="42.344247" lon="3.203813"><ele>58.4</ele><time>2011-05-07T10:53:36Z</time></trkpt>
<trkpt lat="42.344185" lon="3.203865"><ele>58.9</ele><time>2011-05-07T10:53:41Z</time></trkpt>
<trkpt lat="42.344102" lon="3.203907"><ele>59.3</ele><time>2011-05-07T10:53:46Z</time></trkpt>
<trkpt lat="42.344002" lon="3.203942"><ele>60</ele><time>2011-05-07T10:53:51Z</time></trkpt>
<trkpt lat="42.343903" lon="3.203915"><ele>60.8</ele><time>2011-05-07T10:53:56Z</time></trkpt>
<trkpt lat="42.343822" lon="3.203842"><ele>61.8</ele><time>2011-05-07T10:54:01Z</time></trkpt>
<trkpt lat="42.343747" lon="3.203813"><ele>62.7</ele><time>2011-05-07T10:54:06Z</time></trkpt>
<trkpt lat="42.343662" lon="3.203875"><ele>63.4</ele><time>2011-05-07T10:54:11Z</time></trkpt>
<trkpt lat="42.343597" lon="3.203948"><ele>64.3</ele><time>2011-05-07T10:54:16Z</time></trkpt>
<trkpt lat="42.343528" lon="3.204028"><ele>65.2</ele><time>2011-05-07T10:54:21Z</time></trkpt>
<trkpt lat="42.343472" lon="3.204112"><ele>66.5</ele><time>2011-05-07T10:54:26Z</time></trkpt>
<trkpt lat="42.343442" lon="3.204230"><ele>67.3</ele><time>2011-05-07T10:54:31Z</time></trkpt>
<trkpt lat="42.343430" lon="3.204353"><ele>68.2</ele><time>2011-05-07T10:54:36Z</time></trkpt>
<trkpt lat="42.343410" lon="3.204480"><ele>68.6</ele><time>2011-05-07T10:54:41Z</time></trkpt>
<trkpt lat="42.343353" lon="3.204577"><ele>69.4</ele><time>2011-05-07T10:54:46Z</time></trkpt>
<trkpt lat="42.343253" lon="3.204613"><ele>70.4</ele><time>2011-05-07T10:54:51Z</time></trkpt>
<trkpt lat="42.343193" lon="3.204723"><ele>71.2</ele><time>2011-05-07T10:54:56Z</time></trkpt>
<trkpt lat="42.343155" lon="3.204848"><ele>72.4</ele><time>2011-05-07T10:55:01Z</time></trkpt>
<trkpt lat="42.343090" lon="3.204962"><ele>73.3</ele><time>2011-05-07T10:55:06Z</time></trkpt>
<trkpt lat="42.342998" lon="3.205047"><ele>74.2</ele><time>2011-05-07T10:55:11Z</time></trkpt>
<trkpt lat="42.342915" lon="3.205125"><ele>75.6</ele><time>2011-05-07T10:55:16Z</time></trkpt>
<trkpt lat="42.342835" lon="3.205213"><ele>76.9</ele><time>2011-05-07T10:55:21Z</time></trkpt>
<trkpt lat="42.342770" lon="3.205313"><ele>78.2</ele><time>2011-05-07T10:55:26Z</time></trkpt>
<trkpt lat="42.342693" lon="3.205402"><ele>79.7</ele><time>2011-05-07T10:55:31Z</time></trkpt>
<trkpt lat="42.342622" lon="3.205500"><ele>80.7</ele><time>2011-05-07T10:55:36Z</time></trkpt>
<trkpt lat="42.342572" lon="3.205625"><ele>81.4</ele><time>2011-05-07T10:55:41Z</time></trkpt>
<trkpt lat="42.342540" lon="3.205762"><ele>82</ele><time>2011-05-07T10:55:46Z</time></trkpt>
<trkpt lat="42.342503" lon="3.205890"><ele>82.9</ele><time>2011-05-07T10:55:51Z</time></trkpt>
<trkpt lat="42.342468" lon="3.206023"><ele>83.6</ele><time>2011-05-07T10:55:56Z</time></trkpt>
<trkpt lat="42.342438" lon="3.206152"><ele>83.9</ele><time>2011-05-07T10:56:01Z</time></trkpt>
<trkpt lat="42.342388" lon="3.206273"><ele>84.7</ele><time>2011-05-07T10:56:06Z</time></trkpt>
<trkpt lat="42.342315" lon="3.206343"><ele>86.3</ele><time>2011-05-07T10:56:11Z</time></trkpt>
<trkpt lat="42.342250" lon="3.206407"><ele>87.9</ele><time>2011-05-07T10:56:16Z</time></trkpt>
<trkpt lat="42.342190" lon="3.206478"><ele>89.9</ele><time>2011-05-07T10:56:21Z</time></trkpt>
<trkpt lat="42.342122" lon="3.206545"><ele>90.1</ele><time>2011-05-07T10:56:26Z</time></trkpt>
<trkpt lat="42.342048" lon="3.206602"><ele>91</ele><time>2011-05-07T10:56:31Z</time></trkpt>
<trkpt lat="42.341977" lon="3.206668"><ele>91.8</ele><time>2011-05-07T10:56:36Z</time></trkpt>
<trkpt lat="42.341888" lon="3.206727"><ele>91.9</ele><time>2011-05-07T10:56:41Z</time></trkpt>
<trkpt lat="42.341785" lon="3.206818"><ele>91.8</ele><time>2011-05-07T10:56:46Z</time></trkpt>
<trkpt lat="42.341678" lon="3.206925"><ele>91.6</ele><time>2011-05-07T10:56:51Z</time></trkpt>
<trkpt lat="42.341518" lon="3.207013"><ele>90.7</ele><time>2011-05-07T10:56:56Z</time></trkpt>
<trkpt lat="42.341328" lon="3.207112"><ele>90.1</ele><time>2011-05-07T10:57:01Z</time></trkpt>
<trkpt lat="42.341172" lon="3.207202"><ele>90.2</ele><time>2011-05-07T10:57:06Z</time></trkpt>
<trkpt lat="42.340995" lon="3.207272"><ele>89.9</ele><time>2011-05-07T10:57:11Z</time></trkpt>
<trkpt lat="42.340813" lon="3.207312"><ele>89.9</ele><time>2011-05-07T10:57:16Z</time></trkpt>
<trkpt lat="42.340618" lon="3.207303"><ele>89.5</ele><time>2011-05-07T10:57:21Z</time></trkpt>
<trkpt lat="42.340423" lon="3.207320"><ele>89.9</ele><time>2011-05-07T10:57:26Z</time></trkpt>
<trkpt lat="42.340225" lon="3.207333"><ele>90</ele><time>2011-05-07T10:57:31Z</time></trkpt>
<trkpt lat="42.340015" lon="3.207345"><ele>89.7</ele><time>2011-05-07T10:57:36Z</time></trkpt>
<trkpt lat="42.339822" lon="3.207423"><ele>89</ele><time>2011-05-07T10:57:41Z</time></trkpt>
<trkpt lat="42.339657" lon="3.207503"><ele>89.5</ele><time>2011-05-07T10:57:46Z</time></trkpt>
<trkpt lat="42.339512" lon="3.207567"><ele>90.6</ele><time>2011-05-07T10:57:51Z</time></trkpt>
<trkpt lat="42.339370" lon="3.207627"><ele>91.7</ele><time>2011-05-07T10:57:56Z</time></trkpt>
<trkpt lat="42.339252" lon="3.207685"><ele>93.2</ele><time>2011-05-07T10:58:01Z</time></trkpt>
<trkpt lat="42.339172" lon="3.207787"><ele>94.1</ele><time>2011-05-07T10:58:06Z</time></trkpt>
<trkpt lat="42.339118" lon="3.207838"><ele>94.2</ele><time>2011-05-07T10:58:11Z</time></trkpt>
<trkpt lat="42.339118" lon="3.207837"><ele>94.1</ele><time>2011-05-07T10:58:16Z</time></trkpt>
<trkpt lat="42.339118" lon="3.207837"><ele>94.1</ele><time>2011-05-07T10:58:21Z</time></trkpt>
<trkpt lat="42.339085" lon="3.207848"><ele>94.6</ele><time>2011-05-07T10:58:26Z</time></trkpt>
<trkpt lat="42.339005" lon="3.207858"><ele>95</ele><time>2011-05-07T10:58:31Z</time></trkpt>
<trkpt lat="42.338940" lon="3.207885"><ele>95.5</ele><time>2011-05-07T10:58:36Z</time></trkpt>
<trkpt lat="42.338872" lon="3.207950"><ele>96.1</ele><time>2011-05-07T10:58:41Z</time></trkpt>
<trkpt lat="42.338822" lon="3.208053"><ele>96.7</ele><time>2011-05-07T10:58:46Z</time></trkpt>
<trkpt lat="42.338772" lon="3.208173"><ele>97.2</ele><time>2011-05-07T10:58:51Z</time></trkpt>
<trkpt lat="42.338710" lon="3.208293"><ele>97.8</ele><time>2011-05-07T10:58:56Z</time></trkpt>
<trkpt lat="42.338662" lon="3.208415"><ele>98.4</ele><time>2011-05-07T10:59:01Z</time></trkpt>
<trkpt lat="42.338597" lon="3.208550"><ele>99.2</ele><time>2011-05-07T10:59:06Z</time></trkpt>
<trkpt lat="42.338565" lon="3.208690"><ele>99.8</ele><time>2011-05-07T10:59:11Z</time></trkpt>
<trkpt lat="42.338520" lon="3.208820"><ele>100.4</ele><time>2011-05-07T10:59:16Z</time></trkpt>
<trkpt lat="42.338452" lon="3.208940"><ele>101.2</ele><time>2011-05-07T10:59:21Z</time></trkpt>
<trkpt lat="42.338375" lon="3.209043"><ele>102</ele><time>2011-05-07T10:59:26Z</time></trkpt>
<trkpt lat="42.338283" lon="3.209132"><ele>102.5</ele><time>2011-05-07T10:59:31Z</time></trkpt>
<trkpt lat="42.338195" lon="3.209220"><ele>103.2</ele><time>2011-05-07T10:59:36Z</time></trkpt>
<trkpt lat="42.338108" lon="3.209315"><ele>103.9</ele><time>2011-05-07T10:59:41Z</time></trkpt>
<trkpt lat="42.338017" lon="3.209430"><ele>104.3</ele><time>2011-05-07T10:59:46Z</time></trkpt>
<trkpt lat="42.337933" lon="3.209535"><ele>105.3</ele><time>2011-05-07T10:59:51Z</time></trkpt>
<trkpt lat="42.337863" lon="3.209658"><ele>106.1</ele><time>2011-05-07T10:59:56Z</time></trkpt>
<trkpt lat="42.337815" lon="3.209793"><ele>107</ele><time>2011-05-07T11:00:01Z</time></trkpt>
<trkpt lat="42.337765" lon="3.209932"><ele>108.3</ele><time>2011-05-07T11:00:06Z</time></trkpt>
<trkpt lat="42.337703" lon="3.210097"><ele>108.1</ele><time>2011-05-07T11:00:11Z</time></trkpt>
<trkpt lat="42.337677" lon="3.210370"><ele>106.7</ele><time>2011-05-07T11:00:16Z</time></trkpt>
<trkpt lat="42.337792" lon="3.210587"><ele>106.6</ele><time>2011-05-07T11:00:21Z</time></trkpt>
<trkpt lat="42.337803" lon="3.210762"><ele>106.7</ele><time>2011-05-07T11:00:26Z</time></trkpt>
<trkpt lat="42.337738" lon="3.210937"><ele>106.5</ele><time>2011-05-07T11:00:31Z</time></trkpt>
<trkpt lat="42.337757" lon="3.211123"><ele>106.8</ele><time>2011-05-07T11:00:36Z</time></trkpt>
<trkpt lat="42.337822" lon="3.211293"><ele>106.9</ele><time>2011-05-07T11:00:41Z</time></trkpt>
<trkpt lat="42.337852" lon="3.211452"><ele>107.8</ele><time>2011-05-07T11:00:46Z</time></trkpt>
<trkpt lat="42.337845" lon="3.211607"><ele>108.9</ele><time>2011-05-07T11:00:51Z</time></trkpt>
<trkpt lat="42.337815" lon="3.211745"><ele>110.3</ele><time>2011-05-07T11:00:56Z</time></trkpt>
<trkpt lat="42.337757" lon="3.211850"><ele>111.4</ele><time>2011-05-07T11:01:01Z</time></trkpt>
<trkpt lat="42.337677" lon="3.211940"><ele>112.1</ele><time>2011-05-07T11:01:06Z</time></trkpt>
<trkpt lat="42.337617" lon="3.212037"><ele>113.3</ele><time>2011-05-07T11:01:11Z</time></trkpt>
<trkpt lat="42.337552" lon="3.212118"><ele>114.5</ele><time>2011-05-07T11:01:16Z</time></trkpt>
<trkpt lat="42.337478" lon="3.212188"><ele>115.3</ele><time>2011-05-07T11:01:21Z</time></trkpt>
<trkpt lat="42.337402" lon="3.212252"><ele>116.2</ele><time>2011-05-07T11:01:26Z</time></trkpt>
<trkpt lat="42.337337" lon="3.212328"><ele>117.1</ele><time>2011-05-07T11:01:31Z</time></trkpt>
<trkpt lat="42.337292" lon="3.212427"><ele>118</ele><time>2011-05-07T11:01:36Z</time></trkpt>
<trkpt lat="42.337242" lon="3.212527"><ele>118.7</ele><time>2011-05-07T11:01:41Z</time></trkpt>
<trkpt lat="42.337203" lon="3.212622"><ele>119.8</ele><time>2011-05-07T11:01:46Z</time></trkpt>
<trkpt lat="42.337162" lon="3.212713"><ele>121</ele><time>2011-05-07T11:01:51Z</time></trkpt>
<trkpt lat="42.337105" lon="3.212793"><ele>122.1</ele><time>2011-05-07T11:01:56Z</time></trkpt>
<trkpt lat="42.337043" lon="3.212872"><ele>123</ele><time>2011-05-07T11:02:01Z</time></trkpt>
<trkpt lat="42.336978" lon="3.212950"><ele>123.6</ele><time>2011-05-07T11:02:06Z</time></trkpt>
<trkpt lat="42.336907" lon="3.213030"><ele>124.2</ele><time>2011-05-07T11:02:11Z</time></trkpt>
<trkpt lat="42.336833" lon="3.213088"><ele>125</ele><time>2011-05-07T11:02:16Z</time></trkpt>
<trkpt lat="42.336747" lon="3.213138"><ele>125.4</ele><time>2011-05-07T11:02:21Z</time></trkpt>
<trkpt lat="42.336655" lon="3.213200"><ele>125.8</ele><time>2011-05-07T11:02:26Z</time></trkpt>
<trkpt lat="42.336548" lon="3.213272"><ele>126</ele><time>2011-05-07T11:02:31Z</time></trkpt>
<trkpt lat="42.336437" lon="3.213343"><ele>126.3</ele><time>2011-05-07T11:02:36Z</time></trkpt>
<trkpt lat="42.336315" lon="3.213422"><ele>126.6</ele><time>2011-05-07T11:02:41Z</time></trkpt>
<trkpt lat="42.336182" lon="3.213493"><ele>127</ele><time>2011-05-07T11:02:46Z</time></trkpt>
<trkpt lat="42.336033" lon="3.213497"><ele>128.3</ele><time>2011-05-07T11:02:51Z</time></trkpt>
<trkpt lat="42.335883" lon="3.213448"><ele>128.7</ele><time>2011-05-07T11:02:56Z</time></trkpt>
<trkpt lat="42.335717" lon="3.213440"><ele>128.2</ele><time>2011-05-07T11:03:01Z</time></trkpt>
<trkpt lat="42.335468" lon="3.213425"><ele>125.9</ele><time>2011-05-07T11:03:06Z</time></trkpt>
<trkpt lat="42.335288" lon="3.213718"><ele>124</ele><time>2011-05-07T11:03:11Z</time></trkpt>
<trkpt lat="42.335075" lon="3.213778"><ele>123.8</ele><time>2011-05-07T11:03:16Z</time></trkpt>
<trkpt lat="42.334912" lon="3.213725"><ele>124.2</ele><time>2011-05-07T11:03:21Z</time></trkpt>
<trkpt lat="42.334752" lon="3.213627"><ele>124.1</ele><time>2011-05-07T11:03:26Z</time></trkpt>
<trkpt lat="42.334587" lon="3.213553"><ele>123.9</ele><time>2011-05-07T11:03:31Z</time></trkpt>
<trkpt lat="42.334530" lon="3.213730"><ele>124</ele><time>2011-05-07T11:03:36Z</time></trkpt>
<trkpt lat="42.334613" lon="3.213847"><ele>125.2</ele><time>2011-05-07T11:03:41Z</time></trkpt>
<trkpt lat="42.334687" lon="3.213957"><ele>126</ele><time>2011-05-07T11:03:46Z</time></trkpt>
<trkpt lat="42.334763" lon="3.214088"><ele>126.8</ele><time>2011-05-07T11:03:51Z</time></trkpt>
<trkpt lat="42.334835" lon="3.214225"><ele>127.6</ele><time>2011-05-07T11:03:56Z</time></trkpt>
<trkpt lat="42.334903" lon="3.214355"><ele>128.9</ele><time>2011-05-07T11:04:01Z</time></trkpt>
<trkpt lat="42.334992" lon="3.214487"><ele>129.7</ele><time>2011-05-07T11:04:06Z</time></trkpt>
<trkpt lat="42.335060" lon="3.214585"><ele>131.1</ele><time>2011-05-07T11:04:11Z</time></trkpt>
<trkpt lat="42.335087" lon="3.214685"><ele>132.6</ele><time>2011-05-07T11:04:16Z</time></trkpt>
<trkpt lat="42.335072" lon="3.214793"><ele>133.9</ele><time>2011-05-07T11:04:21Z</time></trkpt>
<trkpt lat="42.335018" lon="3.214878"><ele>134.5</ele><time>2011-05-07T11:04:26Z</time></trkpt>
<trkpt lat="42.334945" lon="3.214933"><ele>135.1</ele><time>2011-05-07T11:04:31Z</time></trkpt>
<trkpt lat="42.334877" lon="3.215008"><ele>136.2</ele><time>2011-05-07T11:04:36Z</time></trkpt>
<trkpt lat="42.334817" lon="3.215082"><ele>137.4</ele><time>2011-05-07T11:04:41Z</time></trkpt>
<trkpt lat="42.334752" lon="3.215155"><ele>138.5</ele><time>2011-05-07T11:04:46Z</time></trkpt>
<trkpt lat="42.334698" lon="3.215227"><ele>139.6</ele><time>2011-05-07T11:04:51Z</time></trkpt>
<trkpt lat="42.334637" lon="3.215297"><ele>140.6</ele><time>2011-05-07T11:04:56Z</time></trkpt>
<trkpt lat="42.334575" lon="3.215365"><ele>141.5</ele><time>2011-05-07T11:05:01Z</time></trkpt>
<trkpt lat="42.334507" lon="3.215428"><ele>142.5</ele><time>2011-05-07T11:05:06Z</time></trkpt>
<trkpt lat="42.334430" lon="3.215482"><ele>143.4</ele><time>2011-05-07T11:05:11Z</time></trkpt>
<trkpt lat="42.334350" lon="3.215547"><ele>144</ele><time>2011-05-07T11:05:16Z</time></trkpt>
<trkpt lat="42.334267" lon="3.215625"><ele>145</ele><time>2011-05-07T11:05:21Z</time></trkpt>
<trkpt lat="42.334195" lon="3.215713"><ele>146.2</ele><time>2011-05-07T11:05:26Z</time></trkpt>
<trkpt lat="42.334130" lon="3.215810"><ele>147.4</ele><time>2011-05-07T11:05:31Z</time></trkpt>
<trkpt lat="42.334072" lon="3.215893"><ele>148.6</ele><time>2011-05-07T11:05:36Z</time></trkpt>
<trkpt lat="42.334000" lon="3.215970"><ele>149.4</ele><time>2011-05-07T11:05:41Z</time></trkpt>
<trkpt lat="42.333935" lon="3.216053"><ele>150.4</ele><time>2011-05-07T11:05:46Z</time></trkpt>
<trkpt lat="42.333852" lon="3.216118"><ele>151.4</ele><time>2011-05-07T11:05:51Z</time></trkpt>
<trkpt lat="42.333752" lon="3.216172"><ele>151.7</ele><time>2011-05-07T11:05:56Z</time></trkpt>
<trkpt lat="42.333657" lon="3.216195"><ele>151.7</ele><time>2011-05-07T11:06:01Z</time></trkpt>
<trkpt lat="42.333568" lon="3.216253"><ele>152</ele><time>2011-05-07T11:06:06Z</time></trkpt>
<trkpt lat="42.333492" lon="3.216325"><ele>152.9</ele><time>2011-05-07T11:06:11Z</time></trkpt>
<trkpt lat="42.333423" lon="3.216408"><ele>153.6</ele><time>2011-05-07T11:06:16Z</time></trkpt>
<trkpt lat="42.333355" lon="3.216490"><ele>154.3</ele><time>2011-05-07T11:06:21Z</time></trkpt>
<trkpt lat="42.333298" lon="3.216577"><ele>155</ele><time>2011-05-07T11:06:26Z</time></trkpt>
<trkpt lat="42.333228" lon="3.216682"><ele>155.2</ele><time>2011-05-07T11:06:31Z</time></trkpt>
<trkpt lat="42.333183" lon="3.216785"><ele>155.7</ele><time>2011-05-07T11:06:36Z</time></trkpt>
<trkpt lat="42.333133" lon="3.216893"><ele>156.3</ele><time>2011-05-07T11:06:41Z</time></trkpt>
<trkpt lat="42.333080" lon="3.216990"><ele>157.3</ele><time>2011-05-07T11:06:46Z</time></trkpt>
<trkpt lat="42.333020" lon="3.217073"><ele>158.4</ele><time>2011-05-07T11:06:51Z</time></trkpt>
<trkpt lat="42.332943" lon="3.217137"><ele>159.8</ele><time>2011-05-07T11:06:56Z</time></trkpt>
<trkpt lat="42.332858" lon="3.217198"><ele>160.4</ele><time>2011-05-07T11:07:01Z</time></trkpt>
<trkpt lat="42.332772" lon="3.217255"><ele>160.9</ele><time>2011-05-07T11:07:06Z</time></trkpt>
<trkpt lat="42.332692" lon="3.217317"><ele>161.4</ele><time>2011-05-07T11:07:11Z</time></trkpt>
<trkpt lat="42.332595" lon="3.217372"><ele>161.7</ele><time>2011-05-07T11:07:16Z</time></trkpt>
<trkpt lat="42.332500" lon="3.217423"><ele>161.7</ele><time>2011-05-07T11:07:21Z</time></trkpt>
<trkpt lat="42.332402" lon="3.217502"><ele>162.2</ele><time>2011-05-07T11:07:26Z</time></trkpt>
<trkpt lat="42.332317" lon="3.217595"><ele>163.2</ele><time>2011-05-07T11:07:31Z</time></trkpt>
<trkpt lat="42.332233" lon="3.217682"><ele>164.1</ele><time>2011-05-07T11:07:36Z</time></trkpt>
<trkpt lat="42.332135" lon="3.217767"><ele>164.2</ele><time>2011-05-07T11:07:41Z</time></trkpt>
<trkpt lat="42.332027" lon="3.217853"><ele>164.3</ele><time>2011-05-07T11:07:46Z</time></trkpt>
<trkpt lat="42.331913" lon="3.217947"><ele>164.5</ele><time>2011-05-07T11:07:51Z</time></trkpt>
<trkpt lat="42.331807" lon="3.218063"><ele>164.9</ele><time>2011-05-07T11:07:56Z</time></trkpt>
<trkpt lat="42.331730" lon="3.218202"><ele>165.4</ele><time>2011-05-07T11:08:01Z</time></trkpt>
<trkpt lat="42.331665" lon="3.218347"><ele>166.4</ele><time>2011-05-07T11:08:06Z</time></trkpt>
<trkpt lat="42.331615" lon="3.218498"><ele>167.5</ele><time>2011-05-07T11:08:11Z</time></trkpt>
<trkpt lat="42.331528" lon="3.218622"><ele>167.8</ele><time>2011-05-07T11:08:16Z</time></trkpt>
<trkpt lat="42.331422" lon="3.218715"><ele>167.5</ele><time>2011-05-07T11:08:21Z</time></trkpt>
<trkpt lat="42.331333" lon="3.218795"><ele>168.8</ele><time>2011-05-07T11:08:26Z</time></trkpt>
<trkpt lat="42.331260" lon="3.218883"><ele>169.8</ele><time>2011-05-07T11:08:31Z</time></trkpt>
<trkpt lat="42.331195" lon="3.218983"><ele>170.9</ele><time>2011-05-07T11:08:36Z</time></trkpt>
<trkpt lat="42.331142" lon="3.219082"><ele>172.3</ele><time>2011-05-07T11:08:41Z</time></trkpt>
<trkpt lat="42.331082" lon="3.219187"><ele>173.1</ele><time>2011-05-07T11:08:46Z</time></trkpt>
<trkpt lat="42.331025" lon="3.219297"><ele>173.9</ele><time>2011-05-07T11:08:51Z</time></trkpt>
<trkpt lat="42.330963" lon="3.219420"><ele>174.7</ele><time>2011-05-07T11:08:56Z</time></trkpt>
<trkpt lat="42.330895" lon="3.219553"><ele>175.4</ele><time>2011-05-07T11:09:01Z</time></trkpt>
<trkpt lat="42.330822" lon="3.219695"><ele>176.1</ele><time>2011-05-07T11:09:06Z</time></trkpt>
<trkpt lat="42.330715" lon="3.219820"><ele>176.4</ele><time>2011-05-07T11:09:11Z</time></trkpt>
<trkpt lat="42.330608" lon="3.219958"><ele>176.9</ele><time>2011-05-07T11:09:16Z</time></trkpt>
<trkpt lat="42.330552" lon="3.220143"><ele>177</ele><time>2011-05-07T11:09:21Z</time></trkpt>
<trkpt lat="42.330528" lon="3.220332"><ele>178.2</ele><time>2011-05-07T11:09:26Z</time></trkpt>
<trkpt lat="42.330513" lon="3.220512"><ele>178.3</ele><time>2011-05-07T11:09:31Z</time></trkpt>
<trkpt lat="42.330463" lon="3.220683"><ele>178.7</ele><time>2011-05-07T11:09:36Z</time></trkpt>
<trkpt lat="42.330402" lon="3.220805"><ele>179.6</ele><time>2011-05-07T11:09:41Z</time></trkpt>
<trkpt lat="42.330318" lon="3.220928"><ele>180</ele><time>2011-05-07T11:09:46Z</time></trkpt>
<trkpt lat="42.330223" lon="3.221025"><ele>181.1</ele><time>2011-05-07T11:09:51Z</time></trkpt>
<trkpt lat="42.330105" lon="3.221115"><ele>181.6</ele><time>2011-05-07T11:09:56Z</time></trkpt>
<trkpt lat="42.329990" lon="3.221193"><ele>183.2</ele><time>2011-05-07T11:10:01Z</time></trkpt>
<trkpt lat="42.329868" lon="3.221262"><ele>184.1</ele><time>2011-05-07T11:10:06Z</time></trkpt>
<trkpt lat="42.329750" lon="3.221327"><ele>185</ele><time>2011-05-07T11:10:11Z</time></trkpt>
<trkpt lat="42.329635" lon="3.221395"><ele>186.4</ele><time>2011-05-07T11:10:16Z</time></trkpt>
<trkpt lat="42.329533" lon="3.221455"><ele>188</ele><time>2011-05-07T11:10:21Z</time></trkpt>
<trkpt lat="42.329430" lon="3.221532"><ele>189</ele><time>2011-05-07T11:10:26Z</time></trkpt>
<trkpt lat="42.329342" lon="3.221635"><ele>189.3</ele><time>2011-05-07T11:10:31Z</time></trkpt>
<trkpt lat="42.329273" lon="3.221740"><ele>190.5</ele><time>2011-05-07T11:10:36Z</time></trkpt>
<trkpt lat="42.329208" lon="3.221833"><ele>191.7</ele><time>2011-05-07T11:10:41Z</time></trkpt>
<trkpt lat="42.329143" lon="3.221923"><ele>193.5</ele><time>2011-05-07T11:10:46Z</time></trkpt>
<trkpt lat="42.329082" lon="3.222017"><ele>194.5</ele><time>2011-05-07T11:10:51Z</time></trkpt>
<trkpt lat="42.329018" lon="3.222105"><ele>195.8</ele><time>2011-05-07T11:10:56Z</time></trkpt>
<trkpt lat="42.328953" lon="3.222192"><ele>197.3</ele><time>2011-05-07T11:11:01Z</time></trkpt>
<trkpt lat="42.328900" lon="3.222282"><ele>199.8</ele><time>2011-05-07T11:11:06Z</time></trkpt>
<trkpt lat="42.328842" lon="3.222377"><ele>200.7</ele><time>2011-05-07T11:11:11Z</time></trkpt>
<trkpt lat="42.328770" lon="3.222478"><ele>201.8</ele><time>2011-05-07T11:11:16Z</time></trkpt>
<trkpt lat="42.328697" lon="3.222597"><ele>201.3</ele><time>2011-05-07T11:11:21Z</time></trkpt>
<trkpt lat="42.328675" lon="3.222750"><ele>201.3</ele><time>2011-05-07T11:11:26Z</time></trkpt>
<trkpt lat="42.328628" lon="3.222940"><ele>199.7</ele><time>2011-05-07T11:11:31Z</time></trkpt>
<trkpt lat="42.328503" lon="3.223137"><ele>198.5</ele><time>2011-05-07T11:11:36Z</time></trkpt>
<trkpt lat="42.328373" lon="3.223197"><ele>197.8</ele><time>2011-05-07T11:11:41Z</time></trkpt>
<trkpt lat="42.328255" lon="3.223148"><ele>197.7</ele><time>2011-05-07T11:11:46Z</time></trkpt>
<trkpt lat="42.328148" lon="3.223000"><ele>197.3</ele><time>2011-05-07T11:11:51Z</time></trkpt>
<trkpt lat="42.328057" lon="3.222837"><ele>197.3</ele><time>2011-05-07T11:11:56Z</time></trkpt>
<trkpt lat="42.327962" lon="3.222698"><ele>198.2</ele><time>2011-05-07T11:12:01Z</time></trkpt>
<trkpt lat="42.327832" lon="3.222612"><ele>198.2</ele><time>2011-05-07T11:12:06Z</time></trkpt>
<trkpt lat="42.327672" lon="3.222655"><ele>198.4</ele><time>2011-05-07T11:12:11Z</time></trkpt>
<trkpt lat="42.327503" lon="3.222672"><ele>198.5</ele><time>2011-05-07T11:12:16Z</time></trkpt>
<trkpt lat="42.327328" lon="3.222673"><ele>198</ele><time>2011-05-07T11:12:21Z</time></trkpt>
<trkpt lat="42.327183" lon="3.222610"><ele>197.4</ele><time>2011-05-07T11:12:26Z</time></trkpt>
<trkpt lat="42.327157" lon="3.222425"><ele>197.1</ele><time>2011-05-07T11:12:31Z</time></trkpt>
<trkpt lat="42.327190" lon="3.222200"><ele>196.4</ele><time>2011-05-07T11:12:36Z</time></trkpt>
<trkpt lat="42.327172" lon="3.221978"><ele>196.6</ele><time>2011-05-07T11:12:41Z</time></trkpt>
<trkpt lat="42.327178" lon="3.221793"><ele>198.1</ele><time>2011-05-07T11:12:46Z</time></trkpt>
<trkpt lat="42.327237" lon="3.221623"><ele>199.4</ele><time>2011-05-07T11:12:51Z</time></trkpt>
<trkpt lat="42.327312" lon="3.221443"><ele>199.7</ele><time>2011-05-07T11:12:56Z</time></trkpt>
<trkpt lat="42.327408" lon="3.221253"><ele>199.3</ele><time>2011-05-07T11:13:01Z</time></trkpt>
<trkpt lat="42.327480" lon="3.221095"><ele>198.4</ele><time>2011-05-07T11:13:06Z</time></trkpt>
<trkpt lat="42.327538" lon="3.221205"><ele>199</ele><time>2011-05-07T11:13:11Z</time></trkpt>
<trkpt lat="42.327587" lon="3.221248"><ele>198.9</ele><time>2011-05-07T11:13:16Z</time></trkpt>
<trkpt lat="42.327592" lon="3.221243"><ele>198.8</ele><time>2011-05-07T11:13:21Z</time></trkpt>
<trkpt lat="42.327602" lon="3.221233"><ele>198.7</ele><time>2011-05-07T11:13:26Z</time></trkpt>
<trkpt lat="42.327598" lon="3.221235"><ele>198.6</ele><time>2011-05-07T11:13:31Z</time></trkpt>
<trkpt lat="42.327598" lon="3.221237"><ele>198.5</ele><time>2011-05-07T11:13:36Z</time></trkpt>
<trkpt lat="42.327598" lon="3.221235"><ele>198.5</ele><time>2011-05-07T11:13:41Z</time></trkpt>
<trkpt lat="42.327598" lon="3.221235"><ele>198.4</ele><time>2011-05-07T11:13:46Z</time></trkpt>
<trkpt lat="42.327598" lon="3.221235"><ele>198.3</ele><time>2011-05-07T11:13:51Z</time></trkpt>
<trkpt lat="42.327598" lon="3.221235"><ele>198.3</ele><time>2011-05-07T11:13:56Z</time></trkpt>
<trkpt lat="42.327602" lon="3.221235"><ele>198.2</ele><time>2011-05-07T11:14:01Z</time></trkpt>
<trkpt lat="42.327602" lon="3.221235"><ele>198.1</ele><time>2011-05-07T11:14:06Z</time></trkpt>
<trkpt lat="42.327602" lon="3.221235"><ele>197.9</ele><time>2011-05-07T11:14:11Z</time></trkpt>
<trkpt lat="42.327598" lon="3.221235"><ele>197.8</ele><time>2011-05-07T11:14:16Z</time></trkpt>
<trkpt lat="42.327598" lon="3.221247"><ele>197.7</ele><time>2011-05-07T11:14:21Z</time></trkpt>
<trkpt lat="42.327598" lon="3.221250"><ele>197.8</ele><time>2011-05-07T11:14:26Z</time></trkpt>
<trkpt lat="42.327598" lon="3.221250"><ele>198</ele><time>2011-05-07T11:14:31Z</time></trkpt>
<trkpt lat="42.327587" lon="3.221250"><ele>198.1</ele><time>2011-05-07T11:14:36Z</time></trkpt>
<trkpt lat="42.327565" lon="3.221257"><ele>199</ele><time>2011-05-07T11:14:41Z</time></trkpt>
<trkpt lat="42.327545" lon="3.221247"><ele>199.2</ele><time>2011-05-07T11:14:46Z</time></trkpt>
<trkpt lat="42.327515" lon="3.221132"><ele>198.9</ele><time>2011-05-07T11:14:51Z</time></trkpt>
<trkpt lat="42.327473" lon="3.220942"><ele>198.5</ele><time>2011-05-07T11:14:56Z</time></trkpt>
<trkpt lat="42.327430" lon="3.220743"><ele>198.4</ele><time>2011-05-07T11:15:01Z</time></trkpt>
<trkpt lat="42.327367" lon="3.220538"><ele>197.9</ele><time>2011-05-07T11:15:06Z</time></trkpt>
<trkpt lat="42.327362" lon="3.220328"><ele>197.8</ele><time>2011-05-07T11:15:11Z</time></trkpt>
<trkpt lat="42.327457" lon="3.220172"><ele>198.5</ele><time>2011-05-07T11:15:16Z</time></trkpt>
<trkpt lat="42.327580" lon="3.220043"><ele>199.3</ele><time>2011-05-07T11:15:21Z</time></trkpt>
<trkpt lat="42.327672" lon="3.219865"><ele>199.6</ele><time>2011-05-07T11:15:26Z</time></trkpt>
<trkpt lat="42.327725" lon="3.219650"><ele>199.8</ele><time>2011-05-07T11:15:31Z</time></trkpt>
<trkpt lat="42.327773" lon="3.219440"><ele>200.2</ele><time>2011-05-07T11:15:36Z</time></trkpt>
<trkpt lat="42.327885" lon="3.219323"><ele>201</ele><time>2011-05-07T11:15:41Z</time></trkpt>
<trkpt lat="42.328018" lon="3.219303"><ele>202.5</ele><time>2011-05-07T11:15:46Z</time></trkpt>
<trkpt lat="42.328143" lon="3.219233"><ele>203.7</ele><time>2011-05-07T11:15:51Z</time></trkpt>
<trkpt lat="42.328273" lon="3.219147"><ele>204.7</ele><time>2011-05-07T11:15:56Z</time></trkpt>
<trkpt lat="42.328392" lon="3.219038"><ele>205.1</ele><time>2011-05-07T11:16:01Z</time></trkpt>
<trkpt lat="42.328332" lon="3.218900"><ele>205.9</ele><time>2011-05-07T11:16:06Z</time></trkpt>
<trkpt lat="42.328205" lon="3.218912"><ele>207.1</ele><time>2011-05-07T11:16:11Z</time></trkpt>
<trkpt lat="42.328095" lon="3.218922"><ele>208</ele><time>2011-05-07T11:16:16Z</time></trkpt>
<trkpt lat="42.327972" lon="3.218912"><ele>208.5</ele><time>2011-05-07T11:16:21Z</time></trkpt>
<trkpt lat="42.327850" lon="3.218888"><ele>209.3</ele><time>2011-05-07T11:16:26Z</time></trkpt>
<trkpt lat="42.327728" lon="3.218868"><ele>209.8</ele><time>2011-05-07T11:16:31Z</time></trkpt>
<trkpt lat="42.327607" lon="3.218825"><ele>210.2</ele><time>2011-05-07T11:16:36Z</time></trkpt>
<trkpt lat="42.327480" lon="3.218735"><ele>210.5</ele><time>2011-05-07T11:16:41Z</time></trkpt>
<trkpt lat="42.327370" lon="3.218625"><ele>210.7</ele><time>2011-05-07T11:16:46Z</time></trkpt>
<trkpt lat="42.327278" lon="3.218502"><ele>211.3</ele><time>2011-05-07T11:16:51Z</time></trkpt>
<trkpt lat="42.327183" lon="3.218418"><ele>211.8</ele><time>2011-05-07T11:16:56Z</time></trkpt>
<trkpt lat="42.327098" lon="3.218492"><ele>212.4</ele><time>2011-05-07T11:17:01Z</time></trkpt>
<trkpt lat="42.327087" lon="3.218622"><ele>213.6</ele><time>2011-05-07T11:17:06Z</time></trkpt>
<trkpt lat="42.327098" lon="3.218747"><ele>214.8</ele><time>2011-05-07T11:17:11Z</time></trkpt>
<trkpt lat="42.327098" lon="3.218887"><ele>215.7</ele><time>2011-05-07T11:17:16Z</time></trkpt>
<trkpt lat="42.327092" lon="3.219018"><ele>216.7</ele><time>2011-05-07T11:17:21Z</time></trkpt>
<trkpt lat="42.327083" lon="3.219145"><ele>218</ele><time>2011-05-07T11:17:26Z</time></trkpt>
<trkpt lat="42.327050" lon="3.219267"><ele>219.2</ele><time>2011-05-07T11:17:31Z</time></trkpt>
<trkpt lat="42.326988" lon="3.219352"><ele>220.3</ele><time>2011-05-07T11:17:36Z</time></trkpt>
<trkpt lat="42.326900" lon="3.219397"><ele>221.3</ele><time>2011-05-07T11:17:41Z</time></trkpt>
<trkpt lat="42.326802" lon="3.219427"><ele>222.3</ele><time>2011-05-07T11:17:46Z</time></trkpt>
<trkpt lat="42.326698" lon="3.219437"><ele>223.5</ele><time>2011-05-07T11:17:51Z</time></trkpt>
<trkpt lat="42.326592" lon="3.219447"><ele>224.2</ele><time>2011-05-07T11:17:56Z</time></trkpt>
<trkpt lat="42.326477" lon="3.219455"><ele>225.1</ele><time>2011-05-07T11:18:01Z</time></trkpt>
<trkpt lat="42.326367" lon="3.219468"><ele>226.2</ele><time>2011-05-07T11:18:06Z</time></trkpt>
<trkpt lat="42.326252" lon="3.219497"><ele>227.4</ele><time>2011-05-07T11:18:11Z</time></trkpt>
<trkpt lat="42.326142" lon="3.219533"><ele>228.3</ele><time>2011-05-07T11:18:16Z</time></trkpt>
<trkpt lat="42.326023" lon="3.219563"><ele>229.1</ele><time>2011-05-07T11:18:21Z</time></trkpt>
<trkpt lat="42.325890" lon="3.219583"><ele>229.5</ele><time>2011-05-07T11:18:26Z</time></trkpt>
<trkpt lat="42.325760" lon="3.219632"><ele>230.1</ele><time>2011-05-07T11:18:31Z</time></trkpt>
<trkpt lat="42.325642" lon="3.219692"><ele>230.5</ele><time>2011-05-07T11:18:36Z</time></trkpt>
<trkpt lat="42.325520" lon="3.219757"><ele>231</ele><time>2011-05-07T11:18:41Z</time></trkpt>
<trkpt lat="42.325397" lon="3.219823"><ele>231.9</ele><time>2011-05-07T11:18:46Z</time></trkpt>
<trkpt lat="42.325272" lon="3.219872"><ele>232.8</ele><time>2011-05-07T11:18:51Z</time></trkpt>
<trkpt lat="42.325150" lon="3.219913"><ele>233.9</ele><time>2011-05-07T11:18:56Z</time></trkpt>
<trkpt lat="42.325023" lon="3.219953"><ele>234.6</ele><time>2011-05-07T11:19:01Z</time></trkpt>
<trkpt lat="42.324898" lon="3.219987"><ele>235.7</ele><time>2011-05-07T11:19:06Z</time></trkpt>
<trkpt lat="42.324768" lon="3.219987"><ele>236.3</ele><time>2011-05-07T11:19:11Z</time></trkpt>
<trkpt lat="42.324623" lon="3.219955"><ele>236.4</ele><time>2011-05-07T11:19:16Z</time></trkpt>
<trkpt lat="42.324482" lon="3.219942"><ele>236.7</ele><time>2011-05-07T11:19:21Z</time></trkpt>
<trkpt lat="42.324333" lon="3.219953"><ele>237.1</ele><time>2011-05-07T11:19:26Z</time></trkpt>
<trkpt lat="42.324173" lon="3.219988"><ele>237.2</ele><time>2011-05-07T11:19:31Z</time></trkpt>
<trkpt lat="42.323990" lon="3.220005"><ele>237.6</ele><time>2011-05-07T11:19:36Z</time></trkpt>
<trkpt lat="42.323842" lon="3.220138"><ele>238.1</ele><time>2011-05-07T11:19:41Z</time></trkpt>
<trkpt lat="42.323708" lon="3.220295"><ele>238.9</ele><time>2011-05-07T11:19:46Z</time></trkpt>
<trkpt lat="42.323558" lon="3.220400"><ele>240.6</ele><time>2011-05-07T11:19:51Z</time></trkpt>
<trkpt lat="42.323410" lon="3.220402"><ele>241.4</ele><time>2011-05-07T11:19:56Z</time></trkpt>
<trkpt lat="42.323242" lon="3.220298"><ele>241.2</ele><time>2011-05-07T11:20:01Z</time></trkpt>
<trkpt lat="42.323117" lon="3.220225"><ele>242.6</ele><time>2011-05-07T11:20:06Z</time></trkpt>
<trkpt lat="42.323010" lon="3.220137"><ele>243.6</ele><time>2011-05-07T11:20:11Z</time></trkpt>
<trkpt lat="42.322877" lon="3.220047"><ele>244</ele><time>2011-05-07T11:20:16Z</time></trkpt>
<trkpt lat="42.322715" lon="3.219990"><ele>243.9</ele><time>2011-05-07T11:20:21Z</time></trkpt>
<trkpt lat="42.322560" lon="3.220032"><ele>244.2</ele><time>2011-05-07T11:20:26Z</time></trkpt>
<trkpt lat="42.322430" lon="3.220122"><ele>245.3</ele><time>2011-05-07T11:20:31Z</time></trkpt>
<trkpt lat="42.322338" lon="3.220235"><ele>246.8</ele><time>2011-05-07T11:20:36Z</time></trkpt>
<trkpt lat="42.322258" lon="3.220372"><ele>248.2</ele><time>2011-05-07T11:20:41Z</time></trkpt>
<trkpt lat="42.322173" lon="3.220497"><ele>249.3</ele><time>2011-05-07T11:20:46Z</time></trkpt>
<trkpt lat="42.322090" lon="3.220618"><ele>250.2</ele><time>2011-05-07T11:20:51Z</time></trkpt>
<trkpt lat="42.321980" lon="3.220742"><ele>250.7</ele><time>2011-05-07T11:20:56Z</time></trkpt>
<trkpt lat="42.321862" lon="3.220880"><ele>250.6</ele><time>2011-05-07T11:21:01Z</time></trkpt>
<trkpt lat="42.321717" lon="3.221015"><ele>249.7</ele><time>2011-05-07T11:21:06Z</time></trkpt>
<trkpt lat="42.321525" lon="3.221173"><ele>248.6</ele><time>2011-05-07T11:21:11Z</time></trkpt>
<trkpt lat="42.321418" lon="3.221373"><ele>249.1</ele><time>2011-05-07T11:21:16Z</time></trkpt>
<trkpt lat="42.321323" lon="3.221553"><ele>249</ele><time>2011-05-07T11:21:21Z</time></trkpt>
<trkpt lat="42.321155" lon="3.221800"><ele>246.5</ele><time>2011-05-07T11:21:26Z</time></trkpt>
<trkpt lat="42.320972" lon="3.222107"><ele>246</ele><time>2011-05-07T11:21:31Z</time></trkpt>
<trkpt lat="42.320862" lon="3.222298"><ele>246.8</ele><time>2011-05-07T11:21:36Z</time></trkpt>
<trkpt lat="42.320720" lon="3.222488"><ele>245.4</ele><time>2011-05-07T11:21:41Z</time></trkpt>
<trkpt lat="42.320533" lon="3.222768"><ele>242.8</ele><time>2011-05-07T11:21:46Z</time></trkpt>
<trkpt lat="42.320313" lon="3.223095"><ele>240.2</ele><time>2011-05-07T11:21:51Z</time></trkpt>
<trkpt lat="42.320068" lon="3.223463"><ele>236.4</ele><time>2011-05-07T11:21:56Z</time></trkpt>
<trkpt lat="42.319817" lon="3.223862"><ele>235</ele><time>2011-05-07T11:22:01Z</time></trkpt>
<trkpt lat="42.319668" lon="3.224120"><ele>236.3</ele><time>2011-05-07T11:22:06Z</time></trkpt>
<trkpt lat="42.319572" lon="3.224313"><ele>235.9</ele><time>2011-05-07T11:22:11Z</time></trkpt>
<trkpt lat="42.319423" lon="3.224558"><ele>234.2</ele><time>2011-05-07T11:22:16Z</time></trkpt>
<trkpt lat="42.319175" lon="3.224702"><ele>232.7</ele><time>2011-05-07T11:22:21Z</time></trkpt>
<trkpt lat="42.318890" lon="3.224753"><ele>231.1</ele><time>2011-05-07T11:22:26Z</time></trkpt>
<trkpt lat="42.318585" lon="3.224862"><ele>230.3</ele><time>2011-05-07T11:22:31Z</time></trkpt>
<trkpt lat="42.318287" lon="3.224943"><ele>229.7</ele><time>2011-05-07T11:22:36Z</time></trkpt>
<trkpt lat="42.317990" lon="3.225015"><ele>227.9</ele><time>2011-05-07T11:22:41Z</time></trkpt>
<trkpt lat="42.317677" lon="3.225108"><ele>226.5</ele><time>2011-05-07T11:22:46Z</time></trkpt>
<trkpt lat="42.317630" lon="3.225448"><ele>226.2</ele><time>2011-05-07T11:22:51Z</time></trkpt>
<trkpt lat="42.317550" lon="3.225800"><ele>225.3</ele><time>2011-05-07T11:22:56Z</time></trkpt>
<trkpt lat="42.317437" lon="3.226177"><ele>223.6</ele><time>2011-05-07T11:23:01Z</time></trkpt>
<trkpt lat="42.317497" lon="3.226548"><ele>223.3</ele><time>2011-05-07T11:23:06Z</time></trkpt>
<trkpt lat="42.317360" lon="3.226730"><ele>221.9</ele><time>2011-05-07T11:23:11Z</time></trkpt>
<trkpt lat="42.317035" lon="3.226762"><ele>217.9</ele><time>2011-05-07T11:23:16Z</time></trkpt>
<trkpt lat="42.316685" lon="3.226922"><ele>215.5</ele><time>2011-05-07T11:23:21Z</time></trkpt>
<trkpt lat="42.316357" lon="3.226983"><ele>214</ele><time>2011-05-07T11:23:26Z</time></trkpt>
<trkpt lat="42.316075" lon="3.226978"><ele>214.2</ele><time>2011-05-07T11:23:31Z</time></trkpt>
<trkpt lat="42.315823" lon="3.226968"><ele>213.3</ele><time>2011-05-07T11:23:36Z</time></trkpt>
<trkpt lat="42.315495" lon="3.226927"><ele>210.3</ele><time>2011-05-07T11:23:41Z</time></trkpt>
<trkpt lat="42.315285" lon="3.227180"><ele>210.3</ele><time>2011-05-07T11:23:46Z</time></trkpt>
<trkpt lat="42.315018" lon="3.227300"><ele>209.3</ele><time>2011-05-07T11:23:51Z</time></trkpt>
<trkpt lat="42.314797" lon="3.227517"><ele>209.5</ele><time>2011-05-07T11:23:56Z</time></trkpt>
<trkpt lat="42.314525" lon="3.227623"><ele>207.5</ele><time>2011-05-07T11:24:01Z</time></trkpt>
<trkpt lat="42.314175" lon="3.227562"><ele>205.9</ele><time>2011-05-07T11:24:06Z</time></trkpt>
<trkpt lat="42.313953" lon="3.227313"><ele>206.3</ele><time>2011-05-07T11:24:11Z</time></trkpt>
<trkpt lat="42.313942" lon="3.227063"><ele>208.3</ele><time>2011-05-07T11:24:16Z</time></trkpt>
<trkpt lat="42.313983" lon="3.226877"><ele>209.5</ele><time>2011-05-07T11:24:21Z</time></trkpt>
<trkpt lat="42.313995" lon="3.226683"><ele>209.7</ele><time>2011-05-07T11:24:26Z</time></trkpt>
<trkpt lat="42.313923" lon="3.226517"><ele>209.9</ele><time>2011-05-07T11:24:31Z</time></trkpt>
<trkpt lat="42.313770" lon="3.226600"><ele>211.2</ele><time>2011-05-07T11:24:36Z</time></trkpt>
<trkpt lat="42.313610" lon="3.226713"><ele>211.6</ele><time>2011-05-07T11:24:41Z</time></trkpt>
<trkpt lat="42.313427" lon="3.226800"><ele>211.2</ele><time>2011-05-07T11:24:46Z</time></trkpt>
<trkpt lat="42.313275" lon="3.226950"><ele>211.4</ele><time>2011-05-07T11:24:51Z</time></trkpt>
<trkpt lat="42.313142" lon="3.227098"><ele>212.2</ele><time>2011-05-07T11:24:56Z</time></trkpt>
<trkpt lat="42.312980" lon="3.227187"><ele>212.5</ele><time>2011-05-07T11:25:01Z</time></trkpt>
<trkpt lat="42.312847" lon="3.227350"><ele>213.2</ele><time>2011-05-07T11:25:06Z</time></trkpt>
<trkpt lat="42.312760" lon="3.227465"><ele>214.3</ele><time>2011-05-07T11:25:11Z</time></trkpt>
<trkpt lat="42.312663" lon="3.227557"><ele>215.3</ele><time>2011-05-07T11:25:16Z</time></trkpt>
<trkpt lat="42.312577" lon="3.227680"><ele>215.7</ele><time>2011-05-07T11:25:21Z</time></trkpt>
<trkpt lat="42.312477" lon="3.227780"><ele>216.4</ele><time>2011-05-07T11:25:26Z</time></trkpt>
<trkpt lat="42.312378" lon="3.227808"><ele>217.3</ele><time>2011-05-07T11:25:31Z</time></trkpt>
<trkpt lat="42.312283" lon="3.227808"><ele>218.1</ele><time>2011-05-07T11:25:36Z</time></trkpt>
<trkpt lat="42.312202" lon="3.227848"><ele>219.1</ele><time>2011-05-07T11:25:41Z</time></trkpt>
<trkpt lat="42.312160" lon="3.227930"><ele>220.1</ele><time>2011-05-07T11:25:46Z</time></trkpt>
<trkpt lat="42.312145" lon="3.228028"><ele>221.2</ele><time>2011-05-07T11:25:51Z</time></trkpt>
<trkpt lat="42.312133" lon="3.228127"><ele>222.4</ele><time>2011-05-07T11:25:56Z</time></trkpt>
<trkpt lat="42.312142" lon="3.228230"><ele>223.4</ele><time>2011-05-07T11:26:01Z</time></trkpt>
<trkpt lat="42.312157" lon="3.228330"><ele>224.7</ele><time>2011-05-07T11:26:06Z</time></trkpt>
<trkpt lat="42.312180" lon="3.228433"><ele>225.9</ele><time>2011-05-07T11:26:11Z</time></trkpt>
<trkpt lat="42.312195" lon="3.228545"><ele>226.7</ele><time>2011-05-07T11:26:16Z</time></trkpt>
<trkpt lat="42.312198" lon="3.228655"><ele>227.1</ele><time>2011-05-07T11:26:21Z</time></trkpt>
<trkpt lat="42.312198" lon="3.228765"><ele>228.1</ele><time>2011-05-07T11:26:26Z</time></trkpt>
<trkpt lat="42.312207" lon="3.228877"><ele>228.8</ele><time>2011-05-07T11:26:31Z</time></trkpt>
<trkpt lat="42.312218" lon="3.228983"><ele>229.8</ele><time>2011-05-07T11:26:36Z</time></trkpt>
<trkpt lat="42.312213" lon="3.229088"><ele>230.8</ele><time>2011-05-07T11:26:41Z</time></trkpt>
<trkpt lat="42.312210" lon="3.229192"><ele>232</ele><time>2011-05-07T11:26:46Z</time></trkpt>
<trkpt lat="42.312213" lon="3.229300"><ele>232.9</ele><time>2011-05-07T11:26:51Z</time></trkpt>
<trkpt lat="42.312202" lon="3.229415"><ele>233.4</ele><time>2011-05-07T11:26:56Z</time></trkpt>
<trkpt lat="42.312138" lon="3.229502"><ele>233.6</ele><time>2011-05-07T11:27:01Z</time></trkpt>
<trkpt lat="42.312057" lon="3.229532"><ele>234.2</ele><time>2011-05-07T11:27:06Z</time></trkpt>
<trkpt lat="42.311977" lon="3.229543"><ele>235.3</ele><time>2011-05-07T11:27:11Z</time></trkpt>
<trkpt lat="42.311902" lon="3.229565"><ele>236.4</ele><time>2011-05-07T11:27:16Z</time></trkpt>
<trkpt lat="42.311832" lon="3.229605"><ele>237.7</ele><time>2011-05-07T11:27:21Z</time></trkpt>
<trkpt lat="42.311778" lon="3.229662"><ele>239.1</ele><time>2011-05-07T11:27:26Z</time></trkpt>
<trkpt lat="42.311730" lon="3.229733"><ele>240.3</ele><time>2011-05-07T11:27:31Z</time></trkpt>
<trkpt lat="42.311677" lon="3.229807"><ele>241.6</ele><time>2011-05-07T11:27:36Z</time></trkpt>
<trkpt lat="42.311612" lon="3.229863"><ele>242.8</ele><time>2011-05-07T11:27:41Z</time></trkpt>
<trkpt lat="42.311543" lon="3.229913"><ele>243.6</ele><time>2011-05-07T11:27:46Z</time></trkpt>
<trkpt lat="42.311473" lon="3.229935"><ele>244.4</ele><time>2011-05-07T11:27:51Z</time></trkpt>
<trkpt lat="42.311405" lon="3.229932"><ele>245.2</ele><time>2011-05-07T11:27:56Z</time></trkpt>
<trkpt lat="42.311337" lon="3.229917"><ele>245.9</ele><time>2011-05-07T11:28:01Z</time></trkpt>
<trkpt lat="42.311268" lon="3.229912"><ele>246.6</ele><time>2011-05-07T11:28:06Z</time></trkpt>
<trkpt lat="42.311195" lon="3.229902"><ele>247.5</ele><time>2011-05-07T11:28:11Z</time></trkpt>
<trkpt lat="42.311123" lon="3.229898"><ele>247.9</ele><time>2011-05-07T11:28:16Z</time></trkpt>
<trkpt lat="42.311055" lon="3.229890"><ele>248.6</ele><time>2011-05-07T11:28:21Z</time></trkpt>
<trkpt lat="42.310982" lon="3.229888"><ele>249.5</ele><time>2011-05-07T11:28:26Z</time></trkpt>
<trkpt lat="42.310913" lon="3.229888"><ele>250.4</ele><time>2011-05-07T11:28:31Z</time></trkpt>
<trkpt lat="42.310837" lon="3.229898"><ele>251.3</ele><time>2011-05-07T11:28:36Z</time></trkpt>
<trkpt lat="42.310765" lon="3.229905"><ele>252.1</ele><time>2011-05-07T11:28:41Z</time></trkpt>
<trkpt lat="42.310688" lon="3.229907"><ele>252.7</ele><time>2011-05-07T11:28:46Z</time></trkpt>
<trkpt lat="42.310615" lon="3.229907"><ele>253.7</ele><time>2011-05-07T11:28:51Z</time></trkpt>
<trkpt lat="42.310540" lon="3.229923"><ele>254.8</ele><time>2011-05-07T11:28:56Z</time></trkpt>
<trkpt lat="42.310467" lon="3.229935"><ele>255.8</ele><time>2011-05-07T11:29:01Z</time></trkpt>
<trkpt lat="42.310395" lon="3.229953"><ele>256.8</ele><time>2011-05-07T11:29:06Z</time></trkpt>
<trkpt lat="42.310318" lon="3.229993"><ele>257.6</ele><time>2011-05-07T11:29:11Z</time></trkpt>
<trkpt lat="42.310245" lon="3.230028"><ele>258.2</ele><time>2011-05-07T11:29:16Z</time></trkpt>
<trkpt lat="42.310170" lon="3.230092"><ele>258.5</ele><time>2011-05-07T11:29:21Z</time></trkpt>
<trkpt lat="42.310097" lon="3.230163"><ele>258.9</ele><time>2011-05-07T11:29:26Z</time></trkpt>
<trkpt lat="42.310028" lon="3.230237"><ele>259.5</ele><time>2011-05-07T11:29:31Z</time></trkpt>
<trkpt lat="42.309955" lon="3.230342"><ele>259.8</ele><time>2011-05-07T11:29:36Z</time></trkpt>
<trkpt lat="42.309902" lon="3.230477"><ele>260</ele><time>2011-05-07T11:29:41Z</time></trkpt>
<trkpt lat="42.309880" lon="3.230625"><ele>260.8</ele><time>2011-05-07T11:29:46Z</time></trkpt>
<trkpt lat="42.309872" lon="3.230760"><ele>261.9</ele><time>2011-05-07T11:29:51Z</time></trkpt>
<trkpt lat="42.309853" lon="3.230910"><ele>262.8</ele><time>2011-05-07T11:29:56Z</time></trkpt>
<trkpt lat="42.309830" lon="3.231060"><ele>263.5</ele><time>2011-05-07T11:30:01Z</time></trkpt>
<trkpt lat="42.309783" lon="3.231212"><ele>264</ele><time>2011-05-07T11:30:06Z</time></trkpt>
<trkpt lat="42.309727" lon="3.231360"><ele>264.6</ele><time>2011-05-07T11:30:11Z</time></trkpt>
<trkpt lat="42.309658" lon="3.231497"><ele>265.4</ele><time>2011-05-07T11:30:16Z</time></trkpt>
<trkpt lat="42.309605" lon="3.231647"><ele>265.9</ele><time>2011-05-07T11:30:21Z</time></trkpt>
<trkpt lat="42.309612" lon="3.231718"><ele>266</ele><time>2011-05-07T11:30:26Z</time></trkpt>
<trkpt lat="42.309612" lon="3.231715"><ele>266.2</ele><time>2011-05-07T11:30:31Z</time></trkpt>
<trkpt lat="42.309612" lon="3.231725"><ele>266.1</ele><time>2011-05-07T11:30:36Z</time></trkpt>
<trkpt lat="42.309612" lon="3.231718"><ele>266.1</ele><time>2011-05-07T11:30:41Z</time></trkpt>
<trkpt lat="42.309617" lon="3.231717"><ele>265.9</ele><time>2011-05-07T11:30:46Z</time></trkpt>
<trkpt lat="42.309617" lon="3.231717"><ele>265.6</ele><time>2011-05-07T11:30:51Z</time></trkpt>
<trkpt lat="42.309617" lon="3.231715"><ele>265.4</ele><time>2011-05-07T11:30:56Z</time></trkpt>
<trkpt lat="42.309617" lon="3.231717"><ele>265.3</ele><time>2011-05-07T11:31:01Z</time></trkpt>
<trkpt lat="42.309620" lon="3.231718"><ele>265.1</ele><time>2011-05-07T11:31:06Z</time></trkpt>
<trkpt lat="42.309617" lon="3.231713"><ele>264.7</ele><time>2011-05-07T11:31:11Z</time></trkpt>
<trkpt lat="42.309617" lon="3.231712"><ele>264.5</ele><time>2011-05-07T11:31:16Z</time></trkpt>
<trkpt lat="42.309617" lon="3.231712"><ele>264.2</ele><time>2011-05-07T11:31:21Z</time></trkpt>
<trkpt lat="42.309620" lon="3.231715"><ele>264.1</ele><time>2011-05-07T11:31:26Z</time></trkpt>
<trkpt lat="42.309620" lon="3.231715"><ele>264.2</ele><time>2011-05-07T11:31:31Z</time></trkpt>
<trkpt lat="42.309620" lon="3.231715"><ele>264.6</ele><time>2011-05-07T11:31:36Z</time></trkpt>
<trkpt lat="42.309617" lon="3.231715"><ele>264.6</ele><time>2011-05-07T11:31:41Z</time></trkpt>
<trkpt lat="42.309617" lon="3.231712"><ele>264.2</ele><time>2011-05-07T11:31:46Z</time></trkpt>
<trkpt lat="42.309617" lon="3.231712"><ele>264</ele><time>2011-05-07T11:31:51Z</time></trkpt>
<trkpt lat="42.309617" lon="3.231712"><ele>263.8</ele><time>2011-05-07T11:31:56Z</time></trkpt>
<trkpt lat="42.309617" lon="3.231712"><ele>263.6</ele><time>2011-05-07T11:32:01Z</time></trkpt>
<trkpt lat="42.309617" lon="3.231712"><ele>263.5</ele><time>2011-05-07T11:32:06Z</time></trkpt>
<trkpt lat="42.309617" lon="3.231712"><ele>263.5</ele><time>2011-05-07T11:32:11Z</time></trkpt>
<trkpt lat="42.309617" lon="3.231712"><ele>263.6</ele><time>2011-05-07T11:32:16Z</time></trkpt>
<trkpt lat="42.309617" lon="3.231712"><ele>263.6</ele><time>2011-05-07T11:32:21Z</time></trkpt>
<trkpt lat="42.309620" lon="3.231713"><ele>263.6</ele><time>2011-05-07T11:32:26Z</time></trkpt>
<trkpt lat="42.309620" lon="3.231713"><ele>263.6</ele><time>2011-05-07T11:32:31Z</time></trkpt>
<trkpt lat="42.309620" lon="3.231710"><ele>263.6</ele><time>2011-05-07T11:32:36Z</time></trkpt>
<trkpt lat="42.309617" lon="3.231712"><ele>263.6</ele><time>2011-05-07T11:32:41Z</time></trkpt>
<trkpt lat="42.309617" lon="3.231713"><ele>263.6</ele><time>2011-05-07T11:32:46Z</time></trkpt>
<trkpt lat="42.309617" lon="3.231715"><ele>263.6</ele><time>2011-05-07T11:32:51Z</time></trkpt>
<trkpt lat="42.309617" lon="3.231715"><ele>263.6</ele><time>2011-05-07T11:32:56Z</time></trkpt>
<trkpt lat="42.309617" lon="3.231715"><ele>263.7</ele><time>2011-05-07T11:33:01Z</time></trkpt>
<trkpt lat="42.309617" lon="3.231713"><ele>263.7</ele><time>2011-05-07T11:33:06Z</time></trkpt>
<trkpt lat="42.309620" lon="3.231713"><ele>263.7</ele><time>2011-05-07T11:33:11Z</time></trkpt>
<trkpt lat="42.309620" lon="3.231713"><ele>263.7</ele><time>2011-05-07T11:33:16Z</time></trkpt>
<trkpt lat="42.309620" lon="3.231715"><ele>263.7</ele><time>2011-05-07T11:33:21Z</time></trkpt>
<trkpt lat="42.309620" lon="3.231715"><ele>263.8</ele><time>2011-05-07T11:33:26Z</time></trkpt>
<trkpt lat="42.309620" lon="3.231713"><ele>263.8</ele><time>2011-05-07T11:33:31Z</time></trkpt>
<trkpt lat="42.309620" lon="3.231713"><ele>263.8</ele><time>2011-05-07T11:33:36Z</time></trkpt>
<trkpt lat="42.309620" lon="3.231712"><ele>263.8</ele><time>2011-05-07T11:33:41Z</time></trkpt>
<trkpt lat="42.309620" lon="3.231712"><ele>263.7</ele><time>2011-05-07T11:33:46Z</time></trkpt>
<trkpt lat="42.309620" lon="3.231712"><ele>263.7</ele><time>2011-05-07T11:33:51Z</time></trkpt>
<trkpt lat="42.309617" lon="3.231710"><ele>263.7</ele><time>2011-05-07T11:33:56Z</time></trkpt>
<trkpt lat="42.309617" lon="3.231712"><ele>263.6</ele><time>2011-05-07T11:34:01Z</time></trkpt>
<trkpt lat="42.309612" lon="3.231712"><ele>263.6</ele><time>2011-05-07T11:34:06Z</time></trkpt>
<trkpt lat="42.309612" lon="3.231712"><ele>263.6</ele><time>2011-05-07T11:34:11Z</time></trkpt>
<trkpt lat="42.309612" lon="3.231712"><ele>263.6</ele><time>2011-05-07T11:34:16Z</time></trkpt>
<trkpt lat="42.309612" lon="3.231712"><ele>263.6</ele><time>2011-05-07T11:34:21Z</time></trkpt>
<trkpt lat="42.309612" lon="3.231712"><ele>263.6</ele><time>2011-05-07T11:34:26Z</time></trkpt>
<trkpt lat="42.309612" lon="3.231710"><ele>263.5</ele><time>2011-05-07T11:34:31Z</time></trkpt>
<trkpt lat="42.309612" lon="3.231712"><ele>263.5</ele><time>2011-05-07T11:34:36Z</time></trkpt>
<trkpt lat="42.309612" lon="3.231710"><ele>263.5</ele><time>2011-05-07T11:34:41Z</time></trkpt>
<trkpt lat="42.309612" lon="3.231712"><ele>263.5</ele><time>2011-05-07T11:34:46Z</time></trkpt>
<trkpt lat="42.309612" lon="3.231712"><ele>263.5</ele><time>2011-05-07T11:34:51Z</time></trkpt>
<trkpt lat="42.309612" lon="3.231710"><ele>263.5</ele><time>2011-05-07T11:34:56Z</time></trkpt>
<trkpt lat="42.309612" lon="3.231712"><ele>263.5</ele><time>2011-05-07T11:35:01Z</time></trkpt>
<trkpt lat="42.309605" lon="3.231708"><ele>263.7</ele><time>2011-05-07T11:35:06Z</time></trkpt>
<trkpt lat="42.309582" lon="3.231732"><ele>264.1</ele><time>2011-05-07T11:35:11Z</time></trkpt>
<trkpt lat="42.309510" lon="3.231822"><ele>264.5</ele><time>2011-05-07T11:35:16Z</time></trkpt>
<trkpt lat="42.309452" lon="3.231978"><ele>265.2</ele><time>2011-05-07T11:35:21Z</time></trkpt>
<trkpt lat="42.309418" lon="3.232152"><ele>266.1</ele><time>2011-05-07T11:35:26Z</time></trkpt>
<trkpt lat="42.309395" lon="3.232332"><ele>266.9</ele><time>2011-05-07T11:35:31Z</time></trkpt>
<trkpt lat="42.309380" lon="3.232503"><ele>267.8</ele><time>2011-05-07T11:35:36Z</time></trkpt>
<trkpt lat="42.309357" lon="3.232653"><ele>268.7</ele><time>2011-05-07T11:35:41Z</time></trkpt>
<trkpt lat="42.309333" lon="3.232793"><ele>269.7</ele><time>2011-05-07T11:35:46Z</time></trkpt>
<trkpt lat="42.309303" lon="3.232917"><ele>270.8</ele><time>2011-05-07T11:35:51Z</time></trkpt>
<trkpt lat="42.309262" lon="3.233042"><ele>272.2</ele><time>2011-05-07T11:35:56Z</time></trkpt>
<trkpt lat="42.309227" lon="3.233170"><ele>273.4</ele><time>2011-05-07T11:36:01Z</time></trkpt>
<trkpt lat="42.309193" lon="3.233297"><ele>274.6</ele><time>2011-05-07T11:36:06Z</time></trkpt>
<trkpt lat="42.309182" lon="3.233423"><ele>275.8</ele><time>2011-05-07T11:36:11Z</time></trkpt>
<trkpt lat="42.309177" lon="3.233545"><ele>276.9</ele><time>2011-05-07T11:36:16Z</time></trkpt>
<trkpt lat="42.309182" lon="3.233665"><ele>277.9</ele><time>2011-05-07T11:36:21Z</time></trkpt>
<trkpt lat="42.309188" lon="3.233763"><ele>278.9</ele><time>2011-05-07T11:36:26Z</time></trkpt>
<trkpt lat="42.309212" lon="3.233867"><ele>279.9</ele><time>2011-05-07T11:36:31Z</time></trkpt>
<trkpt lat="42.309215" lon="3.233983"><ele>280.8</ele><time>2011-05-07T11:36:36Z</time></trkpt>
<trkpt lat="42.309220" lon="3.234095"><ele>281.6</ele><time>2011-05-07T11:36:41Z</time></trkpt>
<trkpt lat="42.309215" lon="3.234213"><ele>282.3</ele><time>2011-05-07T11:36:46Z</time></trkpt>
<trkpt lat="42.309203" lon="3.234350"><ele>282.9</ele><time>2011-05-07T11:36:51Z</time></trkpt>
<trkpt lat="42.309173" lon="3.234480"><ele>283.5</ele><time>2011-05-07T11:36:56Z</time></trkpt>
<trkpt lat="42.309132" lon="3.234593"><ele>284.1</ele><time>2011-05-07T11:37:01Z</time></trkpt>
<trkpt lat="42.309097" lon="3.234715"><ele>284.7</ele><time>2011-05-07T11:37:06Z</time></trkpt>
<trkpt lat="42.309063" lon="3.234833"><ele>285.4</ele><time>2011-05-07T11:37:11Z</time></trkpt>
<trkpt lat="42.309048" lon="3.234953"><ele>286.5</ele><time>2011-05-07T11:37:16Z</time></trkpt>
<trkpt lat="42.309022" lon="3.235055"><ele>287.9</ele><time>2011-05-07T11:37:21Z</time></trkpt>
<trkpt lat="42.308995" lon="3.235162"><ele>289.2</ele><time>2011-05-07T11:37:26Z</time></trkpt>
<trkpt lat="42.308960" lon="3.235258"><ele>290.5</ele><time>2011-05-07T11:37:31Z</time></trkpt>
<trkpt lat="42.308918" lon="3.235350"><ele>291.8</ele><time>2011-05-07T11:37:36Z</time></trkpt>
<trkpt lat="42.308892" lon="3.235455"><ele>292.8</ele><time>2011-05-07T11:37:41Z</time></trkpt>
<trkpt lat="42.308853" lon="3.235550"><ele>293.9</ele><time>2011-05-07T11:37:46Z</time></trkpt>
<trkpt lat="42.308807" lon="3.235645"><ele>294.8</ele><time>2011-05-07T11:37:51Z</time></trkpt>
<trkpt lat="42.308735" lon="3.235693"><ele>295.4</ele><time>2011-05-07T11:37:56Z</time></trkpt>
<trkpt lat="42.308635" lon="3.235702"><ele>295.8</ele><time>2011-05-07T11:38:01Z</time></trkpt>
<trkpt lat="42.308525" lon="3.235727"><ele>295.9</ele><time>2011-05-07T11:38:06Z</time></trkpt>
<trkpt lat="42.308383" lon="3.235790"><ele>295.3</ele><time>2011-05-07T11:38:11Z</time></trkpt>
<trkpt lat="42.308193" lon="3.235910"><ele>294.1</ele><time>2011-05-07T11:38:16Z</time></trkpt>
<trkpt lat="42.307992" lon="3.236105"><ele>292.4</ele><time>2011-05-07T11:38:21Z</time></trkpt>
<trkpt lat="42.307788" lon="3.236337"><ele>290.7</ele><time>2011-05-07T11:38:26Z</time></trkpt>
<trkpt lat="42.307598" lon="3.236562"><ele>289.5</ele><time>2011-05-07T11:38:31Z</time></trkpt>
<trkpt lat="42.307423" lon="3.236762"><ele>288.9</ele><time>2011-05-07T11:38:36Z</time></trkpt>
<trkpt lat="42.307240" lon="3.236942"><ele>289</ele><time>2011-05-07T11:38:41Z</time></trkpt>
<trkpt lat="42.307072" lon="3.237125"><ele>289.5</ele><time>2011-05-07T11:38:46Z</time></trkpt>
<trkpt lat="42.306882" lon="3.237280"><ele>290.2</ele><time>2011-05-07T11:38:51Z</time></trkpt>
<trkpt lat="42.306660" lon="3.237380"><ele>290.3</ele><time>2011-05-07T11:38:56Z</time></trkpt>
<trkpt lat="42.306458" lon="3.237548"><ele>291</ele><time>2011-05-07T11:39:01Z</time></trkpt>
<trkpt lat="42.306290" lon="3.237795"><ele>291.2</ele><time>2011-05-07T11:39:06Z</time></trkpt>
<trkpt lat="42.306148" lon="3.237988"><ele>290.3</ele><time>2011-05-07T11:39:11Z</time></trkpt>
<trkpt lat="42.306027" lon="3.237872"><ele>291</ele><time>2011-05-07T11:39:16Z</time></trkpt>
<trkpt lat="42.305950" lon="3.237682"><ele>292</ele><time>2011-05-07T11:39:21Z</time></trkpt>
<trkpt lat="42.305813" lon="3.237517"><ele>291.8</ele><time>2011-05-07T11:39:26Z</time></trkpt>
<trkpt lat="42.305630" lon="3.237418"><ele>291.6</ele><time>2011-05-07T11:39:31Z</time></trkpt>
<trkpt lat="42.305500" lon="3.237237"><ele>291.9</ele><time>2011-05-07T11:39:36Z</time></trkpt>
<trkpt lat="42.305553" lon="3.236980"><ele>292.4</ele><time>2011-05-07T11:39:41Z</time></trkpt>
<trkpt lat="42.305637" lon="3.236720"><ele>292.1</ele><time>2011-05-07T11:39:46Z</time></trkpt>
<trkpt lat="42.305772" lon="3.236440"><ele>291.5</ele><time>2011-05-07T11:39:51Z</time></trkpt>
<trkpt lat="42.305905" lon="3.236157"><ele>291.1</ele><time>2011-05-07T11:39:56Z</time></trkpt>
<trkpt lat="42.306027" lon="3.235883"><ele>290.5</ele><time>2011-05-07T11:40:01Z</time></trkpt>
<trkpt lat="42.306027" lon="3.235632"><ele>289.4</ele><time>2011-05-07T11:40:06Z</time></trkpt>
<trkpt lat="42.305840" lon="3.235788"><ele>288.3</ele><time>2011-05-07T11:40:11Z</time></trkpt>
<trkpt lat="42.305615" lon="3.236002"><ele>286.9</ele><time>2011-05-07T11:40:16Z</time></trkpt>
<trkpt lat="42.305367" lon="3.236263"><ele>284.6</ele><time>2011-05-07T11:40:21Z</time></trkpt>
<trkpt lat="42.305153" lon="3.236645"><ele>281.3</ele><time>2011-05-07T11:40:26Z</time></trkpt>
<trkpt lat="42.304988" lon="3.237092"><ele>278.3</ele><time>2011-05-07T11:40:31Z</time></trkpt>
<trkpt lat="42.304733" lon="3.237388"><ele>276.8</ele><time>2011-05-07T11:40:36Z</time></trkpt>
<trkpt lat="42.304543" lon="3.237703"><ele>274.9</ele><time>2011-05-07T11:40:41Z</time></trkpt>
<trkpt lat="42.304367" lon="3.237892"><ele>273.1</ele><time>2011-05-07T11:40:46Z</time></trkpt>
<trkpt lat="42.304275" lon="3.237617"><ele>273.5</ele><time>2011-05-07T11:40:51Z</time></trkpt>
<trkpt lat="42.304295" lon="3.237243"><ele>273.8</ele><time>2011-05-07T11:40:56Z</time></trkpt>
<trkpt lat="42.304363" lon="3.236888"><ele>275.1</ele><time>2011-05-07T11:41:01Z</time></trkpt>
<trkpt lat="42.304337" lon="3.236613"><ele>276.7</ele><time>2011-05-07T11:41:06Z</time></trkpt>
<trkpt lat="42.304145" lon="3.236508"><ele>277.1</ele><time>2011-05-07T11:41:11Z</time></trkpt>
<trkpt lat="42.303947" lon="3.236630"><ele>277.6</ele><time>2011-05-07T11:41:16Z</time></trkpt>
<trkpt lat="42.303792" lon="3.236813"><ele>278.5</ele><time>2011-05-07T11:41:21Z</time></trkpt>
<trkpt lat="42.303662" lon="3.237020"><ele>279</ele><time>2011-05-07T11:41:26Z</time></trkpt>
<trkpt lat="42.303547" lon="3.237250"><ele>279</ele><time>2011-05-07T11:41:31Z</time></trkpt>
<trkpt lat="42.303422" lon="3.237463"><ele>279.2</ele><time>2011-05-07T11:41:36Z</time></trkpt>
<trkpt lat="42.303298" lon="3.237625"><ele>279.8</ele><time>2011-05-07T11:41:41Z</time></trkpt>
<trkpt lat="42.303180" lon="3.237630"><ele>280.3</ele><time>2011-05-07T11:41:46Z</time></trkpt>
<trkpt lat="42.303197" lon="3.237443"><ele>281.4</ele><time>2011-05-07T11:41:51Z</time></trkpt>
<trkpt lat="42.303238" lon="3.237230"><ele>281.9</ele><time>2011-05-07T11:41:56Z</time></trkpt>
<trkpt lat="42.303238" lon="3.237002"><ele>282.4</ele><time>2011-05-07T11:42:01Z</time></trkpt>
<trkpt lat="42.303227" lon="3.236748"><ele>282.7</ele><time>2011-05-07T11:42:06Z</time></trkpt>
<trkpt lat="42.303200" lon="3.236498"><ele>283.3</ele><time>2011-05-07T11:42:11Z</time></trkpt>
<trkpt lat="42.303123" lon="3.236263"><ele>283.9</ele><time>2011-05-07T11:42:16Z</time></trkpt>
<trkpt lat="42.302982" lon="3.236160"><ele>284.5</ele><time>2011-05-07T11:42:21Z</time></trkpt>
<trkpt lat="42.302795" lon="3.236157"><ele>284.5</ele><time>2011-05-07T11:42:26Z</time></trkpt>
<trkpt lat="42.302605" lon="3.236222"><ele>284</ele><time>2011-05-07T11:42:31Z</time></trkpt>
<trkpt lat="42.302410" lon="3.236303"><ele>283.2</ele><time>2011-05-07T11:42:36Z</time></trkpt>
<trkpt lat="42.302238" lon="3.236395"><ele>284.2</ele><time>2011-05-07T11:42:41Z</time></trkpt>
<trkpt lat="42.302158" lon="3.236477"><ele>285.7</ele><time>2011-05-07T11:42:46Z</time></trkpt>
<trkpt lat="42.302097" lon="3.236547"><ele>286.9</ele><time>2011-05-07T11:42:51Z</time></trkpt>
<trkpt lat="42.302037" lon="3.236612"><ele>288.1</ele><time>2011-05-07T11:42:56Z</time></trkpt>
<trkpt lat="42.301968" lon="3.236668"><ele>289.4</ele><time>2011-05-07T11:43:01Z</time></trkpt>
<trkpt lat="42.301898" lon="3.236723"><ele>290.9</ele><time>2011-05-07T11:43:06Z</time></trkpt>
<trkpt lat="42.301827" lon="3.236777"><ele>292</ele><time>2011-05-07T11:43:11Z</time></trkpt>
<trkpt lat="42.301758" lon="3.236832"><ele>292.9</ele><time>2011-05-07T11:43:16Z</time></trkpt>
<trkpt lat="42.301685" lon="3.236875"><ele>294.1</ele><time>2011-05-07T11:43:21Z</time></trkpt>
<trkpt lat="42.301608" lon="3.236922"><ele>294.9</ele><time>2011-05-07T11:43:26Z</time></trkpt>
<trkpt lat="42.301537" lon="3.236965"><ele>295.4</ele><time>2011-05-07T11:43:31Z</time></trkpt>
<trkpt lat="42.301463" lon="3.237007"><ele>295.9</ele><time>2011-05-07T11:43:36Z</time></trkpt>
<trkpt lat="42.301380" lon="3.237058"><ele>296.4</ele><time>2011-05-07T11:43:41Z</time></trkpt>
<trkpt lat="42.301303" lon="3.237122"><ele>296.9</ele><time>2011-05-07T11:43:46Z</time></trkpt>
<trkpt lat="42.301232" lon="3.237200"><ele>297.2</ele><time>2011-05-07T11:43:51Z</time></trkpt>
<trkpt lat="42.301155" lon="3.237280"><ele>297.6</ele><time>2011-05-07T11:43:56Z</time></trkpt>
<trkpt lat="42.301067" lon="3.237370"><ele>298</ele><time>2011-05-07T11:44:01Z</time></trkpt>
<trkpt lat="42.300975" lon="3.237463"><ele>298.3</ele><time>2011-05-07T11:44:06Z</time></trkpt>
<trkpt lat="42.300877" lon="3.237557"><ele>298.6</ele><time>2011-05-07T11:44:11Z</time></trkpt>
<trkpt lat="42.300770" lon="3.237645"><ele>299</ele><time>2011-05-07T11:44:16Z</time></trkpt>
<trkpt lat="42.300652" lon="3.237723"><ele>299.3</ele><time>2011-05-07T11:44:21Z</time></trkpt>
<trkpt lat="42.300503" lon="3.237737"><ele>299.9</ele><time>2011-05-07T11:44:26Z</time></trkpt>
<trkpt lat="42.300343" lon="3.237672"><ele>300.4</ele><time>2011-05-07T11:44:31Z</time></trkpt>
<trkpt lat="42.300152" lon="3.237660"><ele>300.7</ele><time>2011-05-07T11:44:36Z</time></trkpt>
<trkpt lat="42.299953" lon="3.237715"><ele>301</ele><time>2011-05-07T11:44:41Z</time></trkpt>
<trkpt lat="42.299747" lon="3.237800"><ele>301.1</ele><time>2011-05-07T11:44:46Z</time></trkpt>
<trkpt lat="42.299527" lon="3.237912"><ele>301</ele><time>2011-05-07T11:44:51Z</time></trkpt>
<trkpt lat="42.299320" lon="3.238140"><ele>300</ele><time>2011-05-07T11:44:56Z</time></trkpt>
<trkpt lat="42.299178" lon="3.238475"><ele>298.3</ele><time>2011-05-07T11:45:01Z</time></trkpt>
<trkpt lat="42.299110" lon="3.238863"><ele>297</ele><time>2011-05-07T11:45:06Z</time></trkpt>
<trkpt lat="42.299137" lon="3.239298"><ele>295.8</ele><time>2011-05-07T11:45:11Z</time></trkpt>
<trkpt lat="42.299248" lon="3.239770"><ele>293</ele><time>2011-05-07T11:45:16Z</time></trkpt>
<trkpt lat="42.299217" lon="3.240328"><ele>289</ele><time>2011-05-07T11:45:21Z</time></trkpt>
<trkpt lat="42.299083" lon="3.240873"><ele>285.7</ele><time>2011-05-07T11:45:26Z</time></trkpt>
<trkpt lat="42.298855" lon="3.240960"><ele>283.5</ele><time>2011-05-07T11:45:31Z</time></trkpt>
<trkpt lat="42.298722" lon="3.240535"><ele>280.9</ele><time>2011-05-07T11:45:36Z</time></trkpt>
<trkpt lat="42.298473" lon="3.240058"><ele>277.2</ele><time>2011-05-07T11:45:41Z</time></trkpt>
<trkpt lat="42.298180" lon="3.239550"><ele>273.7</ele><time>2011-05-07T11:45:46Z</time></trkpt>
<trkpt lat="42.297935" lon="3.238988"><ele>270.9</ele><time>2011-05-07T11:45:51Z</time></trkpt>
<trkpt lat="42.297677" lon="3.238500"><ele>268.3</ele><time>2011-05-07T11:45:56Z</time></trkpt>
<trkpt lat="42.297333" lon="3.238070"><ele>264</ele><time>2011-05-07T11:46:01Z</time></trkpt>
<trkpt lat="42.297058" lon="3.237523"><ele>259.9</ele><time>2011-05-07T11:46:06Z</time></trkpt>
<trkpt lat="42.296787" lon="3.237222"><ele>256.7</ele><time>2011-05-07T11:46:11Z</time></trkpt>
<trkpt lat="42.296540" lon="3.237228"><ele>253.1</ele><time>2011-05-07T11:46:16Z</time></trkpt>
<trkpt lat="42.296638" lon="3.236880"><ele>249.8</ele><time>2011-05-07T11:46:21Z</time></trkpt>
<trkpt lat="42.296852" lon="3.236682"><ele>246.8</ele><time>2011-05-07T11:46:26Z</time></trkpt>
<trkpt lat="42.296905" lon="3.236595"><ele>246.1</ele><time>2011-05-07T11:46:31Z</time></trkpt>
<trkpt lat="42.296863" lon="3.236387"><ele>247.1</ele><time>2011-05-07T11:46:36Z</time></trkpt>
<trkpt lat="42.296712" lon="3.236245"><ele>248.3</ele><time>2011-05-07T11:46:41Z</time></trkpt>
<trkpt lat="42.296582" lon="3.236513"><ele>248.7</ele><time>2011-05-07T11:46:46Z</time></trkpt>
<trkpt lat="42.296478" lon="3.236857"><ele>249.1</ele><time>2011-05-07T11:46:51Z</time></trkpt>
<trkpt lat="42.296345" lon="3.237045"><ele>250.1</ele><time>2011-05-07T11:46:56Z</time></trkpt>
<trkpt lat="42.296292" lon="3.237057"><ele>250.5</ele><time>2011-05-07T11:47:01Z</time></trkpt>
<trkpt lat="42.296295" lon="3.237053"><ele>250.3</ele><time>2011-05-07T11:47:06Z</time></trkpt>
<trkpt lat="42.296288" lon="3.237060"><ele>250.2</ele><time>2011-05-07T11:47:11Z</time></trkpt>
<trkpt lat="42.296288" lon="3.237060"><ele>250.3</ele><time>2011-05-07T11:47:16Z</time></trkpt>
<trkpt lat="42.296288" lon="3.237058"><ele>250.3</ele><time>2011-05-07T11:47:21Z</time></trkpt>
<trkpt lat="42.296280" lon="3.237077"><ele>250.2</ele><time>2011-05-07T11:47:26Z</time></trkpt>
<trkpt lat="42.296233" lon="3.237087"><ele>250.3</ele><time>2011-05-07T11:47:31Z</time></trkpt>
<trkpt lat="42.296233" lon="3.237093"><ele>250.2</ele><time>2011-05-07T11:47:36Z</time></trkpt>
<trkpt lat="42.296230" lon="3.237097"><ele>250.1</ele><time>2011-05-07T11:47:41Z</time></trkpt>
<trkpt lat="42.296227" lon="3.237100"><ele>250.1</ele><time>2011-05-07T11:47:46Z</time></trkpt>
<trkpt lat="42.296230" lon="3.237102"><ele>249.4</ele><time>2011-05-07T11:47:51Z</time></trkpt>
<trkpt lat="42.296230" lon="3.237102"><ele>249.3</ele><time>2011-05-07T11:47:56Z</time></trkpt>
<trkpt lat="42.296242" lon="3.237090"><ele>249.2</ele><time>2011-05-07T11:48:01Z</time></trkpt>
<trkpt lat="42.296242" lon="3.237090"><ele>249.2</ele><time>2011-05-07T11:48:06Z</time></trkpt>
<trkpt lat="42.296242" lon="3.237092"><ele>249.2</ele><time>2011-05-07T11:48:11Z</time></trkpt>
<trkpt lat="42.296242" lon="3.237092"><ele>249.2</ele><time>2011-05-07T11:48:16Z</time></trkpt>
<trkpt lat="42.296242" lon="3.237093"><ele>249.3</ele><time>2011-05-07T11:48:21Z</time></trkpt>
<trkpt lat="42.296242" lon="3.237095"><ele>249.3</ele><time>2011-05-07T11:48:26Z</time></trkpt>
<trkpt lat="42.296230" lon="3.237100"><ele>249.8</ele><time>2011-05-07T11:48:31Z</time></trkpt>
<trkpt lat="42.296150" lon="3.237090"><ele>249.5</ele><time>2011-05-07T11:48:36Z</time></trkpt>
<trkpt lat="42.296017" lon="3.237157"><ele>247.8</ele><time>2011-05-07T11:48:41Z</time></trkpt>
<trkpt lat="42.295857" lon="3.237195"><ele>244.7</ele><time>2011-05-07T11:48:46Z</time></trkpt>
<trkpt lat="42.295688" lon="3.237215"><ele>241.2</ele><time>2011-05-07T11:48:51Z</time></trkpt>
<trkpt lat="42.295655" lon="3.237450"><ele>241</ele><time>2011-05-07T11:48:56Z</time></trkpt>
<trkpt lat="42.295727" lon="3.237638"><ele>241.1</ele><time>2011-05-07T11:49:01Z</time></trkpt>
<trkpt lat="42.295788" lon="3.237815"><ele>240.6</ele><time>2011-05-07T11:49:06Z</time></trkpt>
<trkpt lat="42.295845" lon="3.237990"><ele>240.2</ele><time>2011-05-07T11:49:11Z</time></trkpt>
<trkpt lat="42.295913" lon="3.238242"><ele>239.1</ele><time>2011-05-07T11:49:16Z</time></trkpt>
<trkpt lat="42.295993" lon="3.238605"><ele>236.7</ele><time>2011-05-07T11:49:21Z</time></trkpt>
<trkpt lat="42.296013" lon="3.239028"><ele>235.8</ele><time>2011-05-07T11:49:26Z</time></trkpt>
<trkpt lat="42.295925" lon="3.239393"><ele>234.3</ele><time>2011-05-07T11:49:31Z</time></trkpt>
<trkpt lat="42.295792" lon="3.239797"><ele>231.4</ele><time>2011-05-07T11:49:36Z</time></trkpt>
<trkpt lat="42.295685" lon="3.240237"><ele>229.4</ele><time>2011-05-07T11:49:41Z</time></trkpt>
<trkpt lat="42.295718" lon="3.240605"><ele>227.6</ele><time>2011-05-07T11:49:46Z</time></trkpt>
<trkpt lat="42.295593" lon="3.240988"><ele>225</ele><time>2011-05-07T11:49:51Z</time></trkpt>
<trkpt lat="42.295395" lon="3.241313"><ele>222.7</ele><time>2011-05-07T11:49:56Z</time></trkpt>
<trkpt lat="42.295203" lon="3.241638"><ele>221.5</ele><time>2011-05-07T11:50:01Z</time></trkpt>
<trkpt lat="42.295037" lon="3.241932"><ele>220.2</ele><time>2011-05-07T11:50:06Z</time></trkpt>
<trkpt lat="42.294850" lon="3.242243"><ele>217.2</ele><time>2011-05-07T11:50:11Z</time></trkpt>
<trkpt lat="42.294800" lon="3.242685"><ele>215.7</ele><time>2011-05-07T11:50:16Z</time></trkpt>
<trkpt lat="42.294747" lon="3.243113"><ele>213.3</ele><time>2011-05-07T11:50:21Z</time></trkpt>
<trkpt lat="42.294647" lon="3.243518"><ele>210.1</ele><time>2011-05-07T11:50:26Z</time></trkpt>
<trkpt lat="42.294442" lon="3.243868"><ele>208.1</ele><time>2011-05-07T11:50:31Z</time></trkpt>
<trkpt lat="42.294238" lon="3.244170"><ele>207.3</ele><time>2011-05-07T11:50:36Z</time></trkpt>
<trkpt lat="42.294030" lon="3.244437"><ele>206.7</ele><time>2011-05-07T11:50:41Z</time></trkpt>
<trkpt lat="42.293815" lon="3.244618"><ele>206.9</ele><time>2011-05-07T11:50:46Z</time></trkpt>
<trkpt lat="42.293788" lon="3.244988"><ele>206.6</ele><time>2011-05-07T11:50:51Z</time></trkpt>
<trkpt lat="42.293682" lon="3.245378"><ele>205.8</ele><time>2011-05-07T11:50:56Z</time></trkpt>
<trkpt lat="42.293533" lon="3.245682"><ele>204.4</ele><time>2011-05-07T11:51:01Z</time></trkpt>
<trkpt lat="42.293290" lon="3.245908"><ele>202.6</ele><time>2011-05-07T11:51:06Z</time></trkpt>
<trkpt lat="42.293407" lon="3.246217"><ele>200.8</ele><time>2011-05-07T11:51:11Z</time></trkpt>
<trkpt lat="42.293498" lon="3.246598"><ele>200</ele><time>2011-05-07T11:51:16Z</time></trkpt>
<trkpt lat="42.293362" lon="3.246992"><ele>198.6</ele><time>2011-05-07T11:51:21Z</time></trkpt>
<trkpt lat="42.293172" lon="3.247370"><ele>195.8</ele><time>2011-05-07T11:51:26Z</time></trkpt>
<trkpt lat="42.292962" lon="3.247737"><ele>193.9</ele><time>2011-05-07T11:51:31Z</time></trkpt>
<trkpt lat="42.292770" lon="3.248095"><ele>192.2</ele><time>2011-05-07T11:51:36Z</time></trkpt>
<trkpt lat="42.292587" lon="3.248398"><ele>191.2</ele><time>2011-05-07T11:51:41Z</time></trkpt>
<trkpt lat="42.292420" lon="3.248538"><ele>189.8</ele><time>2011-05-07T11:51:46Z</time></trkpt>
<trkpt lat="42.292367" lon="3.248562"><ele>189</ele><time>2011-05-07T11:51:51Z</time></trkpt>
<trkpt lat="42.292157" lon="3.248742"><ele>184.3</ele><time>2011-05-07T11:51:56Z</time></trkpt>
<trkpt lat="42.292003" lon="3.249007"><ele>178.4</ele><time>2011-05-07T11:52:01Z</time></trkpt>
<trkpt lat="42.291962" lon="3.249413"><ele>171.6</ele><time>2011-05-07T11:52:06Z</time></trkpt>
<trkpt lat="42.291943" lon="3.249850"><ele>167.9</ele><time>2011-05-07T11:52:11Z</time></trkpt>
<trkpt lat="42.292027" lon="3.250237"><ele>165.9</ele><time>2011-05-07T11:52:16Z</time></trkpt>
<trkpt lat="42.292133" lon="3.250607"><ele>160.7</ele><time>2011-05-07T11:52:21Z</time></trkpt>
<trkpt lat="42.292198" lon="3.250973"><ele>159.3</ele><time>2011-05-07T11:52:26Z</time></trkpt>
<trkpt lat="42.292160" lon="3.251280"><ele>158.5</ele><time>2011-05-07T11:52:31Z</time></trkpt>
<trkpt lat="42.292023" lon="3.251585"><ele>157.2</ele><time>2011-05-07T11:52:36Z</time></trkpt>
<trkpt lat="42.291867" lon="3.251890"><ele>154.4</ele><time>2011-05-07T11:52:41Z</time></trkpt>
<trkpt lat="42.291748" lon="3.252208"><ele>150.2</ele><time>2011-05-07T11:52:46Z</time></trkpt>
<trkpt lat="42.291683" lon="3.252575"><ele>144.9</ele><time>2011-05-07T11:52:51Z</time></trkpt>
<trkpt lat="42.291630" lon="3.252982"><ele>140.8</ele><time>2011-05-07T11:52:56Z</time></trkpt>
<trkpt lat="42.291553" lon="3.253355"><ele>138.8</ele><time>2011-05-07T11:53:01Z</time></trkpt>
<trkpt lat="42.291408" lon="3.253608"><ele>134.8</ele><time>2011-05-07T11:53:06Z</time></trkpt>
<trkpt lat="42.291252" lon="3.253867"><ele>129.9</ele><time>2011-05-07T11:53:11Z</time></trkpt>
<trkpt lat="42.291080" lon="3.254205"><ele>127.9</ele><time>2011-05-07T11:53:16Z</time></trkpt>
<trkpt lat="42.290837" lon="3.254348"><ele>126.1</ele><time>2011-05-07T11:53:21Z</time></trkpt>
<trkpt lat="42.290558" lon="3.254458"><ele>123.5</ele><time>2011-05-07T11:53:26Z</time></trkpt>
<trkpt lat="42.290348" lon="3.254692"><ele>120.9</ele><time>2011-05-07T11:53:31Z</time></trkpt>
<trkpt lat="42.290215" lon="3.254985"><ele>117.8</ele><time>2011-05-07T11:53:36Z</time></trkpt>
<trkpt lat="42.290135" lon="3.255163"><ele>115.4</ele><time>2011-05-07T11:53:41Z</time></trkpt>
<trkpt lat="42.290077" lon="3.255547"><ele>112</ele><time>2011-05-07T11:53:46Z</time></trkpt>
<trkpt lat="42.290123" lon="3.255943"><ele>111.6</ele><time>2011-05-07T11:53:51Z</time></trkpt>
<trkpt lat="42.290180" lon="3.256218"><ele>112.5</ele><time>2011-05-07T11:53:56Z</time></trkpt>
<trkpt lat="42.290257" lon="3.256480"><ele>112.2</ele><time>2011-05-07T11:54:01Z</time></trkpt>
<trkpt lat="42.290443" lon="3.256765"><ele>111.1</ele><time>2011-05-07T11:54:06Z</time></trkpt>
<trkpt lat="42.290627" lon="3.257060"><ele>109.3</ele><time>2011-05-07T11:54:11Z</time></trkpt>
<trkpt lat="42.290795" lon="3.257417"><ele>107.5</ele><time>2011-05-07T11:54:16Z</time></trkpt>
<trkpt lat="42.290920" lon="3.257772"><ele>106.8</ele><time>2011-05-07T11:54:21Z</time></trkpt>
<trkpt lat="42.291062" lon="3.258103"><ele>106</ele><time>2011-05-07T11:54:26Z</time></trkpt>
<trkpt lat="42.291225" lon="3.258430"><ele>105.5</ele><time>2011-05-07T11:54:31Z</time></trkpt>
<trkpt lat="42.291450" lon="3.258688"><ele>103.3</ele><time>2011-05-07T11:54:36Z</time></trkpt>
<trkpt lat="42.291550" lon="3.259048"><ele>102.2</ele><time>2011-05-07T11:54:41Z</time></trkpt>
<trkpt lat="42.291500" lon="3.259447"><ele>99.3</ele><time>2011-05-07T11:54:46Z</time></trkpt>
<trkpt lat="42.291417" lon="3.259780"><ele>96</ele><time>2011-05-07T11:54:51Z</time></trkpt>
<trkpt lat="42.291237" lon="3.260068"><ele>93</ele><time>2011-05-07T11:54:56Z</time></trkpt>
<trkpt lat="42.291047" lon="3.260323"><ele>91.2</ele><time>2011-05-07T11:55:01Z</time></trkpt>
<trkpt lat="42.290897" lon="3.260485"><ele>89.4</ele><time>2011-05-07T11:55:06Z</time></trkpt>
<trkpt lat="42.290707" lon="3.260493"><ele>85.7</ele><time>2011-05-07T11:55:11Z</time></trkpt>
<trkpt lat="42.290618" lon="3.260848"><ele>82.6</ele><time>2011-05-07T11:55:16Z</time></trkpt>
<trkpt lat="42.290580" lon="3.261243"><ele>82</ele><time>2011-05-07T11:55:21Z</time></trkpt>
<trkpt lat="42.290692" lon="3.261583"><ele>83</ele><time>2011-05-07T11:55:26Z</time></trkpt>
<trkpt lat="42.290817" lon="3.261877"><ele>84</ele><time>2011-05-07T11:55:31Z</time></trkpt>
<trkpt lat="42.290893" lon="3.262160"><ele>84.5</ele><time>2011-05-07T11:55:36Z</time></trkpt>
<trkpt lat="42.290958" lon="3.262482"><ele>84.1</ele><time>2011-05-07T11:55:41Z</time></trkpt>
<trkpt lat="42.291012" lon="3.262842"><ele>83.6</ele><time>2011-05-07T11:55:46Z</time></trkpt>
<trkpt lat="42.291047" lon="3.263205"><ele>83.1</ele><time>2011-05-07T11:55:51Z</time></trkpt>
<trkpt lat="42.291020" lon="3.263513"><ele>81.3</ele><time>2011-05-07T11:55:56Z</time></trkpt>
<trkpt lat="42.290902" lon="3.263863"><ele>76.7</ele><time>2011-05-07T11:56:01Z</time></trkpt>
<trkpt lat="42.290772" lon="3.264348"><ele>71.2</ele><time>2011-05-07T11:56:06Z</time></trkpt>
<trkpt lat="42.290725" lon="3.264878"><ele>69.7</ele><time>2011-05-07T11:56:11Z</time></trkpt>
<trkpt lat="42.290730" lon="3.265257"><ele>68.7</ele><time>2011-05-07T11:56:16Z</time></trkpt>
<trkpt lat="42.290638" lon="3.265468"><ele>66.2</ele><time>2011-05-07T11:56:21Z</time></trkpt>
<trkpt lat="42.290478" lon="3.265753"><ele>60.5</ele><time>2011-05-07T11:56:26Z</time></trkpt>
<trkpt lat="42.290230" lon="3.266167"><ele>54.1</ele><time>2011-05-07T11:56:31Z</time></trkpt>
<trkpt lat="42.289997" lon="3.266607"><ele>52.2</ele><time>2011-05-07T11:56:36Z</time></trkpt>
<trkpt lat="42.289845" lon="3.266872"><ele>52</ele><time>2011-05-07T11:56:41Z</time></trkpt>
<trkpt lat="42.289695" lon="3.266940"><ele>50.9</ele><time>2011-05-07T11:56:46Z</time></trkpt>
<trkpt lat="42.289452" lon="3.267182"><ele>45.6</ele><time>2011-05-07T11:56:51Z</time></trkpt>
<trkpt lat="42.289108" lon="3.267488"><ele>40.5</ele><time>2011-05-07T11:56:56Z</time></trkpt>
<trkpt lat="42.288845" lon="3.267823"><ele>35.8</ele><time>2011-05-07T11:57:01Z</time></trkpt>
<trkpt lat="42.288632" lon="3.268085"><ele>31.8</ele><time>2011-05-07T11:57:06Z</time></trkpt>
<trkpt lat="42.288413" lon="3.268373"><ele>26.9</ele><time>2011-05-07T11:57:11Z</time></trkpt>
<trkpt lat="42.288220" lon="3.268727"><ele>22.1</ele><time>2011-05-07T11:57:16Z</time></trkpt>
<trkpt lat="42.288063" lon="3.269090"><ele>19.5</ele><time>2011-05-07T11:57:21Z</time></trkpt>
<trkpt lat="42.288075" lon="3.269428"><ele>19.5</ele><time>2011-05-07T11:57:26Z</time></trkpt>
<trkpt lat="42.288082" lon="3.269762"><ele>20</ele><time>2011-05-07T11:57:31Z</time></trkpt>
<trkpt lat="42.288090" lon="3.270017"><ele>18.6</ele><time>2011-05-07T11:57:36Z</time></trkpt>
<trkpt lat="42.288188" lon="3.270202"><ele>16.1</ele><time>2011-05-07T11:57:41Z</time></trkpt>
<trkpt lat="42.288322" lon="3.270338"><ele>14.2</ele><time>2011-05-07T11:57:46Z</time></trkpt>
<trkpt lat="42.288333" lon="3.270575"><ele>13.8</ele><time>2011-05-07T11:57:51Z</time></trkpt>
<trkpt lat="42.288360" lon="3.270808"><ele>13.8</ele><time>2011-05-07T11:57:56Z</time></trkpt>
<trkpt lat="42.288360" lon="3.271040"><ele>13.6</ele><time>2011-05-07T11:58:01Z</time></trkpt>
<trkpt lat="42.288372" lon="3.271098"><ele>13.3</ele><time>2011-05-07T11:58:06Z</time></trkpt>
<trkpt lat="42.288383" lon="3.271180"><ele>13.3</ele><time>2011-05-07T11:58:11Z</time></trkpt>
<trkpt lat="42.288433" lon="3.271370"><ele>13.1</ele><time>2011-05-07T11:58:16Z</time></trkpt>
<trkpt lat="42.288555" lon="3.271562"><ele>12.7</ele><time>2011-05-07T11:58:21Z</time></trkpt>
<trkpt lat="42.288708" lon="3.271773"><ele>12.4</ele><time>2011-05-07T11:58:26Z</time></trkpt>
<trkpt lat="42.288853" lon="3.271997"><ele>11.9</ele><time>2011-05-07T11:58:31Z</time></trkpt>
<trkpt lat="42.289013" lon="3.272227"><ele>11.6</ele><time>2011-05-07T11:58:36Z</time></trkpt>
<trkpt lat="42.289162" lon="3.272485"><ele>11</ele><time>2011-05-07T11:58:41Z</time></trkpt>
<trkpt lat="42.289283" lon="3.272740"><ele>10.5</ele><time>2011-05-07T11:58:46Z</time></trkpt>
<trkpt lat="42.289383" lon="3.272953"><ele>10.1</ele><time>2011-05-07T11:58:51Z</time></trkpt>
<trkpt lat="42.289383" lon="3.273255"><ele>9.6</ele><time>2011-05-07T11:58:56Z</time></trkpt>
<trkpt lat="42.289352" lon="3.273550"><ele>9.2</ele><time>2011-05-07T11:59:01Z</time></trkpt>
<trkpt lat="42.289325" lon="3.273850"><ele>8.6</ele><time>2011-05-07T11:59:06Z</time></trkpt>
<trkpt lat="42.289295" lon="3.274150"><ele>8.9</ele><time>2011-05-07T11:59:11Z</time></trkpt>
<trkpt lat="42.289272" lon="3.274440"><ele>9.4</ele><time>2011-05-07T11:59:16Z</time></trkpt>
<trkpt lat="42.289242" lon="3.274743"><ele>9</ele><time>2011-05-07T11:59:21Z</time></trkpt>
<trkpt lat="42.289322" lon="3.274833"><ele>9.3</ele><time>2011-05-07T11:59:26Z</time></trkpt>
<trkpt lat="42.289433" lon="3.274653"><ele>10</ele><time>2011-05-07T11:59:31Z</time></trkpt>
<trkpt lat="42.289547" lon="3.274468"><ele>10.1</ele><time>2011-05-07T11:59:36Z</time></trkpt>
<trkpt lat="42.289642" lon="3.274297"><ele>11</ele><time>2011-05-07T11:59:41Z</time></trkpt>
<trkpt lat="42.289792" lon="3.274270"><ele>12.4</ele><time>2011-05-07T11:59:46Z</time></trkpt>
<trkpt lat="42.289955" lon="3.274272"><ele>13.3</ele><time>2011-05-07T11:59:51Z</time></trkpt>
<trkpt lat="42.289993" lon="3.274522"><ele>12.1</ele><time>2011-05-07T11:59:56Z</time></trkpt>
<trkpt lat="42.290043" lon="3.274848"><ele>10.4</ele><time>2011-05-07T12:00:01Z</time></trkpt>
<trkpt lat="42.290073" lon="3.275127"><ele>9.9</ele><time>2011-05-07T12:00:06Z</time></trkpt>
<trkpt lat="42.290065" lon="3.275393"><ele>9</ele><time>2011-05-07T12:00:11Z</time></trkpt>
<trkpt lat="42.290028" lon="3.275662"><ele>9.6</ele><time>2011-05-07T12:00:16Z</time></trkpt>
<trkpt lat="42.290028" lon="3.275912"><ele>10.2</ele><time>2011-05-07T12:00:21Z</time></trkpt>
<trkpt lat="42.290112" lon="3.276057"><ele>11.8</ele><time>2011-05-07T12:00:26Z</time></trkpt>
<trkpt lat="42.290142" lon="3.276162"><ele>13.5</ele><time>2011-05-07T12:00:31Z</time></trkpt>
<trkpt lat="42.290173" lon="3.276268"><ele>15.7</ele><time>2011-05-07T12:00:36Z</time></trkpt>
<trkpt lat="42.290207" lon="3.276370"><ele>18.6</ele><time>2011-05-07T12:00:41Z</time></trkpt>
<trkpt lat="42.290233" lon="3.276470"><ele>21</ele><time>2011-05-07T12:00:46Z</time></trkpt>
<trkpt lat="42.290242" lon="3.276575"><ele>23.4</ele><time>2011-05-07T12:00:51Z</time></trkpt>
<trkpt lat="42.290218" lon="3.276685"><ele>25.5</ele><time>2011-05-07T12:00:56Z</time></trkpt>
<trkpt lat="42.290207" lon="3.276810"><ele>26.5</ele><time>2011-05-07T12:01:01Z</time></trkpt>
<trkpt lat="42.290215" lon="3.276945"><ele>26.6</ele><time>2011-05-07T12:01:06Z</time></trkpt>
<trkpt lat="42.290253" lon="3.277097"><ele>26.2</ele><time>2011-05-07T12:01:11Z</time></trkpt>
<trkpt lat="42.290283" lon="3.277272"><ele>25.3</ele><time>2011-05-07T12:01:16Z</time></trkpt>
<trkpt lat="42.290340" lon="3.277467"><ele>24.9</ele><time>2011-05-07T12:01:21Z</time></trkpt>
<trkpt lat="42.290408" lon="3.277667"><ele>24.6</ele><time>2011-05-07T12:01:26Z</time></trkpt>
<trkpt lat="42.290517" lon="3.277900"><ele>24</ele><time>2011-05-07T12:01:31Z</time></trkpt>
<trkpt lat="42.290662" lon="3.278163"><ele>20.1</ele><time>2011-05-07T12:01:36Z</time></trkpt>
<trkpt lat="42.290837" lon="3.278418"><ele>16.3</ele><time>2011-05-07T12:01:41Z</time></trkpt>
<trkpt lat="42.290867" lon="3.278667"><ele>16.2</ele><time>2011-05-07T12:01:46Z</time></trkpt>
<trkpt lat="42.290745" lon="3.278735"><ele>17.1</ele><time>2011-05-07T12:01:51Z</time></trkpt>
<trkpt lat="42.290642" lon="3.278792"><ele>19.1</ele><time>2011-05-07T12:01:56Z</time></trkpt>
<trkpt lat="42.290527" lon="3.278883"><ele>20.1</ele><time>2011-05-07T12:02:01Z</time></trkpt>
<trkpt lat="42.290440" lon="3.278983"><ele>22.7</ele><time>2011-05-07T12:02:06Z</time></trkpt>
<trkpt lat="42.290333" lon="3.279063"><ele>25.8</ele><time>2011-05-07T12:02:11Z</time></trkpt>
<trkpt lat="42.290215" lon="3.279147"><ele>28</ele><time>2011-05-07T12:02:16Z</time></trkpt>
<trkpt lat="42.290092" lon="3.279218"><ele>30.3</ele><time>2011-05-07T12:02:21Z</time></trkpt>
<trkpt lat="42.289940" lon="3.279267"><ele>32.8</ele><time>2011-05-07T12:02:26Z</time></trkpt>
<trkpt lat="42.289810" lon="3.279370"><ele>32.5</ele><time>2011-05-07T12:02:31Z</time></trkpt>
<trkpt lat="42.289760" lon="3.279408"><ele>29.4</ele><time>2011-05-07T12:02:36Z</time></trkpt>
<trkpt lat="42.289768" lon="3.279398"><ele>25.6</ele><time>2011-05-07T12:02:41Z</time></trkpt>
<trkpt lat="42.289777" lon="3.279418"><ele>23.5</ele><time>2011-05-07T12:02:46Z</time></trkpt>
<trkpt lat="42.289780" lon="3.279442"><ele>22.5</ele><time>2011-05-07T12:02:51Z</time></trkpt>
<trkpt lat="42.289787" lon="3.279488"><ele>23.6</ele><time>2011-05-07T12:02:56Z</time></trkpt>
<trkpt lat="42.289783" lon="3.279467"><ele>24.3</ele><time>2011-05-07T12:03:01Z</time></trkpt>
<trkpt lat="42.289768" lon="3.279430"><ele>27.2</ele><time>2011-05-07T12:03:06Z</time></trkpt>
<trkpt lat="42.289748" lon="3.279440"><ele>30.7</ele><time>2011-05-07T12:03:11Z</time></trkpt>
<trkpt lat="42.289748" lon="3.279463"><ele>31.1</ele><time>2011-05-07T12:03:16Z</time></trkpt>
<trkpt lat="42.289777" lon="3.279547"><ele>32.7</ele><time>2011-05-07T12:03:21Z</time></trkpt>
<trkpt lat="42.289792" lon="3.279488"><ele>26</ele><time>2011-05-07T12:03:26Z</time></trkpt>
<trkpt lat="42.289792" lon="3.279450"><ele>25.6</ele><time>2011-05-07T12:03:31Z</time></trkpt>
<trkpt lat="42.289783" lon="3.279450"><ele>27.4</ele><time>2011-05-07T12:03:36Z</time></trkpt>
<trkpt lat="42.289792" lon="3.279463"><ele>30</ele><time>2011-05-07T12:03:41Z</time></trkpt>
<trkpt lat="42.289780" lon="3.279442"><ele>32.4</ele><time>2011-05-07T12:03:46Z</time></trkpt>
<trkpt lat="42.289753" lon="3.279413"><ele>27</ele><time>2011-05-07T12:03:51Z</time></trkpt>
<trkpt lat="42.289727" lon="3.279398"><ele>17.7</ele><time>2011-05-07T12:03:56Z</time></trkpt>
<trkpt lat="42.289712" lon="3.279357"><ele>13.3</ele><time>2011-05-07T12:04:01Z</time></trkpt>
<trkpt lat="42.289733" lon="3.279332"><ele>11.2</ele><time>2011-05-07T12:04:06Z</time></trkpt>
<trkpt lat="42.289707" lon="3.279472"><ele>13.1</ele><time>2011-05-07T12:04:13Z</time></trkpt>
<trkpt lat="42.289742" lon="3.279508"><ele>15.3</ele><time>2011-05-07T12:04:18Z</time></trkpt>
<trkpt lat="42.289745" lon="3.279547"><ele>23.6</ele><time>2011-05-07T12:04:23Z</time></trkpt>
<trkpt lat="42.289730" lon="3.279593"><ele>23.6</ele><time>2011-05-07T12:04:28Z</time></trkpt>
<trkpt lat="42.289722" lon="3.279595"><ele>23.3</ele><time>2011-05-07T12:04:33Z</time></trkpt>
<trkpt lat="42.289727" lon="3.279638"><ele>23.2</ele><time>2011-05-07T12:04:38Z</time></trkpt>
<trkpt lat="42.289733" lon="3.279662"><ele>17</ele><time>2011-05-07T12:04:43Z</time></trkpt>
<trkpt lat="42.289745" lon="3.279630"><ele>8</ele><time>2011-05-07T12:04:48Z</time></trkpt>
<trkpt lat="42.289760" lon="3.279640"><ele>4.1</ele><time>2011-05-07T12:04:53Z</time></trkpt>
<trkpt lat="42.289745" lon="3.279630"><ele>12.5</ele><time>2011-05-07T12:04:58Z</time></trkpt>
<trkpt lat="42.289748" lon="3.279577"><ele>16.9</ele><time>2011-05-07T12:05:05Z</time></trkpt>
<trkpt lat="42.289757" lon="3.279497"><ele>24.5</ele><time>2011-05-07T12:05:12Z</time></trkpt>
<trkpt lat="42.289787" lon="3.279468"><ele>33</ele><time>2011-05-07T12:05:17Z</time></trkpt>
<trkpt lat="42.289772" lon="3.279448"><ele>41.8</ele><time>2011-05-07T12:05:22Z</time></trkpt>
<trkpt lat="42.289772" lon="3.279482"><ele>36.4</ele><time>2011-05-07T12:05:27Z</time></trkpt>
<trkpt lat="42.289733" lon="3.279463"><ele>33.8</ele><time>2011-05-07T12:05:32Z</time></trkpt>
<trkpt lat="42.289692" lon="3.279438"><ele>38.4</ele><time>2011-05-07T12:05:37Z</time></trkpt>
<trkpt lat="42.289665" lon="3.279480"><ele>40.5</ele><time>2011-05-07T12:05:42Z</time></trkpt>
</trkseg></trk></gpx>